<?xml version="1.0" encoding="UTF-8" standalone="no" ?>
<gpx xmlns="http://www.topografix.com/GPX/1/1" xmlns:xsi="http://www.w3.org/2001/XMLSchema-instance" xsi:schemaLocation="http://www.topografix.com/GPX/1/1 http://www.topografix.com/GPX/1/1/gpx.xsd" version="1.1" creator="VisuGPX - https://www.visugpx.com">
  <metadata>
    <name>20ème Circuit des Sangliers 2014</name>
    <desc><![CDATA[20ème Circuit des Sangliers 2014]]></desc>
  </metadata>
  <trk>
    <name><![CDATA[Sortie VTT - Le 20ème Circuit des Sangliers à Verneuil s/ Avre]]></name>
    <trkseg>
      <trkpt lat="48.74025" lon="0.91457">
        <ele>175</ele>
        <time>2014-11-09T08:08:18.000Z</time>
      </trkpt>
      <trkpt lat="48.74056" lon="0.91573">
        <ele>174</ele>
        <time>2014-11-09T08:08:35.000Z</time>
      </trkpt>
      <trkpt lat="48.74087" lon="0.91651">
        <ele>174</ele>
        <time>2014-11-09T08:08:47.000Z</time>
      </trkpt>
      <trkpt lat="48.74137" lon="0.91742">
        <ele>174.19999694824</ele>
        <time>2014-11-09T08:09:02.000Z</time>
      </trkpt>
      <trkpt lat="48.74175" lon="0.91859">
        <ele>174.39999389648</ele>
        <time>2014-11-09T08:09:19.000Z</time>
      </trkpt>
      <trkpt lat="48.74197" lon="0.91947">
        <ele>174</ele>
        <time>2014-11-09T08:09:31.000Z</time>
      </trkpt>
      <trkpt lat="48.74198" lon="0.91956">
        <ele>174</ele>
        <time>2014-11-09T08:09:32.000Z</time>
      </trkpt>
      <trkpt lat="48.74206" lon="0.92058">
        <ele>174.19999694824</ele>
        <time>2014-11-09T08:09:45.000Z</time>
      </trkpt>
      <trkpt lat="48.74205" lon="0.92098">
        <ele>174.39999389648</ele>
        <time>2014-11-09T08:09:50.000Z</time>
      </trkpt>
      <trkpt lat="48.74203" lon="0.92114">
        <ele>173.80000305176</ele>
        <time>2014-11-09T08:09:52.000Z</time>
      </trkpt>
      <trkpt lat="48.74201" lon="0.92121">
        <ele>173.39999389648</ele>
        <time>2014-11-09T08:09:53.000Z</time>
      </trkpt>
      <trkpt lat="48.74198" lon="0.92128">
        <ele>173</ele>
        <time>2014-11-09T08:09:54.000Z</time>
      </trkpt>
      <trkpt lat="48.74195" lon="0.92135">
        <ele>172.60000610352</ele>
        <time>2014-11-09T08:09:55.000Z</time>
      </trkpt>
      <trkpt lat="48.74191" lon="0.92141">
        <ele>172.19999694824</ele>
        <time>2014-11-09T08:09:56.000Z</time>
      </trkpt>
      <trkpt lat="48.74187" lon="0.92147">
        <ele>172</ele>
        <time>2014-11-09T08:09:57.000Z</time>
      </trkpt>
      <trkpt lat="48.74183" lon="0.92152">
        <ele>172.19999694824</ele>
        <time>2014-11-09T08:09:58.000Z</time>
      </trkpt>
      <trkpt lat="48.74109" lon="0.92222">
        <ele>173</ele>
        <time>2014-11-09T08:10:15.000Z</time>
      </trkpt>
      <trkpt lat="48.7408" lon="0.9225">
        <ele>173.39999389648</ele>
        <time>2014-11-09T08:10:24.000Z</time>
      </trkpt>
      <trkpt lat="48.7408" lon="0.92255">
        <ele>173.39999389648</ele>
        <time>2014-11-09T08:10:25.000Z</time>
      </trkpt>
      <trkpt lat="48.74082" lon="0.92261">
        <ele>173.39999389648</ele>
        <time>2014-11-09T08:10:26.000Z</time>
      </trkpt>
      <trkpt lat="48.74084" lon="0.92267">
        <ele>173.60000610352</ele>
        <time>2014-11-09T08:10:27.000Z</time>
      </trkpt>
      <trkpt lat="48.74086" lon="0.92272">
        <ele>173.60000610352</ele>
        <time>2014-11-09T08:10:28.000Z</time>
      </trkpt>
      <trkpt lat="48.74129" lon="0.9234">
        <ele>174.39999389648</ele>
        <time>2014-11-09T08:10:40.000Z</time>
      </trkpt>
      <trkpt lat="48.74174" lon="0.92423">
        <ele>175.39999389648</ele>
        <time>2014-11-09T08:10:54.000Z</time>
      </trkpt>
      <trkpt lat="48.74178" lon="0.92435">
        <ele>175.60000610352</ele>
        <time>2014-11-09T08:10:56.000Z</time>
      </trkpt>
      <trkpt lat="48.74193" lon="0.92474">
        <ele>176</ele>
        <time>2014-11-09T08:11:02.000Z</time>
      </trkpt>
      <trkpt lat="48.74195" lon="0.92482">
        <ele>176</ele>
        <time>2014-11-09T08:11:03.000Z</time>
      </trkpt>
      <trkpt lat="48.74196" lon="0.9249">
        <ele>176.19999694824</ele>
        <time>2014-11-09T08:11:04.000Z</time>
      </trkpt>
      <trkpt lat="48.74199" lon="0.92506">
        <ele>176.19999694824</ele>
        <time>2014-11-09T08:11:06.000Z</time>
      </trkpt>
      <trkpt lat="48.74202" lon="0.92514">
        <ele>176.19999694824</ele>
        <time>2014-11-09T08:11:07.000Z</time>
      </trkpt>
      <trkpt lat="48.74208" lon="0.92527">
        <ele>176.19999694824</ele>
        <time>2014-11-09T08:11:09.000Z</time>
      </trkpt>
      <trkpt lat="48.74212" lon="0.92532">
        <ele>176.19999694824</ele>
        <time>2014-11-09T08:11:10.000Z</time>
      </trkpt>
      <trkpt lat="48.74216" lon="0.92537">
        <ele>176.39999389648</ele>
        <time>2014-11-09T08:11:11.000Z</time>
      </trkpt>
      <trkpt lat="48.74221" lon="0.9254">
        <ele>176.39999389648</ele>
        <time>2014-11-09T08:11:12.000Z</time>
      </trkpt>
      <trkpt lat="48.74226" lon="0.92544">
        <ele>176.39999389648</ele>
        <time>2014-11-09T08:11:13.000Z</time>
      </trkpt>
      <trkpt lat="48.7423" lon="0.92549">
        <ele>176.60000610352</ele>
        <time>2014-11-09T08:11:14.000Z</time>
      </trkpt>
      <trkpt lat="48.74235" lon="0.92556">
        <ele>176.60000610352</ele>
        <time>2014-11-09T08:11:15.000Z</time>
      </trkpt>
      <trkpt lat="48.74238" lon="0.92561">
        <ele>176.60000610352</ele>
        <time>2014-11-09T08:11:16.000Z</time>
      </trkpt>
      <trkpt lat="48.74287" lon="0.92663">
        <ele>176.80000305176</ele>
        <time>2014-11-09T08:11:31.000Z</time>
      </trkpt>
      <trkpt lat="48.74335" lon="0.92772">
        <ele>175.39999389648</ele>
        <time>2014-11-09T08:11:46.000Z</time>
      </trkpt>
      <trkpt lat="48.74366" lon="0.92838">
        <ele>174.60000610352</ele>
        <time>2014-11-09T08:11:56.000Z</time>
      </trkpt>
      <trkpt lat="48.74368" lon="0.92846">
        <ele>174.60000610352</ele>
        <time>2014-11-09T08:11:57.000Z</time>
      </trkpt>
      <trkpt lat="48.74367" lon="0.92857">
        <ele>174.39999389648</ele>
        <time>2014-11-09T08:11:58.000Z</time>
      </trkpt>
      <trkpt lat="48.74354" lon="0.93011">
        <ele>173.60000610352</ele>
        <time>2014-11-09T08:12:15.000Z</time>
      </trkpt>
      <trkpt lat="48.74335" lon="0.93232">
        <ele>172.39999389648</ele>
        <time>2014-11-09T08:12:39.000Z</time>
      </trkpt>
      <trkpt lat="48.74328" lon="0.93295">
        <ele>173.39999389648</ele>
        <time>2014-11-09T08:12:46.000Z</time>
      </trkpt>
      <trkpt lat="48.74325" lon="0.93304">
        <ele>173.60000610352</ele>
        <time>2014-11-09T08:12:47.000Z</time>
      </trkpt>
      <trkpt lat="48.74322" lon="0.93311">
        <ele>173.80000305176</ele>
        <time>2014-11-09T08:12:48.000Z</time>
      </trkpt>
      <trkpt lat="48.74317" lon="0.93317">
        <ele>173.80000305176</ele>
        <time>2014-11-09T08:12:49.000Z</time>
      </trkpt>
      <trkpt lat="48.74312" lon="0.9332">
        <ele>174</ele>
        <time>2014-11-09T08:12:50.000Z</time>
      </trkpt>
      <trkpt lat="48.74307" lon="0.93322">
        <ele>174.19999694824</ele>
        <time>2014-11-09T08:12:51.000Z</time>
      </trkpt>
      <trkpt lat="48.74302" lon="0.93324">
        <ele>174.19999694824</ele>
        <time>2014-11-09T08:12:52.000Z</time>
      </trkpt>
      <trkpt lat="48.74297" lon="0.93325">
        <ele>174.39999389648</ele>
        <time>2014-11-09T08:12:53.000Z</time>
      </trkpt>
      <trkpt lat="48.74292" lon="0.93327">
        <ele>174.39999389648</ele>
        <time>2014-11-09T08:12:54.000Z</time>
      </trkpt>
      <trkpt lat="48.74287" lon="0.9333">
        <ele>174.39999389648</ele>
        <time>2014-11-09T08:12:55.000Z</time>
      </trkpt>
      <trkpt lat="48.74283" lon="0.93334">
        <ele>174.19999694824</ele>
        <time>2014-11-09T08:12:56.000Z</time>
      </trkpt>
      <trkpt lat="48.74279" lon="0.93339">
        <ele>174</ele>
        <time>2014-11-09T08:12:57.000Z</time>
      </trkpt>
      <trkpt lat="48.74275" lon="0.93344">
        <ele>173.80000305176</ele>
        <time>2014-11-09T08:12:58.000Z</time>
      </trkpt>
      <trkpt lat="48.74272" lon="0.9335">
        <ele>173.39999389648</ele>
        <time>2014-11-09T08:12:59.000Z</time>
      </trkpt>
      <trkpt lat="48.74269" lon="0.93357">
        <ele>173.19999694824</ele>
        <time>2014-11-09T08:13:00.000Z</time>
      </trkpt>
      <trkpt lat="48.74267" lon="0.93364">
        <ele>173</ele>
        <time>2014-11-09T08:13:01.000Z</time>
      </trkpt>
      <trkpt lat="48.7425" lon="0.93433">
        <ele>171.19999694824</ele>
        <time>2014-11-09T08:13:10.000Z</time>
      </trkpt>
      <trkpt lat="48.74239" lon="0.93488">
        <ele>171.39999389648</ele>
        <time>2014-11-09T08:13:16.000Z</time>
      </trkpt>
      <trkpt lat="48.7423" lon="0.93565">
        <ele>172</ele>
        <time>2014-11-09T08:13:24.000Z</time>
      </trkpt>
      <trkpt lat="48.74229" lon="0.93574">
        <ele>172.19999694824</ele>
        <time>2014-11-09T08:13:25.000Z</time>
      </trkpt>
      <trkpt lat="48.74228" lon="0.93583">
        <ele>172.39999389648</ele>
        <time>2014-11-09T08:13:26.000Z</time>
      </trkpt>
      <trkpt lat="48.74228" lon="0.93592">
        <ele>172.39999389648</ele>
        <time>2014-11-09T08:13:27.000Z</time>
      </trkpt>
      <trkpt lat="48.74227" lon="0.93601">
        <ele>172.39999389648</ele>
        <time>2014-11-09T08:13:28.000Z</time>
      </trkpt>
      <trkpt lat="48.74226" lon="0.93609">
        <ele>172.39999389648</ele>
        <time>2014-11-09T08:13:29.000Z</time>
      </trkpt>
      <trkpt lat="48.74214" lon="0.93747">
        <ele>171</ele>
        <time>2014-11-09T08:13:45.000Z</time>
      </trkpt>
      <trkpt lat="48.7421" lon="0.93806">
        <ele>171.19999694824</ele>
        <time>2014-11-09T08:13:52.000Z</time>
      </trkpt>
      <trkpt lat="48.7421" lon="0.93814">
        <ele>171.19999694824</ele>
        <time>2014-11-09T08:13:53.000Z</time>
      </trkpt>
      <trkpt lat="48.74212" lon="0.93823">
        <ele>171.19999694824</ele>
        <time>2014-11-09T08:13:54.000Z</time>
      </trkpt>
      <trkpt lat="48.74214" lon="0.9383">
        <ele>171</ele>
        <time>2014-11-09T08:13:55.000Z</time>
      </trkpt>
      <trkpt lat="48.74217" lon="0.93838">
        <ele>171</ele>
        <time>2014-11-09T08:13:56.000Z</time>
      </trkpt>
      <trkpt lat="48.74254" lon="0.93959">
        <ele>168</ele>
        <time>2014-11-09T08:14:13.000Z</time>
      </trkpt>
      <trkpt lat="48.74262" lon="0.93985">
        <ele>167.60000610352</ele>
        <time>2014-11-09T08:14:17.000Z</time>
      </trkpt>
      <trkpt lat="48.74265" lon="0.93992">
        <ele>167.60000610352</ele>
        <time>2014-11-09T08:14:18.000Z</time>
      </trkpt>
      <trkpt lat="48.743" lon="0.94092">
        <ele>166.60000610352</ele>
        <time>2014-11-09T08:14:33.000Z</time>
      </trkpt>
      <trkpt lat="48.74344" lon="0.9423">
        <ele>164.19999694824</ele>
        <time>2014-11-09T08:14:53.000Z</time>
      </trkpt>
      <trkpt lat="48.74377" lon="0.94353">
        <ele>163.60000610352</ele>
        <time>2014-11-09T08:15:10.000Z</time>
      </trkpt>
      <trkpt lat="48.74408" lon="0.94505">
        <ele>163</ele>
        <time>2014-11-09T08:15:31.000Z</time>
      </trkpt>
      <trkpt lat="48.74431" lon="0.94618">
        <ele>164.39999389648</ele>
        <time>2014-11-09T08:15:48.000Z</time>
      </trkpt>
      <trkpt lat="48.74467" lon="0.94732">
        <ele>164.60000610352</ele>
        <time>2014-11-09T08:16:08.000Z</time>
      </trkpt>
      <trkpt lat="48.74473" lon="0.94758">
        <ele>164.60000610352</ele>
        <time>2014-11-09T08:16:14.000Z</time>
      </trkpt>
      <trkpt lat="48.74476" lon="0.9476">
        <ele>164.60000610352</ele>
        <time>2014-11-09T08:16:15.000Z</time>
      </trkpt>
      <trkpt lat="48.74479" lon="0.94758">
        <ele>164.39999389648</ele>
        <time>2014-11-09T08:16:16.000Z</time>
      </trkpt>
      <trkpt lat="48.74533" lon="0.94735">
        <ele>164.19999694824</ele>
        <time>2014-11-09T08:16:29.000Z</time>
      </trkpt>
      <trkpt lat="48.74629" lon="0.94696">
        <ele>165.39999389648</ele>
        <time>2014-11-09T08:16:48.000Z</time>
      </trkpt>
      <trkpt lat="48.74666" lon="0.94678">
        <ele>164.60000610352</ele>
        <time>2014-11-09T08:16:55.000Z</time>
      </trkpt>
      <trkpt lat="48.74731" lon="0.94625">
        <ele>164.80000305176</ele>
        <time>2014-11-09T08:17:08.000Z</time>
      </trkpt>
      <trkpt lat="48.74807" lon="0.94521">
        <ele>167.80000305176</ele>
        <time>2014-11-09T08:17:25.000Z</time>
      </trkpt>
      <trkpt lat="48.74833" lon="0.94501">
        <ele>167.60000610352</ele>
        <time>2014-11-09T08:17:30.000Z</time>
      </trkpt>
      <trkpt lat="48.74839" lon="0.94503">
        <ele>167.60000610352</ele>
        <time>2014-11-09T08:17:31.000Z</time>
      </trkpt>
      <trkpt lat="48.74844" lon="0.9451">
        <ele>167.60000610352</ele>
        <time>2014-11-09T08:17:32.000Z</time>
      </trkpt>
      <trkpt lat="48.74847" lon="0.94516">
        <ele>167.60000610352</ele>
        <time>2014-11-09T08:17:33.000Z</time>
      </trkpt>
      <trkpt lat="48.7485" lon="0.94523">
        <ele>167.60000610352</ele>
        <time>2014-11-09T08:17:34.000Z</time>
      </trkpt>
      <trkpt lat="48.74908" lon="0.94638">
        <ele>168</ele>
        <time>2014-11-09T08:17:51.000Z</time>
      </trkpt>
      <trkpt lat="48.74978" lon="0.94755">
        <ele>168.60000610352</ele>
        <time>2014-11-09T08:18:08.000Z</time>
      </trkpt>
      <trkpt lat="48.75043" lon="0.94863">
        <ele>166.39999389648</ele>
        <time>2014-11-09T08:18:23.000Z</time>
      </trkpt>
      <trkpt lat="48.75092" lon="0.94927">
        <ele>165.60000610352</ele>
        <time>2014-11-09T08:18:33.000Z</time>
      </trkpt>
      <trkpt lat="48.75098" lon="0.94932">
        <ele>165.60000610352</ele>
        <time>2014-11-09T08:18:34.000Z</time>
      </trkpt>
      <trkpt lat="48.75102" lon="0.94935">
        <ele>165.60000610352</ele>
        <time>2014-11-09T08:18:35.000Z</time>
      </trkpt>
      <trkpt lat="48.75152" lon="0.94959">
        <ele>165.19999694824</ele>
        <time>2014-11-09T08:18:43.000Z</time>
      </trkpt>
      <trkpt lat="48.75199" lon="0.94996">
        <ele>165</ele>
        <time>2014-11-09T08:18:51.000Z</time>
      </trkpt>
      <trkpt lat="48.75281" lon="0.9509">
        <ele>165.19999694824</ele>
        <time>2014-11-09T08:19:07.000Z</time>
      </trkpt>
      <trkpt lat="48.75321" lon="0.95135">
        <ele>165.39999389648</ele>
        <time>2014-11-09T08:19:15.000Z</time>
      </trkpt>
      <trkpt lat="48.75341" lon="0.95148">
        <ele>165</ele>
        <time>2014-11-09T08:19:19.000Z</time>
      </trkpt>
      <trkpt lat="48.75347" lon="0.95149">
        <ele>164.80000305176</ele>
        <time>2014-11-09T08:19:20.000Z</time>
      </trkpt>
      <trkpt lat="48.75352" lon="0.95149">
        <ele>164.80000305176</ele>
        <time>2014-11-09T08:19:21.000Z</time>
      </trkpt>
      <trkpt lat="48.75362" lon="0.95148">
        <ele>164.80000305176</ele>
        <time>2014-11-09T08:19:23.000Z</time>
      </trkpt>
      <trkpt lat="48.75376" lon="0.95144">
        <ele>164.80000305176</ele>
        <time>2014-11-09T08:19:26.000Z</time>
      </trkpt>
      <trkpt lat="48.75395" lon="0.95136">
        <ele>164.39999389648</ele>
        <time>2014-11-09T08:19:30.000Z</time>
      </trkpt>
      <trkpt lat="48.754" lon="0.95135">
        <ele>164.39999389648</ele>
        <time>2014-11-09T08:19:31.000Z</time>
      </trkpt>
      <trkpt lat="48.75406" lon="0.95137">
        <ele>164.39999389648</ele>
        <time>2014-11-09T08:19:32.000Z</time>
      </trkpt>
      <trkpt lat="48.7541" lon="0.9514">
        <ele>164.39999389648</ele>
        <time>2014-11-09T08:19:33.000Z</time>
      </trkpt>
      <trkpt lat="48.75414" lon="0.95146">
        <ele>164.19999694824</ele>
        <time>2014-11-09T08:19:34.000Z</time>
      </trkpt>
      <trkpt lat="48.75418" lon="0.95152">
        <ele>164.19999694824</ele>
        <time>2014-11-09T08:19:35.000Z</time>
      </trkpt>
      <trkpt lat="48.75421" lon="0.95159">
        <ele>164</ele>
        <time>2014-11-09T08:19:36.000Z</time>
      </trkpt>
      <trkpt lat="48.75467" lon="0.9525">
        <ele>162.60000610352</ele>
        <time>2014-11-09T08:19:50.000Z</time>
      </trkpt>
      <trkpt lat="48.75471" lon="0.95255">
        <ele>162.60000610352</ele>
        <time>2014-11-09T08:19:51.000Z</time>
      </trkpt>
      <trkpt lat="48.75517" lon="0.95345">
        <ele>162.39999389648</ele>
        <time>2014-11-09T08:20:05.000Z</time>
      </trkpt>
      <trkpt lat="48.75522" lon="0.95357">
        <ele>162.60000610352</ele>
        <time>2014-11-09T08:20:07.000Z</time>
      </trkpt>
      <trkpt lat="48.75528" lon="0.95368">
        <ele>163</ele>
        <time>2014-11-09T08:20:09.000Z</time>
      </trkpt>
      <trkpt lat="48.75532" lon="0.95373">
        <ele>163.19999694824</ele>
        <time>2014-11-09T08:20:10.000Z</time>
      </trkpt>
      <trkpt lat="48.75535" lon="0.95376">
        <ele>163.60000610352</ele>
        <time>2014-11-09T08:20:11.000Z</time>
      </trkpt>
      <trkpt lat="48.75539" lon="0.95379">
        <ele>163.80000305176</ele>
        <time>2014-11-09T08:20:12.000Z</time>
      </trkpt>
      <trkpt lat="48.75544" lon="0.95379">
        <ele>164</ele>
        <time>2014-11-09T08:20:13.000Z</time>
      </trkpt>
      <trkpt lat="48.75549" lon="0.95378">
        <ele>164.19999694824</ele>
        <time>2014-11-09T08:20:14.000Z</time>
      </trkpt>
      <trkpt lat="48.75553" lon="0.95377">
        <ele>164.39999389648</ele>
        <time>2014-11-09T08:20:15.000Z</time>
      </trkpt>
      <trkpt lat="48.75567" lon="0.95371">
        <ele>165</ele>
        <time>2014-11-09T08:20:18.000Z</time>
      </trkpt>
      <trkpt lat="48.75572" lon="0.95371">
        <ele>165.19999694824</ele>
        <time>2014-11-09T08:20:19.000Z</time>
      </trkpt>
      <trkpt lat="48.75577" lon="0.95369">
        <ele>165.39999389648</ele>
        <time>2014-11-09T08:20:20.000Z</time>
      </trkpt>
      <trkpt lat="48.75582" lon="0.95368">
        <ele>165.60000610352</ele>
        <time>2014-11-09T08:20:21.000Z</time>
      </trkpt>
      <trkpt lat="48.75587" lon="0.95368">
        <ele>165.60000610352</ele>
        <time>2014-11-09T08:20:22.000Z</time>
      </trkpt>
      <trkpt lat="48.75592" lon="0.95368">
        <ele>165.80000305176</ele>
        <time>2014-11-09T08:20:23.000Z</time>
      </trkpt>
      <trkpt lat="48.75597" lon="0.95368">
        <ele>165.80000305176</ele>
        <time>2014-11-09T08:20:24.000Z</time>
      </trkpt>
      <trkpt lat="48.75657" lon="0.95385">
        <ele>167.39999389648</ele>
        <time>2014-11-09T08:20:37.000Z</time>
      </trkpt>
      <trkpt lat="48.75699" lon="0.95409">
        <ele>168.60000610352</ele>
        <time>2014-11-09T08:20:50.000Z</time>
      </trkpt>
      <trkpt lat="48.75738" lon="0.95466">
        <ele>170.39999389648</ele>
        <time>2014-11-09T08:21:03.000Z</time>
      </trkpt>
      <trkpt lat="48.75752" lon="0.95487">
        <ele>170.39999389648</ele>
        <time>2014-11-09T08:21:07.000Z</time>
      </trkpt>
      <trkpt lat="48.75778" lon="0.9552">
        <ele>169.80000305176</ele>
        <time>2014-11-09T08:21:14.000Z</time>
      </trkpt>
      <trkpt lat="48.7583" lon="0.95608">
        <ele>169.80000305176</ele>
        <time>2014-11-09T08:21:30.000Z</time>
      </trkpt>
      <trkpt lat="48.75851" lon="0.95649">
        <ele>169.60000610352</ele>
        <time>2014-11-09T08:21:37.000Z</time>
      </trkpt>
      <trkpt lat="48.75891" lon="0.9572">
        <ele>167.60000610352</ele>
        <time>2014-11-09T08:21:49.000Z</time>
      </trkpt>
      <trkpt lat="48.75939" lon="0.95824">
        <ele>166</ele>
        <time>2014-11-09T08:22:05.000Z</time>
      </trkpt>
      <trkpt lat="48.75955" lon="0.95872">
        <ele>166.19999694824</ele>
        <time>2014-11-09T08:22:12.000Z</time>
      </trkpt>
      <trkpt lat="48.75979" lon="0.95981">
        <ele>165.39999389648</ele>
        <time>2014-11-09T08:22:28.000Z</time>
      </trkpt>
      <trkpt lat="48.76022" lon="0.96089">
        <ele>164.60000610352</ele>
        <time>2014-11-09T08:22:46.000Z</time>
      </trkpt>
      <trkpt lat="48.76031" lon="0.96115">
        <ele>164.60000610352</ele>
        <time>2014-11-09T08:22:50.000Z</time>
      </trkpt>
      <trkpt lat="48.76041" lon="0.96155">
        <ele>164.60000610352</ele>
        <time>2014-11-09T08:22:56.000Z</time>
      </trkpt>
      <trkpt lat="48.76069" lon="0.96287">
        <ele>165.60000610352</ele>
        <time>2014-11-09T08:23:16.000Z</time>
      </trkpt>
      <trkpt lat="48.76071" lon="0.96293">
        <ele>165.60000610352</ele>
        <time>2014-11-09T08:23:17.000Z</time>
      </trkpt>
      <trkpt lat="48.76077" lon="0.96326">
        <ele>166.19999694824</ele>
        <time>2014-11-09T08:23:22.000Z</time>
      </trkpt>
      <trkpt lat="48.76078" lon="0.96333">
        <ele>166.19999694824</ele>
        <time>2014-11-09T08:23:23.000Z</time>
      </trkpt>
      <trkpt lat="48.76079" lon="0.96339">
        <ele>166.39999389648</ele>
        <time>2014-11-09T08:23:24.000Z</time>
      </trkpt>
      <trkpt lat="48.76083" lon="0.96352">
        <ele>166.60000610352</ele>
        <time>2014-11-09T08:23:26.000Z</time>
      </trkpt>
      <trkpt lat="48.7609" lon="0.96369">
        <ele>166.80000305176</ele>
        <time>2014-11-09T08:23:29.000Z</time>
      </trkpt>
      <trkpt lat="48.76104" lon="0.96391">
        <ele>167</ele>
        <time>2014-11-09T08:23:33.000Z</time>
      </trkpt>
      <trkpt lat="48.76108" lon="0.96394">
        <ele>167</ele>
        <time>2014-11-09T08:23:34.000Z</time>
      </trkpt>
      <trkpt lat="48.76113" lon="0.96397">
        <ele>167.19999694824</ele>
        <time>2014-11-09T08:23:35.000Z</time>
      </trkpt>
      <trkpt lat="48.76118" lon="0.96399">
        <ele>167.19999694824</ele>
        <time>2014-11-09T08:23:36.000Z</time>
      </trkpt>
      <trkpt lat="48.76123" lon="0.964">
        <ele>167.19999694824</ele>
        <time>2014-11-09T08:23:37.000Z</time>
      </trkpt>
      <trkpt lat="48.76133" lon="0.96402">
        <ele>167.19999694824</ele>
        <time>2014-11-09T08:23:39.000Z</time>
      </trkpt>
      <trkpt lat="48.76138" lon="0.96405">
        <ele>167.39999389648</ele>
        <time>2014-11-09T08:23:40.000Z</time>
      </trkpt>
      <trkpt lat="48.76142" lon="0.96409">
        <ele>167.39999389648</ele>
        <time>2014-11-09T08:23:41.000Z</time>
      </trkpt>
      <trkpt lat="48.76148" lon="0.9643">
        <ele>168</ele>
        <time>2014-11-09T08:23:44.000Z</time>
      </trkpt>
      <trkpt lat="48.76168" lon="0.96529">
        <ele>168.80000305176</ele>
        <time>2014-11-09T08:23:58.000Z</time>
      </trkpt>
      <trkpt lat="48.7617" lon="0.96539">
        <ele>168.80000305176</ele>
        <time>2014-11-09T08:24:00.000Z</time>
      </trkpt>
      <trkpt lat="48.76176" lon="0.9656">
        <ele>168.80000305176</ele>
        <time>2014-11-09T08:24:03.000Z</time>
      </trkpt>
      <trkpt lat="48.76194" lon="0.96605">
        <ele>169.39999389648</ele>
        <time>2014-11-09T08:24:10.000Z</time>
      </trkpt>
      <trkpt lat="48.7622" lon="0.96668">
        <ele>170</ele>
        <time>2014-11-09T08:24:20.000Z</time>
      </trkpt>
      <trkpt lat="48.76225" lon="0.96681">
        <ele>170</ele>
        <time>2014-11-09T08:24:22.000Z</time>
      </trkpt>
      <trkpt lat="48.76225" lon="0.96711">
        <ele>170</ele>
        <time>2014-11-09T08:24:27.000Z</time>
      </trkpt>
      <trkpt lat="48.76211" lon="0.96743">
        <ele>170</ele>
        <time>2014-11-09T08:24:33.000Z</time>
      </trkpt>
      <trkpt lat="48.76191" lon="0.96771">
        <ele>170</ele>
        <time>2014-11-09T08:24:39.000Z</time>
      </trkpt>
      <trkpt lat="48.7619" lon="0.96814">
        <ele>170</ele>
        <time>2014-11-09T08:24:46.000Z</time>
      </trkpt>
      <trkpt lat="48.76217" lon="0.96934">
        <ele>170.19999694824</ele>
        <time>2014-11-09T08:25:05.000Z</time>
      </trkpt>
      <trkpt lat="48.76234" lon="0.97061">
        <ele>171.60000610352</ele>
        <time>2014-11-09T08:25:25.000Z</time>
      </trkpt>
      <trkpt lat="48.76229" lon="0.97169">
        <ele>171.60000610352</ele>
        <time>2014-11-09T08:25:42.000Z</time>
      </trkpt>
      <trkpt lat="48.76211" lon="0.97309">
        <ele>172.19999694824</ele>
        <time>2014-11-09T08:26:04.000Z</time>
      </trkpt>
      <trkpt lat="48.76214" lon="0.97448">
        <ele>172.60000610352</ele>
        <time>2014-11-09T08:26:26.000Z</time>
      </trkpt>
      <trkpt lat="48.76226" lon="0.97556">
        <ele>170</ele>
        <time>2014-11-09T08:26:43.000Z</time>
      </trkpt>
      <trkpt lat="48.76244" lon="0.97657">
        <ele>171.39999389648</ele>
        <time>2014-11-09T08:26:59.000Z</time>
      </trkpt>
      <trkpt lat="48.76268" lon="0.97767">
        <ele>171</ele>
        <time>2014-11-09T08:27:17.000Z</time>
      </trkpt>
      <trkpt lat="48.76275" lon="0.97797">
        <ele>171</ele>
        <time>2014-11-09T08:27:22.000Z</time>
      </trkpt>
      <trkpt lat="48.76304" lon="0.97904">
        <ele>169.80000305176</ele>
        <time>2014-11-09T08:27:41.000Z</time>
      </trkpt>
      <trkpt lat="48.76328" lon="0.9799">
        <ele>170.60000610352</ele>
        <time>2014-11-09T08:27:56.000Z</time>
      </trkpt>
      <trkpt lat="48.76361" lon="0.981">
        <ele>170.60000610352</ele>
        <time>2014-11-09T08:28:14.000Z</time>
      </trkpt>
      <trkpt lat="48.76389" lon="0.98207">
        <ele>169.60000610352</ele>
        <time>2014-11-09T08:28:32.000Z</time>
      </trkpt>
      <trkpt lat="48.76412" lon="0.98291">
        <ele>170.60000610352</ele>
        <time>2014-11-09T08:28:46.000Z</time>
      </trkpt>
      <trkpt lat="48.76439" lon="0.98388">
        <ele>172</ele>
        <time>2014-11-09T08:29:03.000Z</time>
      </trkpt>
      <trkpt lat="48.76449" lon="0.98448">
        <ele>172.60000610352</ele>
        <time>2014-11-09T08:29:13.000Z</time>
      </trkpt>
      <trkpt lat="48.76462" lon="0.98572">
        <ele>172.80000305176</ele>
        <time>2014-11-09T08:29:35.000Z</time>
      </trkpt>
      <trkpt lat="48.76462" lon="0.98673">
        <ele>174.80000305176</ele>
        <time>2014-11-09T08:29:53.000Z</time>
      </trkpt>
      <trkpt lat="48.76441" lon="0.98762">
        <ele>175.60000610352</ele>
        <time>2014-11-09T08:30:12.000Z</time>
      </trkpt>
      <trkpt lat="48.76414" lon="0.98836">
        <ele>175.39999389648</ele>
        <time>2014-11-09T08:30:28.000Z</time>
      </trkpt>
      <trkpt lat="48.764" lon="0.98876">
        <ele>175.80000305176</ele>
        <time>2014-11-09T08:30:37.000Z</time>
      </trkpt>
      <trkpt lat="48.76431" lon="0.98973">
        <ele>175</ele>
        <time>2014-11-09T08:30:56.000Z</time>
      </trkpt>
      <trkpt lat="48.76461" lon="0.99031">
        <ele>174.80000305176</ele>
        <time>2014-11-09T08:31:08.000Z</time>
      </trkpt>
      <trkpt lat="48.76503" lon="0.99097">
        <ele>176</ele>
        <time>2014-11-09T08:31:24.000Z</time>
      </trkpt>
      <trkpt lat="48.76538" lon="0.99174">
        <ele>177.19999694824</ele>
        <time>2014-11-09T08:31:40.000Z</time>
      </trkpt>
      <trkpt lat="48.76544" lon="0.99191">
        <ele>177.19999694824</ele>
        <time>2014-11-09T08:31:43.000Z</time>
      </trkpt>
      <trkpt lat="48.76555" lon="0.99227">
        <ele>177.60000610352</ele>
        <time>2014-11-09T08:31:49.000Z</time>
      </trkpt>
      <trkpt lat="48.76575" lon="0.99296">
        <ele>180.60000610352</ele>
        <time>2014-11-09T08:32:02.000Z</time>
      </trkpt>
      <trkpt lat="48.76579" lon="0.99311">
        <ele>181.19999694824</ele>
        <time>2014-11-09T08:32:05.000Z</time>
      </trkpt>
      <trkpt lat="48.76596" lon="0.99373">
        <ele>182.39999389648</ele>
        <time>2014-11-09T08:32:16.000Z</time>
      </trkpt>
      <trkpt lat="48.7661" lon="0.99445">
        <ele>183.19999694824</ele>
        <time>2014-11-09T08:32:29.000Z</time>
      </trkpt>
      <trkpt lat="48.76619" lon="0.995">
        <ele>182.60000610352</ele>
        <time>2014-11-09T08:32:41.000Z</time>
      </trkpt>
      <trkpt lat="48.7663" lon="0.99552">
        <ele>180.60000610352</ele>
        <time>2014-11-09T08:32:53.000Z</time>
      </trkpt>
      <trkpt lat="48.76642" lon="0.99617">
        <ele>179.39999389648</ele>
        <time>2014-11-09T08:33:05.000Z</time>
      </trkpt>
      <trkpt lat="48.76639" lon="0.99641">
        <ele>178.60000610352</ele>
        <time>2014-11-09T08:33:09.000Z</time>
      </trkpt>
      <trkpt lat="48.76641" lon="0.99647">
        <ele>178.39999389648</ele>
        <time>2014-11-09T08:33:10.000Z</time>
      </trkpt>
      <trkpt lat="48.76643" lon="0.99652">
        <ele>178.39999389648</ele>
        <time>2014-11-09T08:33:11.000Z</time>
      </trkpt>
      <trkpt lat="48.76653" lon="0.99661">
        <ele>178.19999694824</ele>
        <time>2014-11-09T08:33:14.000Z</time>
      </trkpt>
      <trkpt lat="48.76696" lon="0.99733">
        <ele>177</ele>
        <time>2014-11-09T08:33:30.000Z</time>
      </trkpt>
      <trkpt lat="48.76722" lon="0.99792">
        <ele>176.19999694824</ele>
        <time>2014-11-09T08:33:40.000Z</time>
      </trkpt>
      <trkpt lat="48.76769" lon="0.99902">
        <ele>175.19999694824</ele>
        <time>2014-11-09T08:33:59.000Z</time>
      </trkpt>
      <trkpt lat="48.76807" lon="0.99993">
        <ele>175.60000610352</ele>
        <time>2014-11-09T08:34:14.000Z</time>
      </trkpt>
      <trkpt lat="48.76848" lon="1.00092">
        <ele>175</ele>
        <time>2014-11-09T08:34:31.000Z</time>
      </trkpt>
      <trkpt lat="48.76856" lon="1.0011">
        <ele>175</ele>
        <time>2014-11-09T08:34:34.000Z</time>
      </trkpt>
      <trkpt lat="48.76864" lon="1.00129">
        <ele>174.80000305176</ele>
        <time>2014-11-09T08:34:37.000Z</time>
      </trkpt>
      <trkpt lat="48.76874" lon="1.00151">
        <ele>174.80000305176</ele>
        <time>2014-11-09T08:34:41.000Z</time>
      </trkpt>
      <trkpt lat="48.76871" lon="1.00172">
        <ele>175.39999389648</ele>
        <time>2014-11-09T08:34:45.000Z</time>
      </trkpt>
      <trkpt lat="48.76837" lon="1.00265">
        <ele>177</ele>
        <time>2014-11-09T08:35:03.000Z</time>
      </trkpt>
      <trkpt lat="48.76806" lon="1.00335">
        <ele>175.60000610352</ele>
        <time>2014-11-09T08:35:16.000Z</time>
      </trkpt>
      <trkpt lat="48.7678" lon="1.00368">
        <ele>175.19999694824</ele>
        <time>2014-11-09T08:35:24.000Z</time>
      </trkpt>
      <trkpt lat="48.7677" lon="1.0038">
        <ele>175</ele>
        <time>2014-11-09T08:35:27.000Z</time>
      </trkpt>
      <trkpt lat="48.7673" lon="1.00426">
        <ele>177.19999694824</ele>
        <time>2014-11-09T08:35:40.000Z</time>
      </trkpt>
      <trkpt lat="48.76708" lon="1.00468">
        <ele>175.80000305176</ele>
        <time>2014-11-09T08:35:51.000Z</time>
      </trkpt>
      <trkpt lat="48.76656" lon="1.00535">
        <ele>175.80000305176</ele>
        <time>2014-11-09T08:36:12.000Z</time>
      </trkpt>
      <trkpt lat="48.76609" lon="1.00583">
        <ele>176.19999694824</ele>
        <time>2014-11-09T08:36:29.000Z</time>
      </trkpt>
      <trkpt lat="48.76563" lon="1.00641">
        <ele>175.60000610352</ele>
        <time>2014-11-09T08:36:47.000Z</time>
      </trkpt>
      <trkpt lat="48.76495" lon="1.00713">
        <ele>174</ele>
        <time>2014-11-09T08:37:10.000Z</time>
      </trkpt>
      <trkpt lat="48.76444" lon="1.00759">
        <ele>174</ele>
        <time>2014-11-09T08:37:25.000Z</time>
      </trkpt>
      <trkpt lat="48.76418" lon="1.00778">
        <ele>173.80000305176</ele>
        <time>2014-11-09T08:37:32.000Z</time>
      </trkpt>
      <trkpt lat="48.76403" lon="1.00786">
        <ele>173.80000305176</ele>
        <time>2014-11-09T08:37:36.000Z</time>
      </trkpt>
      <trkpt lat="48.76365" lon="1.00796">
        <ele>173.80000305176</ele>
        <time>2014-11-09T08:37:45.000Z</time>
      </trkpt>
      <trkpt lat="48.76349" lon="1.00794">
        <ele>173.80000305176</ele>
        <time>2014-11-09T08:37:49.000Z</time>
      </trkpt>
      <trkpt lat="48.76345" lon="1.00795">
        <ele>173.80000305176</ele>
        <time>2014-11-09T08:37:50.000Z</time>
      </trkpt>
      <trkpt lat="48.76342" lon="1.00797">
        <ele>173.80000305176</ele>
        <time>2014-11-09T08:37:51.000Z</time>
      </trkpt>
      <trkpt lat="48.76334" lon="1.00799">
        <ele>173.60000610352</ele>
        <time>2014-11-09T08:37:53.000Z</time>
      </trkpt>
      <trkpt lat="48.76267" lon="1.00816">
        <ele>171.80000305176</ele>
        <time>2014-11-09T08:38:07.000Z</time>
      </trkpt>
      <trkpt lat="48.76246" lon="1.00822">
        <ele>171.39999389648</ele>
        <time>2014-11-09T08:38:12.000Z</time>
      </trkpt>
      <trkpt lat="48.76193" lon="1.0084">
        <ele>170.60000610352</ele>
        <time>2014-11-09T08:38:24.000Z</time>
      </trkpt>
      <trkpt lat="48.76102" lon="1.00851">
        <ele>170</ele>
        <time>2014-11-09T08:38:44.000Z</time>
      </trkpt>
      <trkpt lat="48.76071" lon="1.00853">
        <ele>169.60000610352</ele>
        <time>2014-11-09T08:38:51.000Z</time>
      </trkpt>
      <trkpt lat="48.76002" lon="1.00829">
        <ele>169.39999389648</ele>
        <time>2014-11-09T08:39:10.000Z</time>
      </trkpt>
      <trkpt lat="48.75956" lon="1.00813">
        <ele>170.60000610352</ele>
        <time>2014-11-09T08:39:25.000Z</time>
      </trkpt>
      <trkpt lat="48.759" lon="1.0082">
        <ele>171.39999389648</ele>
        <time>2014-11-09T08:39:43.000Z</time>
      </trkpt>
      <trkpt lat="48.7585" lon="1.00844">
        <ele>171.60000610352</ele>
        <time>2014-11-09T08:40:00.000Z</time>
      </trkpt>
      <trkpt lat="48.75835" lon="1.00857">
        <ele>171.39999389648</ele>
        <time>2014-11-09T08:40:06.000Z</time>
      </trkpt>
      <trkpt lat="48.75842" lon="1.00925">
        <ele>171.19999694824</ele>
        <time>2014-11-09T08:40:20.000Z</time>
      </trkpt>
      <trkpt lat="48.75853" lon="1.01007">
        <ele>171</ele>
        <time>2014-11-09T08:40:37.000Z</time>
      </trkpt>
      <trkpt lat="48.75867" lon="1.0113">
        <ele>170.80000305176</ele>
        <time>2014-11-09T08:40:59.000Z</time>
      </trkpt>
      <trkpt lat="48.75879" lon="1.01228">
        <ele>171.39999389648</ele>
        <time>2014-11-09T08:41:16.000Z</time>
      </trkpt>
      <trkpt lat="48.75905" lon="1.01288">
        <ele>170.80000305176</ele>
        <time>2014-11-09T08:41:29.000Z</time>
      </trkpt>
      <trkpt lat="48.75945" lon="1.01333">
        <ele>169.39999389648</ele>
        <time>2014-11-09T08:41:42.000Z</time>
      </trkpt>
      <trkpt lat="48.75978" lon="1.01378">
        <ele>168.80000305176</ele>
        <time>2014-11-09T08:41:53.000Z</time>
      </trkpt>
      <trkpt lat="48.75999" lon="1.01413">
        <ele>168.39999389648</ele>
        <time>2014-11-09T08:42:00.000Z</time>
      </trkpt>
      <trkpt lat="48.76005" lon="1.01422">
        <ele>168.39999389648</ele>
        <time>2014-11-09T08:42:02.000Z</time>
      </trkpt>
      <trkpt lat="48.7605" lon="1.0149">
        <ele>168</ele>
        <time>2014-11-09T08:42:17.000Z</time>
      </trkpt>
      <trkpt lat="48.76094" lon="1.01567">
        <ele>167.60000610352</ele>
        <time>2014-11-09T08:42:32.000Z</time>
      </trkpt>
      <trkpt lat="48.7613" lon="1.01639">
        <ele>166.39999389648</ele>
        <time>2014-11-09T08:42:47.000Z</time>
      </trkpt>
      <trkpt lat="48.76182" lon="1.01734">
        <ele>168</ele>
        <time>2014-11-09T08:43:05.000Z</time>
      </trkpt>
      <trkpt lat="48.76178" lon="1.01748">
        <ele>168</ele>
        <time>2014-11-09T08:43:10.000Z</time>
      </trkpt>
      <trkpt lat="48.76129" lon="1.01768">
        <ele>166.39999389648</ele>
        <time>2014-11-09T08:43:25.000Z</time>
      </trkpt>
      <trkpt lat="48.7606" lon="1.01809">
        <ele>165</ele>
        <time>2014-11-09T08:43:41.000Z</time>
      </trkpt>
      <trkpt lat="48.76036" lon="1.01827">
        <ele>164.60000610352</ele>
        <time>2014-11-09T08:43:46.000Z</time>
      </trkpt>
      <trkpt lat="48.7596" lon="1.01919">
        <ele>164.19999694824</ele>
        <time>2014-11-09T08:44:04.000Z</time>
      </trkpt>
      <trkpt lat="48.75897" lon="1.02001">
        <ele>164.60000610352</ele>
        <time>2014-11-09T08:44:20.000Z</time>
      </trkpt>
      <trkpt lat="48.75841" lon="1.02103">
        <ele>161.60000610352</ele>
        <time>2014-11-09T08:44:37.000Z</time>
      </trkpt>
      <trkpt lat="48.75799" lon="1.02226">
        <ele>160.60000610352</ele>
        <time>2014-11-09T08:44:55.000Z</time>
      </trkpt>
      <trkpt lat="48.75781" lon="1.02365">
        <ele>159.60000610352</ele>
        <time>2014-11-09T08:45:14.000Z</time>
      </trkpt>
      <trkpt lat="48.75779" lon="1.02427">
        <ele>158.80000305176</ele>
        <time>2014-11-09T08:45:23.000Z</time>
      </trkpt>
      <trkpt lat="48.75762" lon="1.02539">
        <ele>158.19999694824</ele>
        <time>2014-11-09T08:45:40.000Z</time>
      </trkpt>
      <trkpt lat="48.75761" lon="1.02545">
        <ele>158.19999694824</ele>
        <time>2014-11-09T08:45:41.000Z</time>
      </trkpt>
      <trkpt lat="48.75715" lon="1.026">
        <ele>159.60000610352</ele>
        <time>2014-11-09T08:45:56.000Z</time>
      </trkpt>
      <trkpt lat="48.75641" lon="1.0264">
        <ele>158.39999389648</ele>
        <time>2014-11-09T08:46:17.000Z</time>
      </trkpt>
      <trkpt lat="48.75561" lon="1.02677">
        <ele>158</ele>
        <time>2014-11-09T08:46:37.000Z</time>
      </trkpt>
      <trkpt lat="48.75552" lon="1.02684">
        <ele>158</ele>
        <time>2014-11-09T08:46:40.000Z</time>
      </trkpt>
      <trkpt lat="48.75551" lon="1.02689">
        <ele>157.80000305176</ele>
        <time>2014-11-09T08:46:41.000Z</time>
      </trkpt>
      <trkpt lat="48.75552" lon="1.02694">
        <ele>157.80000305176</ele>
        <time>2014-11-09T08:46:42.000Z</time>
      </trkpt>
      <trkpt lat="48.75553" lon="1.02699">
        <ele>157.60000610352</ele>
        <time>2014-11-09T08:46:43.000Z</time>
      </trkpt>
      <trkpt lat="48.75554" lon="1.02705">
        <ele>157.39999389648</ele>
        <time>2014-11-09T08:46:44.000Z</time>
      </trkpt>
      <trkpt lat="48.75575" lon="1.02828">
        <ele>157.60000610352</ele>
        <time>2014-11-09T08:47:02.000Z</time>
      </trkpt>
      <trkpt lat="48.75578" lon="1.02855">
        <ele>158.60000610352</ele>
        <time>2014-11-09T08:47:06.000Z</time>
      </trkpt>
      <trkpt lat="48.75577" lon="1.02862">
        <ele>159</ele>
        <time>2014-11-09T08:47:07.000Z</time>
      </trkpt>
      <trkpt lat="48.75581" lon="1.02923">
        <ele>161.39999389648</ele>
        <time>2014-11-09T08:47:18.000Z</time>
      </trkpt>
      <trkpt lat="48.75593" lon="1.02984">
        <ele>163.80000305176</ele>
        <time>2014-11-09T08:47:31.000Z</time>
      </trkpt>
      <trkpt lat="48.75609" lon="1.03052">
        <ele>164.80000305176</ele>
        <time>2014-11-09T08:47:47.000Z</time>
      </trkpt>
      <trkpt lat="48.75622" lon="1.03118">
        <ele>166</ele>
        <time>2014-11-09T08:48:03.000Z</time>
      </trkpt>
      <trkpt lat="48.75628" lon="1.03197">
        <ele>167</ele>
        <time>2014-11-09T08:48:22.000Z</time>
      </trkpt>
      <trkpt lat="48.75634" lon="1.03264">
        <ele>168.19999694824</ele>
        <time>2014-11-09T08:48:38.000Z</time>
      </trkpt>
      <trkpt lat="48.75644" lon="1.03347">
        <ele>168.80000305176</ele>
        <time>2014-11-09T08:48:55.000Z</time>
      </trkpt>
      <trkpt lat="48.75657" lon="1.03415">
        <ele>168.60000610352</ele>
        <time>2014-11-09T08:49:08.000Z</time>
      </trkpt>
      <trkpt lat="48.75664" lon="1.03484">
        <ele>168.19999694824</ele>
        <time>2014-11-09T08:49:19.000Z</time>
      </trkpt>
      <trkpt lat="48.75665" lon="1.03496">
        <ele>168</ele>
        <time>2014-11-09T08:49:21.000Z</time>
      </trkpt>
      <trkpt lat="48.75665" lon="1.03502">
        <ele>167.80000305176</ele>
        <time>2014-11-09T08:49:22.000Z</time>
      </trkpt>
      <trkpt lat="48.75666" lon="1.03546">
        <ele>167</ele>
        <time>2014-11-09T08:49:29.000Z</time>
      </trkpt>
      <trkpt lat="48.7566" lon="1.03645">
        <ele>166.39999389648</ele>
        <time>2014-11-09T08:49:45.000Z</time>
      </trkpt>
      <trkpt lat="48.75651" lon="1.03693">
        <ele>166.19999694824</ele>
        <time>2014-11-09T08:49:53.000Z</time>
      </trkpt>
      <trkpt lat="48.75649" lon="1.03699">
        <ele>166.39999389648</ele>
        <time>2014-11-09T08:49:54.000Z</time>
      </trkpt>
      <trkpt lat="48.75645" lon="1.0371">
        <ele>166.60000610352</ele>
        <time>2014-11-09T08:49:56.000Z</time>
      </trkpt>
      <trkpt lat="48.75642" lon="1.03714">
        <ele>166.80000305176</ele>
        <time>2014-11-09T08:49:57.000Z</time>
      </trkpt>
      <trkpt lat="48.75639" lon="1.03719">
        <ele>166.80000305176</ele>
        <time>2014-11-09T08:49:58.000Z</time>
      </trkpt>
      <trkpt lat="48.75636" lon="1.03722">
        <ele>167</ele>
        <time>2014-11-09T08:49:59.000Z</time>
      </trkpt>
      <trkpt lat="48.75633" lon="1.03726">
        <ele>167</ele>
        <time>2014-11-09T08:50:00.000Z</time>
      </trkpt>
      <trkpt lat="48.75629" lon="1.03728">
        <ele>167</ele>
        <time>2014-11-09T08:50:01.000Z</time>
      </trkpt>
      <trkpt lat="48.75626" lon="1.0373">
        <ele>167</ele>
        <time>2014-11-09T08:50:02.000Z</time>
      </trkpt>
      <trkpt lat="48.75622" lon="1.03731">
        <ele>167</ele>
        <time>2014-11-09T08:50:03.000Z</time>
      </trkpt>
      <trkpt lat="48.75564" lon="1.03729">
        <ele>167</ele>
        <time>2014-11-09T08:50:18.000Z</time>
      </trkpt>
      <trkpt lat="48.75533" lon="1.03727">
        <ele>167</ele>
        <time>2014-11-09T08:50:26.000Z</time>
      </trkpt>
      <trkpt lat="48.75491" lon="1.0374">
        <ele>167.19999694824</ele>
        <time>2014-11-09T08:50:38.000Z</time>
      </trkpt>
      <trkpt lat="48.75466" lon="1.03754">
        <ele>167.39999389648</ele>
        <time>2014-11-09T08:50:48.000Z</time>
      </trkpt>
      <trkpt lat="48.75463" lon="1.03751">
        <ele>167.39999389648</ele>
        <time>2014-11-09T08:50:49.000Z</time>
      </trkpt>
      <trkpt lat="48.7546" lon="1.03748">
        <ele>167.19999694824</ele>
        <time>2014-11-09T08:50:50.000Z</time>
      </trkpt>
      <trkpt lat="48.75458" lon="1.03744">
        <ele>167.19999694824</ele>
        <time>2014-11-09T08:50:51.000Z</time>
      </trkpt>
      <trkpt lat="48.75456" lon="1.0374">
        <ele>167.19999694824</ele>
        <time>2014-11-09T08:50:52.000Z</time>
      </trkpt>
      <trkpt lat="48.75444" lon="1.03665">
        <ele>166.19999694824</ele>
        <time>2014-11-09T08:51:03.000Z</time>
      </trkpt>
      <trkpt lat="48.75428" lon="1.03612">
        <ele>165.19999694824</ele>
        <time>2014-11-09T08:51:09.000Z</time>
      </trkpt>
      <trkpt lat="48.75422" lon="1.03596">
        <ele>164.60000610352</ele>
        <time>2014-11-09T08:51:11.000Z</time>
      </trkpt>
      <trkpt lat="48.75418" lon="1.03589">
        <ele>164.39999389648</ele>
        <time>2014-11-09T08:51:12.000Z</time>
      </trkpt>
      <trkpt lat="48.75413" lon="1.03584">
        <ele>164.39999389648</ele>
        <time>2014-11-09T08:51:13.000Z</time>
      </trkpt>
      <trkpt lat="48.75408" lon="1.03579">
        <ele>164.19999694824</ele>
        <time>2014-11-09T08:51:14.000Z</time>
      </trkpt>
      <trkpt lat="48.75403" lon="1.03576">
        <ele>164</ele>
        <time>2014-11-09T08:51:15.000Z</time>
      </trkpt>
      <trkpt lat="48.75397" lon="1.03574">
        <ele>163.80000305176</ele>
        <time>2014-11-09T08:51:16.000Z</time>
      </trkpt>
      <trkpt lat="48.7538" lon="1.03571">
        <ele>163.60000610352</ele>
        <time>2014-11-09T08:51:19.000Z</time>
      </trkpt>
      <trkpt lat="48.75375" lon="1.0357">
        <ele>163.60000610352</ele>
        <time>2014-11-09T08:51:20.000Z</time>
      </trkpt>
      <trkpt lat="48.75369" lon="1.03568">
        <ele>163.39999389648</ele>
        <time>2014-11-09T08:51:21.000Z</time>
      </trkpt>
      <trkpt lat="48.75363" lon="1.03569">
        <ele>163.39999389648</ele>
        <time>2014-11-09T08:51:22.000Z</time>
      </trkpt>
      <trkpt lat="48.75359" lon="1.03568">
        <ele>163.19999694824</ele>
        <time>2014-11-09T08:51:23.000Z</time>
      </trkpt>
      <trkpt lat="48.75354" lon="1.03567">
        <ele>163.19999694824</ele>
        <time>2014-11-09T08:51:24.000Z</time>
      </trkpt>
      <trkpt lat="48.75349" lon="1.03564">
        <ele>163.19999694824</ele>
        <time>2014-11-09T08:51:25.000Z</time>
      </trkpt>
      <trkpt lat="48.75346" lon="1.03561">
        <ele>163</ele>
        <time>2014-11-09T08:51:26.000Z</time>
      </trkpt>
      <trkpt lat="48.75342" lon="1.03557">
        <ele>163</ele>
        <time>2014-11-09T08:51:27.000Z</time>
      </trkpt>
      <trkpt lat="48.75338" lon="1.03553">
        <ele>163</ele>
        <time>2014-11-09T08:51:28.000Z</time>
      </trkpt>
      <trkpt lat="48.75297" lon="1.03509">
        <ele>162.39999389648</ele>
        <time>2014-11-09T08:51:41.000Z</time>
      </trkpt>
      <trkpt lat="48.75275" lon="1.03502">
        <ele>162.39999389648</ele>
        <time>2014-11-09T08:51:47.000Z</time>
      </trkpt>
      <trkpt lat="48.75271" lon="1.03506">
        <ele>162.39999389648</ele>
        <time>2014-11-09T08:51:48.000Z</time>
      </trkpt>
      <trkpt lat="48.75267" lon="1.03511">
        <ele>162.39999389648</ele>
        <time>2014-11-09T08:51:49.000Z</time>
      </trkpt>
      <trkpt lat="48.75264" lon="1.03516">
        <ele>162.39999389648</ele>
        <time>2014-11-09T08:51:50.000Z</time>
      </trkpt>
      <trkpt lat="48.75262" lon="1.03523">
        <ele>162.39999389648</ele>
        <time>2014-11-09T08:51:51.000Z</time>
      </trkpt>
      <trkpt lat="48.7526" lon="1.0353">
        <ele>162.60000610352</ele>
        <time>2014-11-09T08:51:52.000Z</time>
      </trkpt>
      <trkpt lat="48.75259" lon="1.03536">
        <ele>162.60000610352</ele>
        <time>2014-11-09T08:51:53.000Z</time>
      </trkpt>
      <trkpt lat="48.75252" lon="1.03575">
        <ele>163</ele>
        <time>2014-11-09T08:51:59.000Z</time>
      </trkpt>
      <trkpt lat="48.75251" lon="1.03582">
        <ele>163</ele>
        <time>2014-11-09T08:52:00.000Z</time>
      </trkpt>
      <trkpt lat="48.7525" lon="1.03588">
        <ele>163</ele>
        <time>2014-11-09T08:52:01.000Z</time>
      </trkpt>
      <trkpt lat="48.75249" lon="1.03594">
        <ele>163.19999694824</ele>
        <time>2014-11-09T08:52:02.000Z</time>
      </trkpt>
      <trkpt lat="48.75248" lon="1.03601">
        <ele>163.19999694824</ele>
        <time>2014-11-09T08:52:03.000Z</time>
      </trkpt>
      <trkpt lat="48.75225" lon="1.03728">
        <ele>165.60000610352</ele>
        <time>2014-11-09T08:52:19.000Z</time>
      </trkpt>
      <trkpt lat="48.75222" lon="1.03736">
        <ele>165.80000305176</ele>
        <time>2014-11-09T08:52:20.000Z</time>
      </trkpt>
      <trkpt lat="48.75219" lon="1.03743">
        <ele>166</ele>
        <time>2014-11-09T08:52:21.000Z</time>
      </trkpt>
      <trkpt lat="48.75214" lon="1.03749">
        <ele>166.19999694824</ele>
        <time>2014-11-09T08:52:22.000Z</time>
      </trkpt>
      <trkpt lat="48.75209" lon="1.03754">
        <ele>166.60000610352</ele>
        <time>2014-11-09T08:52:23.000Z</time>
      </trkpt>
      <trkpt lat="48.75204" lon="1.03757">
        <ele>166.80000305176</ele>
        <time>2014-11-09T08:52:24.000Z</time>
      </trkpt>
      <trkpt lat="48.75198" lon="1.0376">
        <ele>167</ele>
        <time>2014-11-09T08:52:25.000Z</time>
      </trkpt>
      <trkpt lat="48.75193" lon="1.03762">
        <ele>167.19999694824</ele>
        <time>2014-11-09T08:52:26.000Z</time>
      </trkpt>
      <trkpt lat="48.75187" lon="1.03763">
        <ele>167.39999389648</ele>
        <time>2014-11-09T08:52:27.000Z</time>
      </trkpt>
      <trkpt lat="48.75182" lon="1.03767">
        <ele>167.80000305176</ele>
        <time>2014-11-09T08:52:28.000Z</time>
      </trkpt>
      <trkpt lat="48.75177" lon="1.03772">
        <ele>168.19999694824</ele>
        <time>2014-11-09T08:52:29.000Z</time>
      </trkpt>
      <trkpt lat="48.75173" lon="1.03778">
        <ele>168.60000610352</ele>
        <time>2014-11-09T08:52:30.000Z</time>
      </trkpt>
      <trkpt lat="48.75168" lon="1.03784">
        <ele>169</ele>
        <time>2014-11-09T08:52:31.000Z</time>
      </trkpt>
      <trkpt lat="48.75163" lon="1.03787">
        <ele>169.39999389648</ele>
        <time>2014-11-09T08:52:32.000Z</time>
      </trkpt>
      <trkpt lat="48.75158" lon="1.03788">
        <ele>169.60000610352</ele>
        <time>2014-11-09T08:52:33.000Z</time>
      </trkpt>
      <trkpt lat="48.75152" lon="1.03786">
        <ele>169.80000305176</ele>
        <time>2014-11-09T08:52:34.000Z</time>
      </trkpt>
      <trkpt lat="48.75147" lon="1.03782">
        <ele>169.80000305176</ele>
        <time>2014-11-09T08:52:35.000Z</time>
      </trkpt>
      <trkpt lat="48.75144" lon="1.03774">
        <ele>169.80000305176</ele>
        <time>2014-11-09T08:52:36.000Z</time>
      </trkpt>
      <trkpt lat="48.75143" lon="1.03764">
        <ele>169.60000610352</ele>
        <time>2014-11-09T08:52:37.000Z</time>
      </trkpt>
      <trkpt lat="48.75144" lon="1.03755">
        <ele>169.19999694824</ele>
        <time>2014-11-09T08:52:38.000Z</time>
      </trkpt>
      <trkpt lat="48.75144" lon="1.03745">
        <ele>168.80000305176</ele>
        <time>2014-11-09T08:52:39.000Z</time>
      </trkpt>
      <trkpt lat="48.75145" lon="1.03735">
        <ele>168.39999389648</ele>
        <time>2014-11-09T08:52:40.000Z</time>
      </trkpt>
      <trkpt lat="48.75144" lon="1.03704">
        <ele>167</ele>
        <time>2014-11-09T08:52:43.000Z</time>
      </trkpt>
      <trkpt lat="48.75143" lon="1.03693">
        <ele>166.60000610352</ele>
        <time>2014-11-09T08:52:44.000Z</time>
      </trkpt>
      <trkpt lat="48.75141" lon="1.03683">
        <ele>166.19999694824</ele>
        <time>2014-11-09T08:52:45.000Z</time>
      </trkpt>
      <trkpt lat="48.75139" lon="1.03673">
        <ele>166</ele>
        <time>2014-11-09T08:52:46.000Z</time>
      </trkpt>
      <trkpt lat="48.75137" lon="1.03662">
        <ele>165.80000305176</ele>
        <time>2014-11-09T08:52:47.000Z</time>
      </trkpt>
      <trkpt lat="48.75113" lon="1.03508">
        <ele>160.19999694824</ele>
        <time>2014-11-09T08:53:00.000Z</time>
      </trkpt>
      <trkpt lat="48.7509" lon="1.03342">
        <ele>157.39999389648</ele>
        <time>2014-11-09T08:53:13.000Z</time>
      </trkpt>
      <trkpt lat="48.75023" lon="1.03131">
        <ele>153.19999694824</ele>
        <time>2014-11-09T08:53:31.000Z</time>
      </trkpt>
      <trkpt lat="48.74997" lon="1.03045">
        <ele>152.39999389648</ele>
        <time>2014-11-09T08:53:39.000Z</time>
      </trkpt>
      <trkpt lat="48.74993" lon="1.03036">
        <ele>152.19999694824</ele>
        <time>2014-11-09T08:53:40.000Z</time>
      </trkpt>
      <trkpt lat="48.74988" lon="1.03031">
        <ele>152.19999694824</ele>
        <time>2014-11-09T08:53:41.000Z</time>
      </trkpt>
      <trkpt lat="48.74984" lon="1.03029">
        <ele>152</ele>
        <time>2014-11-09T08:53:42.000Z</time>
      </trkpt>
      <trkpt lat="48.7498" lon="1.0303">
        <ele>151.80000305176</ele>
        <time>2014-11-09T08:53:43.000Z</time>
      </trkpt>
      <trkpt lat="48.74976" lon="1.03035">
        <ele>151.60000610352</ele>
        <time>2014-11-09T08:53:44.000Z</time>
      </trkpt>
      <trkpt lat="48.74973" lon="1.03041">
        <ele>151.39999389648</ele>
        <time>2014-11-09T08:53:45.000Z</time>
      </trkpt>
      <trkpt lat="48.74969" lon="1.03049">
        <ele>151.19999694824</ele>
        <time>2014-11-09T08:53:46.000Z</time>
      </trkpt>
      <trkpt lat="48.74916" lon="1.03132">
        <ele>152.60000610352</ele>
        <time>2014-11-09T08:53:58.000Z</time>
      </trkpt>
      <trkpt lat="48.74878" lon="1.03158">
        <ele>152</ele>
        <time>2014-11-09T08:54:05.000Z</time>
      </trkpt>
      <trkpt lat="48.74794" lon="1.03221">
        <ele>152.19999694824</ele>
        <time>2014-11-09T08:54:21.000Z</time>
      </trkpt>
      <trkpt lat="48.74778" lon="1.03232">
        <ele>151.39999389648</ele>
        <time>2014-11-09T08:54:24.000Z</time>
      </trkpt>
      <trkpt lat="48.74767" lon="1.03238">
        <ele>151.60000610352</ele>
        <time>2014-11-09T08:54:26.000Z</time>
      </trkpt>
      <trkpt lat="48.74686" lon="1.03294">
        <ele>150.60000610352</ele>
        <time>2014-11-09T08:54:42.000Z</time>
      </trkpt>
      <trkpt lat="48.74617" lon="1.03359">
        <ele>149</ele>
        <time>2014-11-09T08:54:56.000Z</time>
      </trkpt>
      <trkpt lat="48.74583" lon="1.03408">
        <ele>148.60000610352</ele>
        <time>2014-11-09T08:55:04.000Z</time>
      </trkpt>
      <trkpt lat="48.74579" lon="1.03414">
        <ele>148.80000305176</ele>
        <time>2014-11-09T08:55:05.000Z</time>
      </trkpt>
      <trkpt lat="48.74576" lon="1.03421">
        <ele>149</ele>
        <time>2014-11-09T08:55:06.000Z</time>
      </trkpt>
      <trkpt lat="48.74573" lon="1.03427">
        <ele>149.19999694824</ele>
        <time>2014-11-09T08:55:07.000Z</time>
      </trkpt>
      <trkpt lat="48.7457" lon="1.03434">
        <ele>149.39999389648</ele>
        <time>2014-11-09T08:55:08.000Z</time>
      </trkpt>
      <trkpt lat="48.74558" lon="1.03459">
        <ele>149.19999694824</ele>
        <time>2014-11-09T08:55:12.000Z</time>
      </trkpt>
      <trkpt lat="48.74549" lon="1.03485">
        <ele>148.80000305176</ele>
        <time>2014-11-09T08:55:16.000Z</time>
      </trkpt>
      <trkpt lat="48.74546" lon="1.03492">
        <ele>148.80000305176</ele>
        <time>2014-11-09T08:55:17.000Z</time>
      </trkpt>
      <trkpt lat="48.74539" lon="1.03533">
        <ele>148.19999694824</ele>
        <time>2014-11-09T08:55:22.000Z</time>
      </trkpt>
      <trkpt lat="48.74539" lon="1.0355">
        <ele>148</ele>
        <time>2014-11-09T08:55:24.000Z</time>
      </trkpt>
      <trkpt lat="48.7454" lon="1.03568">
        <ele>148.19999694824</ele>
        <time>2014-11-09T08:55:26.000Z</time>
      </trkpt>
      <trkpt lat="48.74538" lon="1.03698">
        <ele>146.19999694824</ele>
        <time>2014-11-09T08:55:41.000Z</time>
      </trkpt>
      <trkpt lat="48.74521" lon="1.03813">
        <ele>142.19999694824</ele>
        <time>2014-11-09T08:55:55.000Z</time>
      </trkpt>
      <trkpt lat="48.74517" lon="1.03838">
        <ele>142.60000610352</ele>
        <time>2014-11-09T08:55:58.000Z</time>
      </trkpt>
      <trkpt lat="48.74501" lon="1.03903">
        <ele>142.39999389648</ele>
        <time>2014-11-09T08:56:06.000Z</time>
      </trkpt>
      <trkpt lat="48.74498" lon="1.03911">
        <ele>142.19999694824</ele>
        <time>2014-11-09T08:56:07.000Z</time>
      </trkpt>
      <trkpt lat="48.74494" lon="1.03917">
        <ele>142</ele>
        <time>2014-11-09T08:56:08.000Z</time>
      </trkpt>
      <trkpt lat="48.74487" lon="1.03931">
        <ele>141.60000610352</ele>
        <time>2014-11-09T08:56:10.000Z</time>
      </trkpt>
      <trkpt lat="48.74482" lon="1.03937">
        <ele>141.39999389648</ele>
        <time>2014-11-09T08:56:11.000Z</time>
      </trkpt>
      <trkpt lat="48.74469" lon="1.03954">
        <ele>139.19999694824</ele>
        <time>2014-11-09T08:56:14.000Z</time>
      </trkpt>
      <trkpt lat="48.74402" lon="1.04042">
        <ele>133.80000305176</ele>
        <time>2014-11-09T08:56:29.000Z</time>
      </trkpt>
      <trkpt lat="48.74399" lon="1.0405">
        <ele>133.80000305176</ele>
        <time>2014-11-09T08:56:30.000Z</time>
      </trkpt>
      <trkpt lat="48.74397" lon="1.04058">
        <ele>134</ele>
        <time>2014-11-09T08:56:31.000Z</time>
      </trkpt>
      <trkpt lat="48.74395" lon="1.04067">
        <ele>134</ele>
        <time>2014-11-09T08:56:32.000Z</time>
      </trkpt>
      <trkpt lat="48.74395" lon="1.04076">
        <ele>133.80000305176</ele>
        <time>2014-11-09T08:56:33.000Z</time>
      </trkpt>
      <trkpt lat="48.74397" lon="1.04085">
        <ele>133.60000610352</ele>
        <time>2014-11-09T08:56:34.000Z</time>
      </trkpt>
      <trkpt lat="48.744" lon="1.04094">
        <ele>133.60000610352</ele>
        <time>2014-11-09T08:56:35.000Z</time>
      </trkpt>
      <trkpt lat="48.74404" lon="1.04101">
        <ele>133.39999389648</ele>
        <time>2014-11-09T08:56:36.000Z</time>
      </trkpt>
      <trkpt lat="48.74408" lon="1.04108">
        <ele>133.39999389648</ele>
        <time>2014-11-09T08:56:37.000Z</time>
      </trkpt>
      <trkpt lat="48.74485" lon="1.04209">
        <ele>134.39999389648</ele>
        <time>2014-11-09T08:56:53.000Z</time>
      </trkpt>
      <trkpt lat="48.74492" lon="1.04226">
        <ele>134.60000610352</ele>
        <time>2014-11-09T08:56:55.000Z</time>
      </trkpt>
      <trkpt lat="48.74494" lon="1.04235">
        <ele>134.39999389648</ele>
        <time>2014-11-09T08:56:56.000Z</time>
      </trkpt>
      <trkpt lat="48.74496" lon="1.04245">
        <ele>134</ele>
        <time>2014-11-09T08:56:57.000Z</time>
      </trkpt>
      <trkpt lat="48.74504" lon="1.0434">
        <ele>132.19999694824</ele>
        <time>2014-11-09T08:57:07.000Z</time>
      </trkpt>
      <trkpt lat="48.74503" lon="1.04349">
        <ele>132.19999694824</ele>
        <time>2014-11-09T08:57:08.000Z</time>
      </trkpt>
      <trkpt lat="48.74501" lon="1.04358">
        <ele>132.19999694824</ele>
        <time>2014-11-09T08:57:09.000Z</time>
      </trkpt>
      <trkpt lat="48.74481" lon="1.04419">
        <ele>133</ele>
        <time>2014-11-09T08:57:17.000Z</time>
      </trkpt>
      <trkpt lat="48.74472" lon="1.04437">
        <ele>133.19999694824</ele>
        <time>2014-11-09T08:57:20.000Z</time>
      </trkpt>
      <trkpt lat="48.7447" lon="1.04444">
        <ele>133.39999389648</ele>
        <time>2014-11-09T08:57:21.000Z</time>
      </trkpt>
      <trkpt lat="48.74469" lon="1.04451">
        <ele>133.60000610352</ele>
        <time>2014-11-09T08:57:22.000Z</time>
      </trkpt>
      <trkpt lat="48.74468" lon="1.0446">
        <ele>133.80000305176</ele>
        <time>2014-11-09T08:57:23.000Z</time>
      </trkpt>
      <trkpt lat="48.74467" lon="1.04468">
        <ele>133.80000305176</ele>
        <time>2014-11-09T08:57:24.000Z</time>
      </trkpt>
      <trkpt lat="48.74458" lon="1.04601">
        <ele>134</ele>
        <time>2014-11-09T08:57:39.000Z</time>
      </trkpt>
      <trkpt lat="48.74455" lon="1.04627">
        <ele>134.39999389648</ele>
        <time>2014-11-09T08:57:42.000Z</time>
      </trkpt>
      <trkpt lat="48.74457" lon="1.04636">
        <ele>134.39999389648</ele>
        <time>2014-11-09T08:57:43.000Z</time>
      </trkpt>
      <trkpt lat="48.7446" lon="1.04645">
        <ele>134.60000610352</ele>
        <time>2014-11-09T08:57:44.000Z</time>
      </trkpt>
      <trkpt lat="48.74463" lon="1.0465">
        <ele>134.60000610352</ele>
        <time>2014-11-09T08:57:45.000Z</time>
      </trkpt>
      <trkpt lat="48.74467" lon="1.04658">
        <ele>134.60000610352</ele>
        <time>2014-11-09T08:57:46.000Z</time>
      </trkpt>
      <trkpt lat="48.74471" lon="1.04665">
        <ele>134.80000305176</ele>
        <time>2014-11-09T08:57:47.000Z</time>
      </trkpt>
      <trkpt lat="48.74474" lon="1.04674">
        <ele>134.80000305176</ele>
        <time>2014-11-09T08:57:48.000Z</time>
      </trkpt>
      <trkpt lat="48.74478" lon="1.04682">
        <ele>135</ele>
        <time>2014-11-09T08:57:49.000Z</time>
      </trkpt>
      <trkpt lat="48.74488" lon="1.04707">
        <ele>135.60000610352</ele>
        <time>2014-11-09T08:57:52.000Z</time>
      </trkpt>
      <trkpt lat="48.74494" lon="1.04724">
        <ele>135.80000305176</ele>
        <time>2014-11-09T08:57:54.000Z</time>
      </trkpt>
      <trkpt lat="48.74498" lon="1.04731">
        <ele>135.80000305176</ele>
        <time>2014-11-09T08:57:55.000Z</time>
      </trkpt>
      <trkpt lat="48.74522" lon="1.04775">
        <ele>135.60000610352</ele>
        <time>2014-11-09T08:58:01.000Z</time>
      </trkpt>
      <trkpt lat="48.74589" lon="1.04854">
        <ele>134.80000305176</ele>
        <time>2014-11-09T08:58:14.000Z</time>
      </trkpt>
      <trkpt lat="48.74599" lon="1.04864">
        <ele>134.80000305176</ele>
        <time>2014-11-09T08:58:16.000Z</time>
      </trkpt>
      <trkpt lat="48.74632" lon="1.04896">
        <ele>134.80000305176</ele>
        <time>2014-11-09T08:58:23.000Z</time>
      </trkpt>
      <trkpt lat="48.74633" lon="1.04903">
        <ele>134.80000305176</ele>
        <time>2014-11-09T08:58:24.000Z</time>
      </trkpt>
      <trkpt lat="48.74631" lon="1.04908">
        <ele>134.80000305176</ele>
        <time>2014-11-09T08:58:25.000Z</time>
      </trkpt>
      <trkpt lat="48.74621" lon="1.04938">
        <ele>137</ele>
        <time>2014-11-09T08:58:29.000Z</time>
      </trkpt>
      <trkpt lat="48.7462" lon="1.04948">
        <ele>137.80000305176</ele>
        <time>2014-11-09T08:58:30.000Z</time>
      </trkpt>
      <trkpt lat="48.7462" lon="1.04957">
        <ele>138.60000610352</ele>
        <time>2014-11-09T08:58:31.000Z</time>
      </trkpt>
      <trkpt lat="48.7462" lon="1.04965">
        <ele>139.19999694824</ele>
        <time>2014-11-09T08:58:32.000Z</time>
      </trkpt>
      <trkpt lat="48.74621" lon="1.04974">
        <ele>139.60000610352</ele>
        <time>2014-11-09T08:58:33.000Z</time>
      </trkpt>
      <trkpt lat="48.74622" lon="1.04983">
        <ele>140</ele>
        <time>2014-11-09T08:58:34.000Z</time>
      </trkpt>
      <trkpt lat="48.74624" lon="1.04991">
        <ele>140.19999694824</ele>
        <time>2014-11-09T08:58:35.000Z</time>
      </trkpt>
      <trkpt lat="48.7463" lon="1.0502">
        <ele>142.19999694824</ele>
        <time>2014-11-09T08:58:39.000Z</time>
      </trkpt>
      <trkpt lat="48.7463" lon="1.05027">
        <ele>142.80000305176</ele>
        <time>2014-11-09T08:58:40.000Z</time>
      </trkpt>
      <trkpt lat="48.74628" lon="1.05033">
        <ele>143.60000610352</ele>
        <time>2014-11-09T08:58:41.000Z</time>
      </trkpt>
      <trkpt lat="48.74626" lon="1.05038">
        <ele>144.19999694824</ele>
        <time>2014-11-09T08:58:42.000Z</time>
      </trkpt>
      <trkpt lat="48.74624" lon="1.05041">
        <ele>144.80000305176</ele>
        <time>2014-11-09T08:58:43.000Z</time>
      </trkpt>
      <trkpt lat="48.74623" lon="1.05044">
        <ele>145.39999389648</ele>
        <time>2014-11-09T08:58:44.000Z</time>
      </trkpt>
      <trkpt lat="48.74622" lon="1.05047">
        <ele>145.80000305176</ele>
        <time>2014-11-09T08:58:45.000Z</time>
      </trkpt>
      <trkpt lat="48.74621" lon="1.0505">
        <ele>146.19999694824</ele>
        <time>2014-11-09T08:58:46.000Z</time>
      </trkpt>
      <trkpt lat="48.74616" lon="1.05064">
        <ele>148.19999694824</ele>
        <time>2014-11-09T08:58:52.000Z</time>
      </trkpt>
      <trkpt lat="48.74614" lon="1.05071">
        <ele>149.39999389648</ele>
        <time>2014-11-09T08:58:56.000Z</time>
      </trkpt>
      <trkpt lat="48.7461" lon="1.05084">
        <ele>150.39999389648</ele>
        <time>2014-11-09T08:59:03.000Z</time>
      </trkpt>
      <trkpt lat="48.74603" lon="1.05108">
        <ele>152.60000610352</ele>
        <time>2014-11-09T08:59:17.000Z</time>
      </trkpt>
      <trkpt lat="48.74598" lon="1.05126">
        <ele>154.39999389648</ele>
        <time>2014-11-09T08:59:26.000Z</time>
      </trkpt>
      <trkpt lat="48.74595" lon="1.05136">
        <ele>155.39999389648</ele>
        <time>2014-11-09T08:59:32.000Z</time>
      </trkpt>
      <trkpt lat="48.7459" lon="1.05168">
        <ele>157.39999389648</ele>
        <time>2014-11-09T08:59:46.000Z</time>
      </trkpt>
      <trkpt lat="48.74588" lon="1.05186">
        <ele>158.60000610352</ele>
        <time>2014-11-09T08:59:53.000Z</time>
      </trkpt>
      <trkpt lat="48.74586" lon="1.05195">
        <ele>159.19999694824</ele>
        <time>2014-11-09T08:59:57.000Z</time>
      </trkpt>
      <trkpt lat="48.74595" lon="1.05216">
        <ele>160</ele>
        <time>2014-11-09T09:00:11.000Z</time>
      </trkpt>
      <trkpt lat="48.74612" lon="1.05227">
        <ele>160.19999694824</ele>
        <time>2014-11-09T09:00:24.000Z</time>
      </trkpt>
      <trkpt lat="48.74629" lon="1.05242">
        <ele>161.60000610352</ele>
        <time>2014-11-09T09:00:38.000Z</time>
      </trkpt>
      <trkpt lat="48.74644" lon="1.0526">
        <ele>163</ele>
        <time>2014-11-09T09:00:50.000Z</time>
      </trkpt>
      <trkpt lat="48.74647" lon="1.05265">
        <ele>163.39999389648</ele>
        <time>2014-11-09T09:00:53.000Z</time>
      </trkpt>
      <trkpt lat="48.74648" lon="1.05271">
        <ele>163.80000305176</ele>
        <time>2014-11-09T09:00:56.000Z</time>
      </trkpt>
      <trkpt lat="48.74645" lon="1.05281">
        <ele>164.39999389648</ele>
        <time>2014-11-09T09:01:01.000Z</time>
      </trkpt>
      <trkpt lat="48.74628" lon="1.05311">
        <ele>166.39999389648</ele>
        <time>2014-11-09T09:01:15.000Z</time>
      </trkpt>
      <trkpt lat="48.74629" lon="1.05314">
        <ele>166.39999389648</ele>
        <time>2014-11-09T09:01:16.000Z</time>
      </trkpt>
      <trkpt lat="48.7463" lon="1.05317">
        <ele>166.39999389648</ele>
        <time>2014-11-09T09:01:17.000Z</time>
      </trkpt>
      <trkpt lat="48.74632" lon="1.0532">
        <ele>166.39999389648</ele>
        <time>2014-11-09T09:01:18.000Z</time>
      </trkpt>
      <trkpt lat="48.74634" lon="1.05323">
        <ele>166.60000610352</ele>
        <time>2014-11-09T09:01:19.000Z</time>
      </trkpt>
      <trkpt lat="48.74635" lon="1.05326">
        <ele>166.60000610352</ele>
        <time>2014-11-09T09:01:20.000Z</time>
      </trkpt>
      <trkpt lat="48.74637" lon="1.05328">
        <ele>166.60000610352</ele>
        <time>2014-11-09T09:01:21.000Z</time>
      </trkpt>
      <trkpt lat="48.74639" lon="1.0533">
        <ele>166.60000610352</ele>
        <time>2014-11-09T09:01:22.000Z</time>
      </trkpt>
      <trkpt lat="48.7464" lon="1.05332">
        <ele>166.80000305176</ele>
        <time>2014-11-09T09:01:23.000Z</time>
      </trkpt>
      <trkpt lat="48.74641" lon="1.05335">
        <ele>166.80000305176</ele>
        <time>2014-11-09T09:01:24.000Z</time>
      </trkpt>
      <trkpt lat="48.74643" lon="1.05337">
        <ele>166.80000305176</ele>
        <time>2014-11-09T09:01:25.000Z</time>
      </trkpt>
      <trkpt lat="48.74644" lon="1.0534">
        <ele>166.80000305176</ele>
        <time>2014-11-09T09:01:26.000Z</time>
      </trkpt>
      <trkpt lat="48.74646" lon="1.05342">
        <ele>166.80000305176</ele>
        <time>2014-11-09T09:01:27.000Z</time>
      </trkpt>
      <trkpt lat="48.74647" lon="1.05344">
        <ele>167</ele>
        <time>2014-11-09T09:01:28.000Z</time>
      </trkpt>
      <trkpt lat="48.74649" lon="1.05346">
        <ele>167</ele>
        <time>2014-11-09T09:01:29.000Z</time>
      </trkpt>
      <trkpt lat="48.74651" lon="1.05348">
        <ele>167</ele>
        <time>2014-11-09T09:01:30.000Z</time>
      </trkpt>
      <trkpt lat="48.74653" lon="1.0535">
        <ele>167</ele>
        <time>2014-11-09T09:01:31.000Z</time>
      </trkpt>
      <trkpt lat="48.74655" lon="1.05352">
        <ele>167.19999694824</ele>
        <time>2014-11-09T09:01:32.000Z</time>
      </trkpt>
      <trkpt lat="48.74685" lon="1.05392">
        <ele>168</ele>
        <time>2014-11-09T09:01:47.000Z</time>
      </trkpt>
      <trkpt lat="48.74741" lon="1.05437">
        <ele>167.39999389648</ele>
        <time>2014-11-09T09:02:06.000Z</time>
      </trkpt>
      <trkpt lat="48.74784" lon="1.05471">
        <ele>166.60000610352</ele>
        <time>2014-11-09T09:02:15.000Z</time>
      </trkpt>
      <trkpt lat="48.74853" lon="1.05553">
        <ele>165</ele>
        <time>2014-11-09T09:02:28.000Z</time>
      </trkpt>
      <trkpt lat="48.74893" lon="1.05604">
        <ele>164.39999389648</ele>
        <time>2014-11-09T09:02:41.000Z</time>
      </trkpt>
      <trkpt lat="48.7493" lon="1.05653">
        <ele>163.80000305176</ele>
        <time>2014-11-09T09:02:56.000Z</time>
      </trkpt>
      <trkpt lat="48.74981" lon="1.05701">
        <ele>162.80000305176</ele>
        <time>2014-11-09T09:03:11.000Z</time>
      </trkpt>
      <trkpt lat="48.74984" lon="1.05707">
        <ele>162.60000610352</ele>
        <time>2014-11-09T09:03:12.000Z</time>
      </trkpt>
      <trkpt lat="48.74986" lon="1.05713">
        <ele>162.60000610352</ele>
        <time>2014-11-09T09:03:13.000Z</time>
      </trkpt>
      <trkpt lat="48.74988" lon="1.0572">
        <ele>162.39999389648</ele>
        <time>2014-11-09T09:03:14.000Z</time>
      </trkpt>
      <trkpt lat="48.74991" lon="1.05727">
        <ele>162.39999389648</ele>
        <time>2014-11-09T09:03:15.000Z</time>
      </trkpt>
      <trkpt lat="48.75004" lon="1.05767">
        <ele>161.80000305176</ele>
        <time>2014-11-09T09:03:20.000Z</time>
      </trkpt>
      <trkpt lat="48.75008" lon="1.05775">
        <ele>161.60000610352</ele>
        <time>2014-11-09T09:03:21.000Z</time>
      </trkpt>
      <trkpt lat="48.75013" lon="1.05781">
        <ele>161.39999389648</ele>
        <time>2014-11-09T09:03:22.000Z</time>
      </trkpt>
      <trkpt lat="48.75019" lon="1.05787">
        <ele>161.19999694824</ele>
        <time>2014-11-09T09:03:23.000Z</time>
      </trkpt>
      <trkpt lat="48.75025" lon="1.05792">
        <ele>161</ele>
        <time>2014-11-09T09:03:24.000Z</time>
      </trkpt>
      <trkpt lat="48.75032" lon="1.05796">
        <ele>160.60000610352</ele>
        <time>2014-11-09T09:03:25.000Z</time>
      </trkpt>
      <trkpt lat="48.75045" lon="1.05805">
        <ele>160</ele>
        <time>2014-11-09T09:03:27.000Z</time>
      </trkpt>
      <trkpt lat="48.75051" lon="1.05811">
        <ele>159.60000610352</ele>
        <time>2014-11-09T09:03:28.000Z</time>
      </trkpt>
      <trkpt lat="48.75057" lon="1.05818">
        <ele>159.19999694824</ele>
        <time>2014-11-09T09:03:29.000Z</time>
      </trkpt>
      <trkpt lat="48.75061" lon="1.05826">
        <ele>159</ele>
        <time>2014-11-09T09:03:30.000Z</time>
      </trkpt>
      <trkpt lat="48.75065" lon="1.05835">
        <ele>158.80000305176</ele>
        <time>2014-11-09T09:03:31.000Z</time>
      </trkpt>
      <trkpt lat="48.75069" lon="1.05845">
        <ele>158.60000610352</ele>
        <time>2014-11-09T09:03:32.000Z</time>
      </trkpt>
      <trkpt lat="48.75086" lon="1.05895">
        <ele>157.19999694824</ele>
        <time>2014-11-09T09:03:37.000Z</time>
      </trkpt>
      <trkpt lat="48.7509" lon="1.05904">
        <ele>157</ele>
        <time>2014-11-09T09:03:38.000Z</time>
      </trkpt>
      <trkpt lat="48.75094" lon="1.05913">
        <ele>156.80000305176</ele>
        <time>2014-11-09T09:03:39.000Z</time>
      </trkpt>
      <trkpt lat="48.75099" lon="1.05922">
        <ele>156.80000305176</ele>
        <time>2014-11-09T09:03:40.000Z</time>
      </trkpt>
      <trkpt lat="48.75104" lon="1.0593">
        <ele>156.60000610352</ele>
        <time>2014-11-09T09:03:41.000Z</time>
      </trkpt>
      <trkpt lat="48.75109" lon="1.05937">
        <ele>156.19999694824</ele>
        <time>2014-11-09T09:03:42.000Z</time>
      </trkpt>
      <trkpt lat="48.75115" lon="1.05944">
        <ele>155.80000305176</ele>
        <time>2014-11-09T09:03:43.000Z</time>
      </trkpt>
      <trkpt lat="48.75121" lon="1.05949">
        <ele>155.60000610352</ele>
        <time>2014-11-09T09:03:44.000Z</time>
      </trkpt>
      <trkpt lat="48.75128" lon="1.05954">
        <ele>155.19999694824</ele>
        <time>2014-11-09T09:03:45.000Z</time>
      </trkpt>
      <trkpt lat="48.75231" lon="1.06024">
        <ele>150.39999389648</ele>
        <time>2014-11-09T09:04:00.000Z</time>
      </trkpt>
      <trkpt lat="48.75342" lon="1.06098">
        <ele>146.39999389648</ele>
        <time>2014-11-09T09:04:13.000Z</time>
      </trkpt>
      <trkpt lat="48.75363" lon="1.06113">
        <ele>145.60000610352</ele>
        <time>2014-11-09T09:04:16.000Z</time>
      </trkpt>
      <trkpt lat="48.75366" lon="1.06117">
        <ele>145.39999389648</ele>
        <time>2014-11-09T09:04:17.000Z</time>
      </trkpt>
      <trkpt lat="48.75367" lon="1.06121">
        <ele>145.39999389648</ele>
        <time>2014-11-09T09:04:18.000Z</time>
      </trkpt>
      <trkpt lat="48.75365" lon="1.06127">
        <ele>145.19999694824</ele>
        <time>2014-11-09T09:04:19.000Z</time>
      </trkpt>
      <trkpt lat="48.75362" lon="1.06129">
        <ele>145.19999694824</ele>
        <time>2014-11-09T09:04:20.000Z</time>
      </trkpt>
      <trkpt lat="48.75359" lon="1.06129">
        <ele>145.19999694824</ele>
        <time>2014-11-09T09:04:21.000Z</time>
      </trkpt>
      <trkpt lat="48.75355" lon="1.06129">
        <ele>145.39999389648</ele>
        <time>2014-11-09T09:04:22.000Z</time>
      </trkpt>
      <trkpt lat="48.75351" lon="1.0613">
        <ele>145.39999389648</ele>
        <time>2014-11-09T09:04:23.000Z</time>
      </trkpt>
      <trkpt lat="48.75346" lon="1.06131">
        <ele>145.39999389648</ele>
        <time>2014-11-09T09:04:24.000Z</time>
      </trkpt>
      <trkpt lat="48.75275" lon="1.06148">
        <ele>147.60000610352</ele>
        <time>2014-11-09T09:04:38.000Z</time>
      </trkpt>
      <trkpt lat="48.75255" lon="1.06165">
        <ele>147.80000305176</ele>
        <time>2014-11-09T09:04:47.000Z</time>
      </trkpt>
      <trkpt lat="48.75253" lon="1.0617">
        <ele>147.60000610352</ele>
        <time>2014-11-09T09:04:50.000Z</time>
      </trkpt>
      <trkpt lat="48.75252" lon="1.06172">
        <ele>147.60000610352</ele>
        <time>2014-11-09T09:04:51.000Z</time>
      </trkpt>
      <trkpt lat="48.7525" lon="1.06174">
        <ele>147.60000610352</ele>
        <time>2014-11-09T09:04:52.000Z</time>
      </trkpt>
      <trkpt lat="48.75249" lon="1.06177">
        <ele>147.60000610352</ele>
        <time>2014-11-09T09:04:53.000Z</time>
      </trkpt>
      <trkpt lat="48.75247" lon="1.06181">
        <ele>147.39999389648</ele>
        <time>2014-11-09T09:04:54.000Z</time>
      </trkpt>
      <trkpt lat="48.75245" lon="1.06185">
        <ele>147.39999389648</ele>
        <time>2014-11-09T09:04:55.000Z</time>
      </trkpt>
      <trkpt lat="48.75243" lon="1.06189">
        <ele>147.39999389648</ele>
        <time>2014-11-09T09:04:56.000Z</time>
      </trkpt>
      <trkpt lat="48.75213" lon="1.06253">
        <ele>147.19999694824</ele>
        <time>2014-11-09T09:05:09.000Z</time>
      </trkpt>
      <trkpt lat="48.75173" lon="1.06345">
        <ele>145.80000305176</ele>
        <time>2014-11-09T09:05:23.000Z</time>
      </trkpt>
      <trkpt lat="48.75123" lon="1.06458">
        <ele>140.80000305176</ele>
        <time>2014-11-09T09:05:37.000Z</time>
      </trkpt>
      <trkpt lat="48.75115" lon="1.06475">
        <ele>140.19999694824</ele>
        <time>2014-11-09T09:05:39.000Z</time>
      </trkpt>
      <trkpt lat="48.75094" lon="1.06504">
        <ele>139</ele>
        <time>2014-11-09T09:05:43.000Z</time>
      </trkpt>
      <trkpt lat="48.75005" lon="1.06569">
        <ele>143.60000610352</ele>
        <time>2014-11-09T09:05:55.000Z</time>
      </trkpt>
      <trkpt lat="48.7492" lon="1.06662">
        <ele>142.80000305176</ele>
        <time>2014-11-09T09:06:09.000Z</time>
      </trkpt>
      <trkpt lat="48.74885" lon="1.06712">
        <ele>143.19999694824</ele>
        <time>2014-11-09T09:06:18.000Z</time>
      </trkpt>
      <trkpt lat="48.74882" lon="1.06719">
        <ele>143.39999389648</ele>
        <time>2014-11-09T09:06:30.000Z</time>
      </trkpt>
      <trkpt lat="48.74883" lon="1.06722">
        <ele>143</ele>
        <time>2014-11-09T09:06:52.000Z</time>
      </trkpt>
      <trkpt lat="48.74884" lon="1.06722">
        <ele>143</ele>
        <time>2014-11-09T09:07:23.000Z</time>
      </trkpt>
      <trkpt lat="48.74877" lon="1.06728">
        <ele>144</ele>
        <time>2014-11-09T09:07:44.000Z</time>
      </trkpt>
      <trkpt lat="48.74868" lon="1.06735">
        <ele>145.39999389648</ele>
        <time>2014-11-09T09:07:51.000Z</time>
      </trkpt>
      <trkpt lat="48.74848" lon="1.06743">
        <ele>149.39999389648</ele>
        <time>2014-11-09T09:08:02.000Z</time>
      </trkpt>
      <trkpt lat="48.74842" lon="1.06745">
        <ele>150.19999694824</ele>
        <time>2014-11-09T09:08:06.000Z</time>
      </trkpt>
      <trkpt lat="48.74816" lon="1.06746">
        <ele>153.80000305176</ele>
        <time>2014-11-09T09:08:22.000Z</time>
      </trkpt>
      <trkpt lat="48.74797" lon="1.06741">
        <ele>156</ele>
        <time>2014-11-09T09:08:35.000Z</time>
      </trkpt>
      <trkpt lat="48.74784" lon="1.06739">
        <ele>157.80000305176</ele>
        <time>2014-11-09T09:08:46.000Z</time>
      </trkpt>
      <trkpt lat="48.74759" lon="1.06733">
        <ele>160.39999389648</ele>
        <time>2014-11-09T09:09:02.000Z</time>
      </trkpt>
      <trkpt lat="48.74739" lon="1.06726">
        <ele>161.19999694824</ele>
        <time>2014-11-09T09:09:17.000Z</time>
      </trkpt>
      <trkpt lat="48.74732" lon="1.06723">
        <ele>161.39999389648</ele>
        <time>2014-11-09T09:09:24.000Z</time>
      </trkpt>
      <trkpt lat="48.74721" lon="1.06718">
        <ele>161.60000610352</ele>
        <time>2014-11-09T09:09:35.000Z</time>
      </trkpt>
      <trkpt lat="48.74709" lon="1.06713">
        <ele>161.80000305176</ele>
        <time>2014-11-09T09:09:48.000Z</time>
      </trkpt>
      <trkpt lat="48.74699" lon="1.06711">
        <ele>162.39999389648</ele>
        <time>2014-11-09T09:09:57.000Z</time>
      </trkpt>
      <trkpt lat="48.74689" lon="1.06707">
        <ele>162.60000610352</ele>
        <time>2014-11-09T09:10:06.000Z</time>
      </trkpt>
      <trkpt lat="48.74667" lon="1.06701">
        <ele>163.39999389648</ele>
        <time>2014-11-09T09:10:22.000Z</time>
      </trkpt>
      <trkpt lat="48.74658" lon="1.06699">
        <ele>163.80000305176</ele>
        <time>2014-11-09T09:10:30.000Z</time>
      </trkpt>
      <trkpt lat="48.74649" lon="1.06699">
        <ele>164.19999694824</ele>
        <time>2014-11-09T09:10:37.000Z</time>
      </trkpt>
      <trkpt lat="48.74641" lon="1.0671">
        <ele>165.80000305176</ele>
        <time>2014-11-09T09:10:49.000Z</time>
      </trkpt>
      <trkpt lat="48.74637" lon="1.06729">
        <ele>167.80000305176</ele>
        <time>2014-11-09T09:11:02.000Z</time>
      </trkpt>
      <trkpt lat="48.74635" lon="1.06752">
        <ele>169.80000305176</ele>
        <time>2014-11-09T09:11:13.000Z</time>
      </trkpt>
      <trkpt lat="48.74635" lon="1.06781">
        <ele>171</ele>
        <time>2014-11-09T09:11:25.000Z</time>
      </trkpt>
      <trkpt lat="48.74634" lon="1.06822">
        <ele>172.39999389648</ele>
        <time>2014-11-09T09:11:38.000Z</time>
      </trkpt>
      <trkpt lat="48.74643" lon="1.06868">
        <ele>173.80000305176</ele>
        <time>2014-11-09T09:11:50.000Z</time>
      </trkpt>
      <trkpt lat="48.74666" lon="1.06922">
        <ele>175.80000305176</ele>
        <time>2014-11-09T09:12:05.000Z</time>
      </trkpt>
      <trkpt lat="48.74678" lon="1.06972">
        <ele>177.80000305176</ele>
        <time>2014-11-09T09:12:17.000Z</time>
      </trkpt>
      <trkpt lat="48.74671" lon="1.07016">
        <ele>177.60000610352</ele>
        <time>2014-11-09T09:12:27.000Z</time>
      </trkpt>
      <trkpt lat="48.74662" lon="1.07075">
        <ele>177.39999389648</ele>
        <time>2014-11-09T09:12:40.000Z</time>
      </trkpt>
      <trkpt lat="48.74652" lon="1.07137">
        <ele>178.39999389648</ele>
        <time>2014-11-09T09:12:55.000Z</time>
      </trkpt>
      <trkpt lat="48.74643" lon="1.07191">
        <ele>179.19999694824</ele>
        <time>2014-11-09T09:13:09.000Z</time>
      </trkpt>
      <trkpt lat="48.7464" lon="1.07261">
        <ele>179.60000610352</ele>
        <time>2014-11-09T09:13:23.000Z</time>
      </trkpt>
      <trkpt lat="48.74633" lon="1.07317">
        <ele>180.39999389648</ele>
        <time>2014-11-09T09:13:35.000Z</time>
      </trkpt>
      <trkpt lat="48.74624" lon="1.07379">
        <ele>180.60000610352</ele>
        <time>2014-11-09T09:13:47.000Z</time>
      </trkpt>
      <trkpt lat="48.74621" lon="1.07419">
        <ele>180.80000305176</ele>
        <time>2014-11-09T09:13:55.000Z</time>
      </trkpt>
      <trkpt lat="48.74616" lon="1.07448">
        <ele>180.80000305176</ele>
        <time>2014-11-09T09:14:01.000Z</time>
      </trkpt>
      <trkpt lat="48.74607" lon="1.07521">
        <ele>181.60000610352</ele>
        <time>2014-11-09T09:14:16.000Z</time>
      </trkpt>
      <trkpt lat="48.74605" lon="1.07544">
        <ele>181.80000305176</ele>
        <time>2014-11-09T09:14:20.000Z</time>
      </trkpt>
      <trkpt lat="48.74593" lon="1.07554">
        <ele>182</ele>
        <time>2014-11-09T09:14:25.000Z</time>
      </trkpt>
      <trkpt lat="48.7455" lon="1.07534">
        <ele>181.60000610352</ele>
        <time>2014-11-09T09:14:38.000Z</time>
      </trkpt>
      <trkpt lat="48.74512" lon="1.07515">
        <ele>181.39999389648</ele>
        <time>2014-11-09T09:14:50.000Z</time>
      </trkpt>
      <trkpt lat="48.7448" lon="1.07491">
        <ele>181.39999389648</ele>
        <time>2014-11-09T09:15:01.000Z</time>
      </trkpt>
      <trkpt lat="48.74445" lon="1.07465">
        <ele>181.39999389648</ele>
        <time>2014-11-09T09:15:12.000Z</time>
      </trkpt>
      <trkpt lat="48.74404" lon="1.07438">
        <ele>181.60000610352</ele>
        <time>2014-11-09T09:15:23.000Z</time>
      </trkpt>
      <trkpt lat="48.74396" lon="1.07431">
        <ele>181.60000610352</ele>
        <time>2014-11-09T09:15:25.000Z</time>
      </trkpt>
      <trkpt lat="48.74357" lon="1.07402">
        <ele>182</ele>
        <time>2014-11-09T09:15:34.000Z</time>
      </trkpt>
      <trkpt lat="48.74329" lon="1.07382">
        <ele>181.60000610352</ele>
        <time>2014-11-09T09:15:40.000Z</time>
      </trkpt>
      <trkpt lat="48.74283" lon="1.07347">
        <ele>180.60000610352</ele>
        <time>2014-11-09T09:15:49.000Z</time>
      </trkpt>
      <trkpt lat="48.74232" lon="1.07306">
        <ele>178.60000610352</ele>
        <time>2014-11-09T09:15:58.000Z</time>
      </trkpt>
      <trkpt lat="48.7421" lon="1.07288">
        <ele>177.80000305176</ele>
        <time>2014-11-09T09:16:02.000Z</time>
      </trkpt>
      <trkpt lat="48.74193" lon="1.07275">
        <ele>177.19999694824</ele>
        <time>2014-11-09T09:16:05.000Z</time>
      </trkpt>
      <trkpt lat="48.74147" lon="1.07237">
        <ele>176.60000610352</ele>
        <time>2014-11-09T09:16:13.000Z</time>
      </trkpt>
      <trkpt lat="48.74127" lon="1.07221">
        <ele>176.39999389648</ele>
        <time>2014-11-09T09:16:17.000Z</time>
      </trkpt>
      <trkpt lat="48.74111" lon="1.07209">
        <ele>176.60000610352</ele>
        <time>2014-11-09T09:16:20.000Z</time>
      </trkpt>
      <trkpt lat="48.7409" lon="1.07193">
        <ele>176.19999694824</ele>
        <time>2014-11-09T09:16:24.000Z</time>
      </trkpt>
      <trkpt lat="48.74055" lon="1.07165">
        <ele>175.80000305176</ele>
        <time>2014-11-09T09:16:31.000Z</time>
      </trkpt>
      <trkpt lat="48.74031" lon="1.07146">
        <ele>175.39999389648</ele>
        <time>2014-11-09T09:16:36.000Z</time>
      </trkpt>
      <trkpt lat="48.7395" lon="1.07082">
        <ele>172.19999694824</ele>
        <time>2014-11-09T09:16:51.000Z</time>
      </trkpt>
      <trkpt lat="48.7394" lon="1.07075">
        <ele>171.60000610352</ele>
        <time>2014-11-09T09:16:53.000Z</time>
      </trkpt>
      <trkpt lat="48.73906" lon="1.07045">
        <ele>169.80000305176</ele>
        <time>2014-11-09T09:17:00.000Z</time>
      </trkpt>
      <trkpt lat="48.73869" lon="1.07016">
        <ele>167.39999389648</ele>
        <time>2014-11-09T09:17:07.000Z</time>
      </trkpt>
      <trkpt lat="48.73851" lon="1.0696">
        <ele>166.39999389648</ele>
        <time>2014-11-09T09:17:13.000Z</time>
      </trkpt>
      <trkpt lat="48.73864" lon="1.06826">
        <ele>164.19999694824</ele>
        <time>2014-11-09T09:17:26.000Z</time>
      </trkpt>
      <trkpt lat="48.73862" lon="1.0679">
        <ele>164.19999694824</ele>
        <time>2014-11-09T09:17:31.000Z</time>
      </trkpt>
      <trkpt lat="48.73861" lon="1.06764">
        <ele>165.19999694824</ele>
        <time>2014-11-09T09:17:35.000Z</time>
      </trkpt>
      <trkpt lat="48.73856" lon="1.06719">
        <ele>166.19999694824</ele>
        <time>2014-11-09T09:17:43.000Z</time>
      </trkpt>
      <trkpt lat="48.73844" lon="1.06649">
        <ele>168</ele>
        <time>2014-11-09T09:17:57.000Z</time>
      </trkpt>
      <trkpt lat="48.73821" lon="1.06595">
        <ele>169.19999694824</ele>
        <time>2014-11-09T09:18:11.000Z</time>
      </trkpt>
      <trkpt lat="48.73802" lon="1.06558">
        <ele>170</ele>
        <time>2014-11-09T09:18:20.000Z</time>
      </trkpt>
      <trkpt lat="48.73761" lon="1.06488">
        <ele>171.60000610352</ele>
        <time>2014-11-09T09:18:35.000Z</time>
      </trkpt>
      <trkpt lat="48.73753" lon="1.06421">
        <ele>172</ele>
        <time>2014-11-09T09:18:48.000Z</time>
      </trkpt>
      <trkpt lat="48.73749" lon="1.06404">
        <ele>172</ele>
        <time>2014-11-09T09:18:51.000Z</time>
      </trkpt>
      <trkpt lat="48.73736" lon="1.0637">
        <ele>172</ele>
        <time>2014-11-09T09:18:57.000Z</time>
      </trkpt>
      <trkpt lat="48.73733" lon="1.06364">
        <ele>172</ele>
        <time>2014-11-09T09:18:58.000Z</time>
      </trkpt>
      <trkpt lat="48.73723" lon="1.06333">
        <ele>172</ele>
        <time>2014-11-09T09:19:03.000Z</time>
      </trkpt>
      <trkpt lat="48.73708" lon="1.06302">
        <ele>172</ele>
        <time>2014-11-09T09:19:08.000Z</time>
      </trkpt>
      <trkpt lat="48.73696" lon="1.06284">
        <ele>171.60000610352</ele>
        <time>2014-11-09T09:19:11.000Z</time>
      </trkpt>
      <trkpt lat="48.73692" lon="1.06278">
        <ele>171.60000610352</ele>
        <time>2014-11-09T09:19:12.000Z</time>
      </trkpt>
      <trkpt lat="48.73661" lon="1.06236">
        <ele>170.19999694824</ele>
        <time>2014-11-09T09:19:19.000Z</time>
      </trkpt>
      <trkpt lat="48.73623" lon="1.06174">
        <ele>169.39999389648</ele>
        <time>2014-11-09T09:19:32.000Z</time>
      </trkpt>
      <trkpt lat="48.73578" lon="1.06106">
        <ele>169.39999389648</ele>
        <time>2014-11-09T09:19:52.000Z</time>
      </trkpt>
      <trkpt lat="48.73542" lon="1.06056">
        <ele>170</ele>
        <time>2014-11-09T09:20:08.000Z</time>
      </trkpt>
      <trkpt lat="48.73502" lon="1.06058">
        <ele>170.19999694824</ele>
        <time>2014-11-09T09:20:21.000Z</time>
      </trkpt>
      <trkpt lat="48.73444" lon="1.06082">
        <ele>171</ele>
        <time>2014-11-09T09:20:39.000Z</time>
      </trkpt>
      <trkpt lat="48.73396" lon="1.06097">
        <ele>172</ele>
        <time>2014-11-09T09:20:56.000Z</time>
      </trkpt>
      <trkpt lat="48.73344" lon="1.0611">
        <ele>171</ele>
        <time>2014-11-09T09:21:13.000Z</time>
      </trkpt>
      <trkpt lat="48.73289" lon="1.06107">
        <ele>170.60000610352</ele>
        <time>2014-11-09T09:21:30.000Z</time>
      </trkpt>
      <trkpt lat="48.73241" lon="1.06091">
        <ele>170.19999694824</ele>
        <time>2014-11-09T09:21:45.000Z</time>
      </trkpt>
      <trkpt lat="48.73231" lon="1.0608">
        <ele>170.39999389648</ele>
        <time>2014-11-09T09:21:49.000Z</time>
      </trkpt>
      <trkpt lat="48.7323" lon="1.06076">
        <ele>170.39999389648</ele>
        <time>2014-11-09T09:21:50.000Z</time>
      </trkpt>
      <trkpt lat="48.73229" lon="1.06072">
        <ele>170.60000610352</ele>
        <time>2014-11-09T09:21:51.000Z</time>
      </trkpt>
      <trkpt lat="48.73223" lon="1.05996">
        <ele>171.60000610352</ele>
        <time>2014-11-09T09:22:09.000Z</time>
      </trkpt>
      <trkpt lat="48.73218" lon="1.05914">
        <ele>172.19999694824</ele>
        <time>2014-11-09T09:22:26.000Z</time>
      </trkpt>
      <trkpt lat="48.73212" lon="1.05827">
        <ele>172</ele>
        <time>2014-11-09T09:22:46.000Z</time>
      </trkpt>
      <trkpt lat="48.73206" lon="1.05736">
        <ele>172.80000305176</ele>
        <time>2014-11-09T09:23:07.000Z</time>
      </trkpt>
      <trkpt lat="48.732" lon="1.05663">
        <ele>174</ele>
        <time>2014-11-09T09:23:24.000Z</time>
      </trkpt>
      <trkpt lat="48.73194" lon="1.05581">
        <ele>173.39999389648</ele>
        <time>2014-11-09T09:23:42.000Z</time>
      </trkpt>
      <trkpt lat="48.73188" lon="1.05488">
        <ele>172.19999694824</ele>
        <time>2014-11-09T09:24:02.000Z</time>
      </trkpt>
      <trkpt lat="48.73182" lon="1.05401">
        <ele>174.60000610352</ele>
        <time>2014-11-09T09:24:21.000Z</time>
      </trkpt>
      <trkpt lat="48.73174" lon="1.053">
        <ele>175</ele>
        <time>2014-11-09T09:24:40.000Z</time>
      </trkpt>
      <trkpt lat="48.73168" lon="1.05204">
        <ele>173.80000305176</ele>
        <time>2014-11-09T09:24:59.000Z</time>
      </trkpt>
      <trkpt lat="48.73161" lon="1.05172">
        <ele>174.19999694824</ele>
        <time>2014-11-09T09:25:07.000Z</time>
      </trkpt>
      <trkpt lat="48.73159" lon="1.05171">
        <ele>174.39999389648</ele>
        <time>2014-11-09T09:25:08.000Z</time>
      </trkpt>
      <trkpt lat="48.73157" lon="1.05172">
        <ele>174.39999389648</ele>
        <time>2014-11-09T09:25:09.000Z</time>
      </trkpt>
      <trkpt lat="48.73155" lon="1.05174">
        <ele>174.39999389648</ele>
        <time>2014-11-09T09:25:10.000Z</time>
      </trkpt>
      <trkpt lat="48.73152" lon="1.05176">
        <ele>174.39999389648</ele>
        <time>2014-11-09T09:25:11.000Z</time>
      </trkpt>
      <trkpt lat="48.73115" lon="1.05211">
        <ele>175</ele>
        <time>2014-11-09T09:25:27.000Z</time>
      </trkpt>
      <trkpt lat="48.73073" lon="1.05248">
        <ele>176</ele>
        <time>2014-11-09T09:25:45.000Z</time>
      </trkpt>
      <trkpt lat="48.7304" lon="1.0528">
        <ele>176.39999389648</ele>
        <time>2014-11-09T09:26:00.000Z</time>
      </trkpt>
      <trkpt lat="48.73001" lon="1.05315">
        <ele>176.39999389648</ele>
        <time>2014-11-09T09:26:16.000Z</time>
      </trkpt>
      <trkpt lat="48.72942" lon="1.05366">
        <ele>176.60000610352</ele>
        <time>2014-11-09T09:26:37.000Z</time>
      </trkpt>
      <trkpt lat="48.72902" lon="1.05359">
        <ele>177.19999694824</ele>
        <time>2014-11-09T09:26:50.000Z</time>
      </trkpt>
      <trkpt lat="48.72879" lon="1.05285">
        <ele>178.39999389648</ele>
        <time>2014-11-09T09:27:05.000Z</time>
      </trkpt>
      <trkpt lat="48.7286" lon="1.05232">
        <ele>178</ele>
        <time>2014-11-09T09:27:18.000Z</time>
      </trkpt>
      <trkpt lat="48.72833" lon="1.05234">
        <ele>178</ele>
        <time>2014-11-09T09:27:27.000Z</time>
      </trkpt>
      <trkpt lat="48.72796" lon="1.0525">
        <ele>178.19999694824</ele>
        <time>2014-11-09T09:27:38.000Z</time>
      </trkpt>
      <trkpt lat="48.72793" lon="1.05248">
        <ele>178.19999694824</ele>
        <time>2014-11-09T09:27:39.000Z</time>
      </trkpt>
      <trkpt lat="48.7279" lon="1.05244">
        <ele>178.19999694824</ele>
        <time>2014-11-09T09:27:40.000Z</time>
      </trkpt>
      <trkpt lat="48.72789" lon="1.05239">
        <ele>178.19999694824</ele>
        <time>2014-11-09T09:27:41.000Z</time>
      </trkpt>
      <trkpt lat="48.72788" lon="1.05234">
        <ele>178</ele>
        <time>2014-11-09T09:27:42.000Z</time>
      </trkpt>
      <trkpt lat="48.72788" lon="1.05228">
        <ele>178</ele>
        <time>2014-11-09T09:27:43.000Z</time>
      </trkpt>
      <trkpt lat="48.72785" lon="1.05122">
        <ele>177</ele>
        <time>2014-11-09T09:27:58.000Z</time>
      </trkpt>
      <trkpt lat="48.72784" lon="1.05108">
        <ele>177</ele>
        <time>2014-11-09T09:28:00.000Z</time>
      </trkpt>
      <trkpt lat="48.72783" lon="1.05101">
        <ele>177</ele>
        <time>2014-11-09T09:28:01.000Z</time>
      </trkpt>
      <trkpt lat="48.72782" lon="1.05007">
        <ele>177</ele>
        <time>2014-11-09T09:28:13.000Z</time>
      </trkpt>
      <trkpt lat="48.72781" lon="1.05">
        <ele>177</ele>
        <time>2014-11-09T09:28:14.000Z</time>
      </trkpt>
      <trkpt lat="48.72778" lon="1.04987">
        <ele>177</ele>
        <time>2014-11-09T09:28:16.000Z</time>
      </trkpt>
      <trkpt lat="48.72777" lon="1.0498">
        <ele>177</ele>
        <time>2014-11-09T09:28:17.000Z</time>
      </trkpt>
      <trkpt lat="48.72757" lon="1.04896">
        <ele>176.80000305176</ele>
        <time>2014-11-09T09:28:31.000Z</time>
      </trkpt>
      <trkpt lat="48.72722" lon="1.04801">
        <ele>176.39999389648</ele>
        <time>2014-11-09T09:28:48.000Z</time>
      </trkpt>
      <trkpt lat="48.72687" lon="1.04714">
        <ele>176</ele>
        <time>2014-11-09T09:29:06.000Z</time>
      </trkpt>
      <trkpt lat="48.72664" lon="1.04634">
        <ele>175.60000610352</ele>
        <time>2014-11-09T09:29:20.000Z</time>
      </trkpt>
      <trkpt lat="48.72659" lon="1.04603">
        <ele>175</ele>
        <time>2014-11-09T09:29:25.000Z</time>
      </trkpt>
      <trkpt lat="48.7266" lon="1.04583">
        <ele>174.60000610352</ele>
        <time>2014-11-09T09:29:28.000Z</time>
      </trkpt>
      <trkpt lat="48.72689" lon="1.04466">
        <ele>172.80000305176</ele>
        <time>2014-11-09T09:29:47.000Z</time>
      </trkpt>
      <trkpt lat="48.72691" lon="1.0446">
        <ele>172.80000305176</ele>
        <time>2014-11-09T09:29:48.000Z</time>
      </trkpt>
      <trkpt lat="48.72693" lon="1.04434">
        <ele>172.39999389648</ele>
        <time>2014-11-09T09:29:52.000Z</time>
      </trkpt>
      <trkpt lat="48.72682" lon="1.04282">
        <ele>170</ele>
        <time>2014-11-09T09:30:13.000Z</time>
      </trkpt>
      <trkpt lat="48.72678" lon="1.04243">
        <ele>168.19999694824</ele>
        <time>2014-11-09T09:30:18.000Z</time>
      </trkpt>
      <trkpt lat="48.727" lon="1.04198">
        <ele>169.19999694824</ele>
        <time>2014-11-09T09:30:26.000Z</time>
      </trkpt>
      <trkpt lat="48.72703" lon="1.04192">
        <ele>169.60000610352</ele>
        <time>2014-11-09T09:30:27.000Z</time>
      </trkpt>
      <trkpt lat="48.72724" lon="1.04181">
        <ele>171</ele>
        <time>2014-11-09T09:30:32.000Z</time>
      </trkpt>
      <trkpt lat="48.72733" lon="1.04176">
        <ele>171.19999694824</ele>
        <time>2014-11-09T09:30:34.000Z</time>
      </trkpt>
      <trkpt lat="48.72777" lon="1.04165">
        <ele>171.39999389648</ele>
        <time>2014-11-09T09:30:42.000Z</time>
      </trkpt>
      <trkpt lat="48.72812" lon="1.0416">
        <ele>170.60000610352</ele>
        <time>2014-11-09T09:30:47.000Z</time>
      </trkpt>
      <trkpt lat="48.72861" lon="1.04095">
        <ele>167.60000610352</ele>
        <time>2014-11-09T09:30:56.000Z</time>
      </trkpt>
      <trkpt lat="48.72869" lon="1.04063">
        <ele>166.60000610352</ele>
        <time>2014-11-09T09:30:59.000Z</time>
      </trkpt>
      <trkpt lat="48.72911" lon="1.03918">
        <ele>159.19999694824</ele>
        <time>2014-11-09T09:31:12.000Z</time>
      </trkpt>
      <trkpt lat="48.72917" lon="1.03896">
        <ele>157</ele>
        <time>2014-11-09T09:31:14.000Z</time>
      </trkpt>
      <trkpt lat="48.72928" lon="1.03867">
        <ele>152.60000610352</ele>
        <time>2014-11-09T09:31:18.000Z</time>
      </trkpt>
      <trkpt lat="48.72939" lon="1.03855">
        <ele>150.19999694824</ele>
        <time>2014-11-09T09:31:21.000Z</time>
      </trkpt>
      <trkpt lat="48.72942" lon="1.0385">
        <ele>149.80000305176</ele>
        <time>2014-11-09T09:31:22.000Z</time>
      </trkpt>
      <trkpt lat="48.72945" lon="1.03843">
        <ele>149</ele>
        <time>2014-11-09T09:31:23.000Z</time>
      </trkpt>
      <trkpt lat="48.72949" lon="1.03835">
        <ele>148.39999389648</ele>
        <time>2014-11-09T09:31:24.000Z</time>
      </trkpt>
      <trkpt lat="48.72953" lon="1.03827">
        <ele>147.60000610352</ele>
        <time>2014-11-09T09:31:25.000Z</time>
      </trkpt>
      <trkpt lat="48.72957" lon="1.03819">
        <ele>146.19999694824</ele>
        <time>2014-11-09T09:31:26.000Z</time>
      </trkpt>
      <trkpt lat="48.73018" lon="1.03698">
        <ele>140</ele>
        <time>2014-11-09T09:31:41.000Z</time>
      </trkpt>
      <trkpt lat="48.73071" lon="1.03598">
        <ele>138.80000305176</ele>
        <time>2014-11-09T09:31:55.000Z</time>
      </trkpt>
      <trkpt lat="48.73112" lon="1.03494">
        <ele>138.80000305176</ele>
        <time>2014-11-09T09:32:10.000Z</time>
      </trkpt>
      <trkpt lat="48.73135" lon="1.03443">
        <ele>141.80000305176</ele>
        <time>2014-11-09T09:32:22.000Z</time>
      </trkpt>
      <trkpt lat="48.73162" lon="1.03409">
        <ele>145.39999389648</ele>
        <time>2014-11-09T09:32:36.000Z</time>
      </trkpt>
      <trkpt lat="48.73185" lon="1.03378">
        <ele>148.80000305176</ele>
        <time>2014-11-09T09:32:52.000Z</time>
      </trkpt>
      <trkpt lat="48.73192" lon="1.03368">
        <ele>149.39999389648</ele>
        <time>2014-11-09T09:32:57.000Z</time>
      </trkpt>
      <trkpt lat="48.73194" lon="1.03366">
        <ele>149.60000610352</ele>
        <time>2014-11-09T09:32:58.000Z</time>
      </trkpt>
      <trkpt lat="48.73196" lon="1.03364">
        <ele>149.80000305176</ele>
        <time>2014-11-09T09:32:59.000Z</time>
      </trkpt>
      <trkpt lat="48.73198" lon="1.03362">
        <ele>149.80000305176</ele>
        <time>2014-11-09T09:33:00.000Z</time>
      </trkpt>
      <trkpt lat="48.732" lon="1.0336">
        <ele>150</ele>
        <time>2014-11-09T09:33:01.000Z</time>
      </trkpt>
      <trkpt lat="48.73201" lon="1.03358">
        <ele>150</ele>
        <time>2014-11-09T09:33:02.000Z</time>
      </trkpt>
      <trkpt lat="48.73203" lon="1.03356">
        <ele>150.19999694824</ele>
        <time>2014-11-09T09:33:03.000Z</time>
      </trkpt>
      <trkpt lat="48.73205" lon="1.03354">
        <ele>150.19999694824</ele>
        <time>2014-11-09T09:33:04.000Z</time>
      </trkpt>
      <trkpt lat="48.73206" lon="1.03353">
        <ele>150.39999389648</ele>
        <time>2014-11-09T09:33:05.000Z</time>
      </trkpt>
      <trkpt lat="48.73208" lon="1.03352">
        <ele>150.39999389648</ele>
        <time>2014-11-09T09:33:06.000Z</time>
      </trkpt>
      <trkpt lat="48.73242" lon="1.03338">
        <ele>151.19999694824</ele>
        <time>2014-11-09T09:33:20.000Z</time>
      </trkpt>
      <trkpt lat="48.7327" lon="1.03345">
        <ele>150.80000305176</ele>
        <time>2014-11-09T09:33:27.000Z</time>
      </trkpt>
      <trkpt lat="48.73275" lon="1.03345">
        <ele>150.60000610352</ele>
        <time>2014-11-09T09:33:28.000Z</time>
      </trkpt>
      <trkpt lat="48.73279" lon="1.03345">
        <ele>150.19999694824</ele>
        <time>2014-11-09T09:33:29.000Z</time>
      </trkpt>
      <trkpt lat="48.73283" lon="1.03344">
        <ele>150</ele>
        <time>2014-11-09T09:33:30.000Z</time>
      </trkpt>
      <trkpt lat="48.73288" lon="1.03343">
        <ele>149.80000305176</ele>
        <time>2014-11-09T09:33:31.000Z</time>
      </trkpt>
      <trkpt lat="48.7335" lon="1.03322">
        <ele>150.39999389648</ele>
        <time>2014-11-09T09:33:49.000Z</time>
      </trkpt>
      <trkpt lat="48.7339" lon="1.03307">
        <ele>151.60000610352</ele>
        <time>2014-11-09T09:34:03.000Z</time>
      </trkpt>
      <trkpt lat="48.73437" lon="1.0328">
        <ele>153</ele>
        <time>2014-11-09T09:34:21.000Z</time>
      </trkpt>
      <trkpt lat="48.7346" lon="1.03254">
        <ele>154</ele>
        <time>2014-11-09T09:34:33.000Z</time>
      </trkpt>
      <trkpt lat="48.73466" lon="1.03245">
        <ele>154.80000305176</ele>
        <time>2014-11-09T09:34:37.000Z</time>
      </trkpt>
      <trkpt lat="48.73467" lon="1.03243">
        <ele>155</ele>
        <time>2014-11-09T09:34:38.000Z</time>
      </trkpt>
      <trkpt lat="48.73481" lon="1.03208">
        <ele>157</ele>
        <time>2014-11-09T09:34:50.000Z</time>
      </trkpt>
      <trkpt lat="48.73498" lon="1.03151">
        <ele>160.80000305176</ele>
        <time>2014-11-09T09:35:08.000Z</time>
      </trkpt>
      <trkpt lat="48.73516" lon="1.03097">
        <ele>163.39999389648</ele>
        <time>2014-11-09T09:35:24.000Z</time>
      </trkpt>
      <trkpt lat="48.73542" lon="1.03053">
        <ele>165.19999694824</ele>
        <time>2014-11-09T09:35:40.000Z</time>
      </trkpt>
      <trkpt lat="48.73569" lon="1.03017">
        <ele>166</ele>
        <time>2014-11-09T09:35:54.000Z</time>
      </trkpt>
      <trkpt lat="48.736" lon="1.02971">
        <ele>166.19999694824</ele>
        <time>2014-11-09T09:36:12.000Z</time>
      </trkpt>
      <trkpt lat="48.7363" lon="1.02923">
        <ele>167.60000610352</ele>
        <time>2014-11-09T09:36:28.000Z</time>
      </trkpt>
      <trkpt lat="48.7365" lon="1.02886">
        <ele>168.19999694824</ele>
        <time>2014-11-09T09:36:39.000Z</time>
      </trkpt>
      <trkpt lat="48.73679" lon="1.02843">
        <ele>168.80000305176</ele>
        <time>2014-11-09T09:36:51.000Z</time>
      </trkpt>
      <trkpt lat="48.73723" lon="1.02771">
        <ele>170</ele>
        <time>2014-11-09T09:37:09.000Z</time>
      </trkpt>
      <trkpt lat="48.73755" lon="1.02713">
        <ele>169.39999389648</ele>
        <time>2014-11-09T09:37:22.000Z</time>
      </trkpt>
      <trkpt lat="48.73757" lon="1.02708">
        <ele>169.39999389648</ele>
        <time>2014-11-09T09:37:23.000Z</time>
      </trkpt>
      <trkpt lat="48.73804" lon="1.02613">
        <ele>168.60000610352</ele>
        <time>2014-11-09T09:37:39.000Z</time>
      </trkpt>
      <trkpt lat="48.73815" lon="1.02583">
        <ele>168.80000305176</ele>
        <time>2014-11-09T09:37:44.000Z</time>
      </trkpt>
      <trkpt lat="48.73817" lon="1.02578">
        <ele>169</ele>
        <time>2014-11-09T09:37:45.000Z</time>
      </trkpt>
      <trkpt lat="48.73849" lon="1.02531">
        <ele>169</ele>
        <time>2014-11-09T09:37:57.000Z</time>
      </trkpt>
      <trkpt lat="48.73896" lon="1.025">
        <ele>168.80000305176</ele>
        <time>2014-11-09T09:38:12.000Z</time>
      </trkpt>
      <trkpt lat="48.73954" lon="1.0248">
        <ele>169</ele>
        <time>2014-11-09T09:38:31.000Z</time>
      </trkpt>
      <trkpt lat="48.74023" lon="1.02459">
        <ele>169.19999694824</ele>
        <time>2014-11-09T09:38:53.000Z</time>
      </trkpt>
      <trkpt lat="48.74082" lon="1.02428">
        <ele>169.60000610352</ele>
        <time>2014-11-09T09:39:12.000Z</time>
      </trkpt>
      <trkpt lat="48.74134" lon="1.02392">
        <ele>170</ele>
        <time>2014-11-09T09:39:30.000Z</time>
      </trkpt>
      <trkpt lat="48.74182" lon="1.02356">
        <ele>170.80000305176</ele>
        <time>2014-11-09T09:39:48.000Z</time>
      </trkpt>
      <trkpt lat="48.74223" lon="1.02315">
        <ele>172</ele>
        <time>2014-11-09T09:40:03.000Z</time>
      </trkpt>
      <trkpt lat="48.74281" lon="1.02236">
        <ele>171.80000305176</ele>
        <time>2014-11-09T09:40:22.000Z</time>
      </trkpt>
      <trkpt lat="48.7433" lon="1.02148">
        <ele>171.19999694824</ele>
        <time>2014-11-09T09:40:40.000Z</time>
      </trkpt>
      <trkpt lat="48.74368" lon="1.02046">
        <ele>172.19999694824</ele>
        <time>2014-11-09T09:40:57.000Z</time>
      </trkpt>
      <trkpt lat="48.74386" lon="1.01967">
        <ele>173.60000610352</ele>
        <time>2014-11-09T09:41:11.000Z</time>
      </trkpt>
      <trkpt lat="48.74376" lon="1.01961">
        <ele>174</ele>
        <time>2014-11-09T09:41:16.000Z</time>
      </trkpt>
      <trkpt lat="48.74345" lon="1.01977">
        <ele>173.80000305176</ele>
        <time>2014-11-09T09:41:27.000Z</time>
      </trkpt>
      <trkpt lat="48.74282" lon="1.01969">
        <ele>172.80000305176</ele>
        <time>2014-11-09T09:41:46.000Z</time>
      </trkpt>
      <trkpt lat="48.74244" lon="1.01941">
        <ele>174.80000305176</ele>
        <time>2014-11-09T09:41:59.000Z</time>
      </trkpt>
      <trkpt lat="48.74196" lon="1.01906">
        <ele>178</ele>
        <time>2014-11-09T09:42:15.000Z</time>
      </trkpt>
      <trkpt lat="48.74152" lon="1.01917">
        <ele>179.60000610352</ele>
        <time>2014-11-09T09:42:29.000Z</time>
      </trkpt>
      <trkpt lat="48.74124" lon="1.01939">
        <ele>181.39999389648</ele>
        <time>2014-11-09T09:42:41.000Z</time>
      </trkpt>
      <trkpt lat="48.74096" lon="1.01956">
        <ele>183.19999694824</ele>
        <time>2014-11-09T09:42:52.000Z</time>
      </trkpt>
      <trkpt lat="48.74085" lon="1.01964">
        <ele>183</ele>
        <time>2014-11-09T09:42:56.000Z</time>
      </trkpt>
      <trkpt lat="48.74046" lon="1.01985">
        <ele>181.80000305176</ele>
        <time>2014-11-09T09:43:08.000Z</time>
      </trkpt>
      <trkpt lat="48.73989" lon="1.01998">
        <ele>179.60000610352</ele>
        <time>2014-11-09T09:43:23.000Z</time>
      </trkpt>
      <trkpt lat="48.73918" lon="1.02013">
        <ele>176.19999694824</ele>
        <time>2014-11-09T09:43:39.000Z</time>
      </trkpt>
      <trkpt lat="48.73877" lon="1.02018">
        <ele>173.60000610352</ele>
        <time>2014-11-09T09:43:47.000Z</time>
      </trkpt>
      <trkpt lat="48.73874" lon="1.02015">
        <ele>173.39999389648</ele>
        <time>2014-11-09T09:43:48.000Z</time>
      </trkpt>
      <trkpt lat="48.73872" lon="1.01998">
        <ele>173.60000610352</ele>
        <time>2014-11-09T09:43:51.000Z</time>
      </trkpt>
      <trkpt lat="48.73881" lon="1.0194">
        <ele>174.60000610352</ele>
        <time>2014-11-09T09:44:01.000Z</time>
      </trkpt>
      <trkpt lat="48.7385" lon="1.0188">
        <ele>171.80000305176</ele>
        <time>2014-11-09T09:44:13.000Z</time>
      </trkpt>
      <trkpt lat="48.73796" lon="1.01774">
        <ele>171.80000305176</ele>
        <time>2014-11-09T09:44:31.000Z</time>
      </trkpt>
      <trkpt lat="48.73788" lon="1.01757">
        <ele>172.19999694824</ele>
        <time>2014-11-09T09:44:34.000Z</time>
      </trkpt>
      <trkpt lat="48.73778" lon="1.0173">
        <ele>173</ele>
        <time>2014-11-09T09:44:39.000Z</time>
      </trkpt>
      <trkpt lat="48.73755" lon="1.01701">
        <ele>171</ele>
        <time>2014-11-09T09:44:46.000Z</time>
      </trkpt>
      <trkpt lat="48.73696" lon="1.01694">
        <ele>167.60000610352</ele>
        <time>2014-11-09T09:44:57.000Z</time>
      </trkpt>
      <trkpt lat="48.73653" lon="1.01717">
        <ele>163.19999694824</ele>
        <time>2014-11-09T09:45:05.000Z</time>
      </trkpt>
      <trkpt lat="48.73617" lon="1.01757">
        <ele>158.39999389648</ele>
        <time>2014-11-09T09:45:12.000Z</time>
      </trkpt>
      <trkpt lat="48.7357" lon="1.01812">
        <ele>154.39999389648</ele>
        <time>2014-11-09T09:45:20.000Z</time>
      </trkpt>
      <trkpt lat="48.73554" lon="1.01832">
        <ele>152.19999694824</ele>
        <time>2014-11-09T09:45:23.000Z</time>
      </trkpt>
      <trkpt lat="48.73537" lon="1.01836">
        <ele>149.19999694824</ele>
        <time>2014-11-09T09:45:27.000Z</time>
      </trkpt>
      <trkpt lat="48.73535" lon="1.0183">
        <ele>148.80000305176</ele>
        <time>2014-11-09T09:45:28.000Z</time>
      </trkpt>
      <trkpt lat="48.73534" lon="1.01822">
        <ele>148.60000610352</ele>
        <time>2014-11-09T09:45:29.000Z</time>
      </trkpt>
      <trkpt lat="48.73534" lon="1.01815">
        <ele>148.39999389648</ele>
        <time>2014-11-09T09:45:30.000Z</time>
      </trkpt>
      <trkpt lat="48.73534" lon="1.01806">
        <ele>148.19999694824</ele>
        <time>2014-11-09T09:45:31.000Z</time>
      </trkpt>
      <trkpt lat="48.73532" lon="1.01798">
        <ele>148</ele>
        <time>2014-11-09T09:45:32.000Z</time>
      </trkpt>
      <trkpt lat="48.7353" lon="1.0179">
        <ele>147.80000305176</ele>
        <time>2014-11-09T09:45:33.000Z</time>
      </trkpt>
      <trkpt lat="48.73528" lon="1.01781">
        <ele>147.60000610352</ele>
        <time>2014-11-09T09:45:34.000Z</time>
      </trkpt>
      <trkpt lat="48.73522" lon="1.01766">
        <ele>146.80000305176</ele>
        <time>2014-11-09T09:45:36.000Z</time>
      </trkpt>
      <trkpt lat="48.73502" lon="1.01726">
        <ele>145.80000305176</ele>
        <time>2014-11-09T09:45:42.000Z</time>
      </trkpt>
      <trkpt lat="48.73498" lon="1.01721">
        <ele>145.80000305176</ele>
        <time>2014-11-09T09:45:43.000Z</time>
      </trkpt>
      <trkpt lat="48.73493" lon="1.01721">
        <ele>145.60000610352</ele>
        <time>2014-11-09T09:45:44.000Z</time>
      </trkpt>
      <trkpt lat="48.73483" lon="1.01729">
        <ele>144.60000610352</ele>
        <time>2014-11-09T09:45:46.000Z</time>
      </trkpt>
      <trkpt lat="48.7342" lon="1.01813">
        <ele>142.19999694824</ele>
        <time>2014-11-09T09:45:58.000Z</time>
      </trkpt>
      <trkpt lat="48.73396" lon="1.01824">
        <ele>142.60000610352</ele>
        <time>2014-11-09T09:46:03.000Z</time>
      </trkpt>
      <trkpt lat="48.73344" lon="1.01828">
        <ele>142.80000305176</ele>
        <time>2014-11-09T09:46:12.000Z</time>
      </trkpt>
      <trkpt lat="48.73306" lon="1.01839">
        <ele>142.39999389648</ele>
        <time>2014-11-09T09:46:19.000Z</time>
      </trkpt>
      <trkpt lat="48.73292" lon="1.01848">
        <ele>142.39999389648</ele>
        <time>2014-11-09T09:46:22.000Z</time>
      </trkpt>
      <trkpt lat="48.73266" lon="1.01846">
        <ele>142.60000610352</ele>
        <time>2014-11-09T09:46:28.000Z</time>
      </trkpt>
      <trkpt lat="48.7324" lon="1.0181">
        <ele>143.19999694824</ele>
        <time>2014-11-09T09:46:37.000Z</time>
      </trkpt>
      <trkpt lat="48.73232" lon="1.01805">
        <ele>143.19999694824</ele>
        <time>2014-11-09T09:46:39.000Z</time>
      </trkpt>
      <trkpt lat="48.73183" lon="1.01801">
        <ele>144.80000305176</ele>
        <time>2014-11-09T09:46:51.000Z</time>
      </trkpt>
      <trkpt lat="48.73174" lon="1.01805">
        <ele>145.39999389648</ele>
        <time>2014-11-09T09:46:54.000Z</time>
      </trkpt>
      <trkpt lat="48.73154" lon="1.01802">
        <ele>145.80000305176</ele>
        <time>2014-11-09T09:46:59.000Z</time>
      </trkpt>
      <trkpt lat="48.73113" lon="1.0176">
        <ele>145.39999389648</ele>
        <time>2014-11-09T09:47:11.000Z</time>
      </trkpt>
      <trkpt lat="48.73078" lon="1.01762">
        <ele>146</ele>
        <time>2014-11-09T09:47:20.000Z</time>
      </trkpt>
      <trkpt lat="48.73024" lon="1.01759">
        <ele>146.19999694824</ele>
        <time>2014-11-09T09:47:32.000Z</time>
      </trkpt>
      <trkpt lat="48.73001" lon="1.01761">
        <ele>147.39999389648</ele>
        <time>2014-11-09T09:47:37.000Z</time>
      </trkpt>
      <trkpt lat="48.72979" lon="1.01755">
        <ele>148.60000610352</ele>
        <time>2014-11-09T09:47:42.000Z</time>
      </trkpt>
      <trkpt lat="48.72959" lon="1.01742">
        <ele>149.39999389648</ele>
        <time>2014-11-09T09:47:47.000Z</time>
      </trkpt>
      <trkpt lat="48.72951" lon="1.01735">
        <ele>149.60000610352</ele>
        <time>2014-11-09T09:47:49.000Z</time>
      </trkpt>
      <trkpt lat="48.72914" lon="1.01708">
        <ele>150.80000305176</ele>
        <time>2014-11-09T09:47:59.000Z</time>
      </trkpt>
      <trkpt lat="48.72895" lon="1.01692">
        <ele>151.19999694824</ele>
        <time>2014-11-09T09:48:04.000Z</time>
      </trkpt>
      <trkpt lat="48.72851" lon="1.01649">
        <ele>151.80000305176</ele>
        <time>2014-11-09T09:48:17.000Z</time>
      </trkpt>
      <trkpt lat="48.72847" lon="1.01632">
        <ele>150.80000305176</ele>
        <time>2014-11-09T09:48:20.000Z</time>
      </trkpt>
      <trkpt lat="48.72836" lon="1.0157">
        <ele>148</ele>
        <time>2014-11-09T09:48:31.000Z</time>
      </trkpt>
      <trkpt lat="48.72837" lon="1.01519">
        <ele>145.39999389648</ele>
        <time>2014-11-09T09:48:40.000Z</time>
      </trkpt>
      <trkpt lat="48.72863" lon="1.01482">
        <ele>143.60000610352</ele>
        <time>2014-11-09T09:48:50.000Z</time>
      </trkpt>
      <trkpt lat="48.72895" lon="1.01428">
        <ele>143.19999694824</ele>
        <time>2014-11-09T09:49:02.000Z</time>
      </trkpt>
      <trkpt lat="48.72912" lon="1.01401">
        <ele>145.19999694824</ele>
        <time>2014-11-09T09:49:08.000Z</time>
      </trkpt>
      <trkpt lat="48.72935" lon="1.014">
        <ele>145.39999389648</ele>
        <time>2014-11-09T09:49:14.000Z</time>
      </trkpt>
      <trkpt lat="48.72948" lon="1.0137">
        <ele>145.39999389648</ele>
        <time>2014-11-09T09:49:20.000Z</time>
      </trkpt>
      <trkpt lat="48.72962" lon="1.0129">
        <ele>144.80000305176</ele>
        <time>2014-11-09T09:49:34.000Z</time>
      </trkpt>
      <trkpt lat="48.72987" lon="1.01221">
        <ele>146.19999694824</ele>
        <time>2014-11-09T09:49:47.000Z</time>
      </trkpt>
      <trkpt lat="48.73005" lon="1.01178">
        <ele>146.80000305176</ele>
        <time>2014-11-09T09:49:58.000Z</time>
      </trkpt>
      <trkpt lat="48.73018" lon="1.01116">
        <ele>147.60000610352</ele>
        <time>2014-11-09T09:50:09.000Z</time>
      </trkpt>
      <trkpt lat="48.73007" lon="1.01059">
        <ele>148.80000305176</ele>
        <time>2014-11-09T09:50:20.000Z</time>
      </trkpt>
      <trkpt lat="48.72972" lon="1.00989">
        <ele>149.19999694824</ele>
        <time>2014-11-09T09:50:36.000Z</time>
      </trkpt>
      <trkpt lat="48.72943" lon="1.00926">
        <ele>150.80000305176</ele>
        <time>2014-11-09T09:50:50.000Z</time>
      </trkpt>
      <trkpt lat="48.72944" lon="1.00897">
        <ele>151.80000305176</ele>
        <time>2014-11-09T09:50:55.000Z</time>
      </trkpt>
      <trkpt lat="48.72949" lon="1.00838">
        <ele>152.19999694824</ele>
        <time>2014-11-09T09:51:04.000Z</time>
      </trkpt>
      <trkpt lat="48.7295" lon="1.00831">
        <ele>152.19999694824</ele>
        <time>2014-11-09T09:51:05.000Z</time>
      </trkpt>
      <trkpt lat="48.72956" lon="1.00792">
        <ele>153</ele>
        <time>2014-11-09T09:51:11.000Z</time>
      </trkpt>
      <trkpt lat="48.72955" lon="1.00786">
        <ele>153</ele>
        <time>2014-11-09T09:51:12.000Z</time>
      </trkpt>
      <trkpt lat="48.72953" lon="1.00781">
        <ele>152.80000305176</ele>
        <time>2014-11-09T09:51:13.000Z</time>
      </trkpt>
      <trkpt lat="48.72929" lon="1.00744">
        <ele>151.39999389648</ele>
        <time>2014-11-09T09:51:21.000Z</time>
      </trkpt>
      <trkpt lat="48.72926" lon="1.00736">
        <ele>151</ele>
        <time>2014-11-09T09:51:22.000Z</time>
      </trkpt>
      <trkpt lat="48.72909" lon="1.00685">
        <ele>148.80000305176</ele>
        <time>2014-11-09T09:51:27.000Z</time>
      </trkpt>
      <trkpt lat="48.729" lon="1.00638">
        <ele>147.39999389648</ele>
        <time>2014-11-09T09:51:31.000Z</time>
      </trkpt>
      <trkpt lat="48.72899" lon="1.00513">
        <ele>149</ele>
        <time>2014-11-09T09:51:44.000Z</time>
      </trkpt>
      <trkpt lat="48.729" lon="1.00487">
        <ele>149.60000610352</ele>
        <time>2014-11-09T09:51:47.000Z</time>
      </trkpt>
      <trkpt lat="48.72905" lon="1.00455">
        <ele>150.39999389648</ele>
        <time>2014-11-09T09:51:51.000Z</time>
      </trkpt>
      <trkpt lat="48.72908" lon="1.00432">
        <ele>150.39999389648</ele>
        <time>2014-11-09T09:51:54.000Z</time>
      </trkpt>
      <trkpt lat="48.72918" lon="1.00388">
        <ele>149.80000305176</ele>
        <time>2014-11-09T09:52:01.000Z</time>
      </trkpt>
      <trkpt lat="48.72924" lon="1.0036">
        <ele>149.60000610352</ele>
        <time>2014-11-09T09:52:05.000Z</time>
      </trkpt>
      <trkpt lat="48.72931" lon="1.00334">
        <ele>148.80000305176</ele>
        <time>2014-11-09T09:52:09.000Z</time>
      </trkpt>
      <trkpt lat="48.7294" lon="1.00311">
        <ele>148.39999389648</ele>
        <time>2014-11-09T09:52:13.000Z</time>
      </trkpt>
      <trkpt lat="48.72953" lon="1.0028">
        <ele>149.19999694824</ele>
        <time>2014-11-09T09:52:18.000Z</time>
      </trkpt>
      <trkpt lat="48.72987" lon="1.00193">
        <ele>151</ele>
        <time>2014-11-09T09:52:32.000Z</time>
      </trkpt>
      <trkpt lat="48.72993" lon="1.00177">
        <ele>150.80000305176</ele>
        <time>2014-11-09T09:52:35.000Z</time>
      </trkpt>
      <trkpt lat="48.72992" lon="1.00151">
        <ele>149.39999389648</ele>
        <time>2014-11-09T09:52:39.000Z</time>
      </trkpt>
      <trkpt lat="48.72993" lon="1.00131">
        <ele>148.60000610352</ele>
        <time>2014-11-09T09:52:43.000Z</time>
      </trkpt>
      <trkpt lat="48.7299" lon="1.00067">
        <ele>147.19999694824</ele>
        <time>2014-11-09T09:52:56.000Z</time>
      </trkpt>
      <trkpt lat="48.72989" lon="1.0002">
        <ele>147.60000610352</ele>
        <time>2014-11-09T09:53:09.000Z</time>
      </trkpt>
      <trkpt lat="48.72991" lon="0.99969">
        <ele>146.60000610352</ele>
        <time>2014-11-09T09:53:20.000Z</time>
      </trkpt>
      <trkpt lat="48.72991" lon="0.9991">
        <ele>145.39999389648</ele>
        <time>2014-11-09T09:53:31.000Z</time>
      </trkpt>
      <trkpt lat="48.72991" lon="0.99847">
        <ele>144.39999389648</ele>
        <time>2014-11-09T09:53:45.000Z</time>
      </trkpt>
      <trkpt lat="48.72988" lon="0.99779">
        <ele>144.39999389648</ele>
        <time>2014-11-09T09:54:00.000Z</time>
      </trkpt>
      <trkpt lat="48.72987" lon="0.99762">
        <ele>144.80000305176</ele>
        <time>2014-11-09T09:54:05.000Z</time>
      </trkpt>
      <trkpt lat="48.72983" lon="0.99757">
        <ele>144.80000305176</ele>
        <time>2014-11-09T09:54:08.000Z</time>
      </trkpt>
      <trkpt lat="48.72981" lon="0.99757">
        <ele>144.80000305176</ele>
        <time>2014-11-09T09:54:09.000Z</time>
      </trkpt>
      <trkpt lat="48.72979" lon="0.99757">
        <ele>144.80000305176</ele>
        <time>2014-11-09T09:54:10.000Z</time>
      </trkpt>
      <trkpt lat="48.72977" lon="0.99757">
        <ele>144.80000305176</ele>
        <time>2014-11-09T09:54:11.000Z</time>
      </trkpt>
      <trkpt lat="48.72974" lon="0.99757">
        <ele>144.60000610352</ele>
        <time>2014-11-09T09:54:12.000Z</time>
      </trkpt>
      <trkpt lat="48.72934" lon="0.99753">
        <ele>144.80000305176</ele>
        <time>2014-11-09T09:54:24.000Z</time>
      </trkpt>
      <trkpt lat="48.7289" lon="0.99749">
        <ele>145.80000305176</ele>
        <time>2014-11-09T09:54:37.000Z</time>
      </trkpt>
      <trkpt lat="48.72876" lon="0.99744">
        <ele>146.19999694824</ele>
        <time>2014-11-09T09:54:47.000Z</time>
      </trkpt>
      <trkpt lat="48.72866" lon="0.99739">
        <ele>146.60000610352</ele>
        <time>2014-11-09T09:55:06.000Z</time>
      </trkpt>
      <trkpt lat="48.72833" lon="0.99708">
        <ele>147</ele>
        <time>2014-11-09T09:55:18.000Z</time>
      </trkpt>
      <trkpt lat="48.72803" lon="0.99655">
        <ele>147</ele>
        <time>2014-11-09T09:55:29.000Z</time>
      </trkpt>
      <trkpt lat="48.72799" lon="0.99651">
        <ele>147</ele>
        <time>2014-11-09T09:55:30.000Z</time>
      </trkpt>
      <trkpt lat="48.72795" lon="0.99648">
        <ele>147</ele>
        <time>2014-11-09T09:55:31.000Z</time>
      </trkpt>
      <trkpt lat="48.72791" lon="0.99646">
        <ele>147</ele>
        <time>2014-11-09T09:55:32.000Z</time>
      </trkpt>
      <trkpt lat="48.72786" lon="0.99645">
        <ele>147</ele>
        <time>2014-11-09T09:55:33.000Z</time>
      </trkpt>
      <trkpt lat="48.72781" lon="0.99645">
        <ele>147</ele>
        <time>2014-11-09T09:55:34.000Z</time>
      </trkpt>
      <trkpt lat="48.72725" lon="0.99644">
        <ele>149.19999694824</ele>
        <time>2014-11-09T09:55:46.000Z</time>
      </trkpt>
      <trkpt lat="48.72716" lon="0.99644">
        <ele>149.60000610352</ele>
        <time>2014-11-09T09:55:48.000Z</time>
      </trkpt>
      <trkpt lat="48.72678" lon="0.99642">
        <ele>151.80000305176</ele>
        <time>2014-11-09T09:55:58.000Z</time>
      </trkpt>
      <trkpt lat="48.72673" lon="0.9964">
        <ele>152.39999389648</ele>
        <time>2014-11-09T09:55:59.000Z</time>
      </trkpt>
      <trkpt lat="48.72663" lon="0.99635">
        <ele>153.60000610352</ele>
        <time>2014-11-09T09:56:01.000Z</time>
      </trkpt>
      <trkpt lat="48.7266" lon="0.99629">
        <ele>154</ele>
        <time>2014-11-09T09:56:02.000Z</time>
      </trkpt>
      <trkpt lat="48.72659" lon="0.99623">
        <ele>154.39999389648</ele>
        <time>2014-11-09T09:56:03.000Z</time>
      </trkpt>
      <trkpt lat="48.72658" lon="0.99616">
        <ele>154.80000305176</ele>
        <time>2014-11-09T09:56:04.000Z</time>
      </trkpt>
      <trkpt lat="48.72657" lon="0.99608">
        <ele>155</ele>
        <time>2014-11-09T09:56:05.000Z</time>
      </trkpt>
      <trkpt lat="48.72656" lon="0.99601">
        <ele>155</ele>
        <time>2014-11-09T09:56:06.000Z</time>
      </trkpt>
      <trkpt lat="48.72652" lon="0.9956">
        <ele>155.60000610352</ele>
        <time>2014-11-09T09:56:12.000Z</time>
      </trkpt>
      <trkpt lat="48.7265" lon="0.99553">
        <ele>156</ele>
        <time>2014-11-09T09:56:13.000Z</time>
      </trkpt>
      <trkpt lat="48.72649" lon="0.99547">
        <ele>156.39999389648</ele>
        <time>2014-11-09T09:56:14.000Z</time>
      </trkpt>
      <trkpt lat="48.72645" lon="0.99527">
        <ele>157.39999389648</ele>
        <time>2014-11-09T09:56:17.000Z</time>
      </trkpt>
      <trkpt lat="48.7264" lon="0.995">
        <ele>158</ele>
        <time>2014-11-09T09:56:21.000Z</time>
      </trkpt>
      <trkpt lat="48.72617" lon="0.99406">
        <ele>161.60000610352</ele>
        <time>2014-11-09T09:56:36.000Z</time>
      </trkpt>
      <trkpt lat="48.72615" lon="0.994">
        <ele>162</ele>
        <time>2014-11-09T09:56:37.000Z</time>
      </trkpt>
      <trkpt lat="48.72609" lon="0.99369">
        <ele>162.39999389648</ele>
        <time>2014-11-09T09:56:42.000Z</time>
      </trkpt>
      <trkpt lat="48.72591" lon="0.99256">
        <ele>162</ele>
        <time>2014-11-09T09:56:59.000Z</time>
      </trkpt>
      <trkpt lat="48.7259" lon="0.99249">
        <ele>161.80000305176</ele>
        <time>2014-11-09T09:57:00.000Z</time>
      </trkpt>
      <trkpt lat="48.72589" lon="0.99241">
        <ele>161.80000305176</ele>
        <time>2014-11-09T09:57:01.000Z</time>
      </trkpt>
      <trkpt lat="48.72584" lon="0.99214">
        <ele>162</ele>
        <time>2014-11-09T09:57:05.000Z</time>
      </trkpt>
      <trkpt lat="48.72575" lon="0.9917">
        <ele>162.39999389648</ele>
        <time>2014-11-09T09:57:11.000Z</time>
      </trkpt>
      <trkpt lat="48.72571" lon="0.99149">
        <ele>162.39999389648</ele>
        <time>2014-11-09T09:57:14.000Z</time>
      </trkpt>
      <trkpt lat="48.7257" lon="0.99142">
        <ele>162.60000610352</ele>
        <time>2014-11-09T09:57:15.000Z</time>
      </trkpt>
      <trkpt lat="48.72569" lon="0.99134">
        <ele>162.39999389648</ele>
        <time>2014-11-09T09:57:16.000Z</time>
      </trkpt>
      <trkpt lat="48.72567" lon="0.99127">
        <ele>162.19999694824</ele>
        <time>2014-11-09T09:57:17.000Z</time>
      </trkpt>
      <trkpt lat="48.72566" lon="0.99119">
        <ele>162.19999694824</ele>
        <time>2014-11-09T09:57:18.000Z</time>
      </trkpt>
      <trkpt lat="48.72551" lon="0.99038">
        <ele>161.39999389648</ele>
        <time>2014-11-09T09:57:28.000Z</time>
      </trkpt>
      <trkpt lat="48.72551" lon="0.99031">
        <ele>161</ele>
        <time>2014-11-09T09:57:29.000Z</time>
      </trkpt>
      <trkpt lat="48.72551" lon="0.99023">
        <ele>161</ele>
        <time>2014-11-09T09:57:30.000Z</time>
      </trkpt>
      <trkpt lat="48.7255" lon="0.99014">
        <ele>160.80000305176</ele>
        <time>2014-11-09T09:57:31.000Z</time>
      </trkpt>
      <trkpt lat="48.7255" lon="0.99006">
        <ele>160.39999389648</ele>
        <time>2014-11-09T09:57:32.000Z</time>
      </trkpt>
      <trkpt lat="48.7255" lon="0.98997">
        <ele>160.19999694824</ele>
        <time>2014-11-09T09:57:33.000Z</time>
      </trkpt>
      <trkpt lat="48.72549" lon="0.98926">
        <ele>160.80000305176</ele>
        <time>2014-11-09T09:57:42.000Z</time>
      </trkpt>
      <trkpt lat="48.72555" lon="0.9882">
        <ele>161.80000305176</ele>
        <time>2014-11-09T09:57:57.000Z</time>
      </trkpt>
      <trkpt lat="48.72564" lon="0.98729">
        <ele>161.39999389648</ele>
        <time>2014-11-09T09:58:10.000Z</time>
      </trkpt>
      <trkpt lat="48.72567" lon="0.98675">
        <ele>161</ele>
        <time>2014-11-09T09:58:18.000Z</time>
      </trkpt>
      <trkpt lat="48.7257" lon="0.98581">
        <ele>162</ele>
        <time>2014-11-09T09:58:31.000Z</time>
      </trkpt>
      <trkpt lat="48.72557" lon="0.98471">
        <ele>161.19999694824</ele>
        <time>2014-11-09T09:58:46.000Z</time>
      </trkpt>
      <trkpt lat="48.72542" lon="0.98418">
        <ele>160</ele>
        <time>2014-11-09T09:58:54.000Z</time>
      </trkpt>
      <trkpt lat="48.72513" lon="0.9834">
        <ele>158.80000305176</ele>
        <time>2014-11-09T09:59:09.000Z</time>
      </trkpt>
      <trkpt lat="48.72506" lon="0.98336">
        <ele>159</ele>
        <time>2014-11-09T09:59:20.000Z</time>
      </trkpt>
      <trkpt lat="48.72506" lon="0.98338">
        <ele>159.19999694824</ele>
        <time>2014-11-09T09:59:36.000Z</time>
      </trkpt>
      <trkpt lat="48.72507" lon="0.98339">
        <ele>159.19999694824</ele>
        <time>2014-11-09T10:00:10.000Z</time>
      </trkpt>
      <trkpt lat="48.72505" lon="0.98338">
        <ele>159.19999694824</ele>
        <time>2014-11-09T10:00:35.000Z</time>
      </trkpt>
      <trkpt lat="48.72509" lon="0.98338">
        <ele>159</ele>
        <time>2014-11-09T10:01:12.000Z</time>
      </trkpt>
      <trkpt lat="48.72508" lon="0.9834">
        <ele>159.19999694824</ele>
        <time>2014-11-09T10:01:36.000Z</time>
      </trkpt>
      <trkpt lat="48.72509" lon="0.98339">
        <ele>159</ele>
        <time>2014-11-09T10:01:46.000Z</time>
      </trkpt>
      <trkpt lat="48.72507" lon="0.9833">
        <ele>158.60000610352</ele>
        <time>2014-11-09T10:01:59.000Z</time>
      </trkpt>
      <trkpt lat="48.72507" lon="0.98329">
        <ele>158.39999389648</ele>
        <time>2014-11-09T10:02:23.000Z</time>
      </trkpt>
      <trkpt lat="48.72505" lon="0.98328">
        <ele>158.39999389648</ele>
        <time>2014-11-09T10:02:30.000Z</time>
      </trkpt>
      <trkpt lat="48.72504" lon="0.98327">
        <ele>158.60000610352</ele>
        <time>2014-11-09T10:02:31.000Z</time>
      </trkpt>
      <trkpt lat="48.72498" lon="0.9833">
        <ele>159.19999694824</ele>
        <time>2014-11-09T10:02:35.000Z</time>
      </trkpt>
      <trkpt lat="48.72495" lon="0.98334">
        <ele>159.60000610352</ele>
        <time>2014-11-09T10:02:37.000Z</time>
      </trkpt>
      <trkpt lat="48.72487" lon="0.98337">
        <ele>160.39999389648</ele>
        <time>2014-11-09T10:02:41.000Z</time>
      </trkpt>
      <trkpt lat="48.72474" lon="0.98343">
        <ele>161.80000305176</ele>
        <time>2014-11-09T10:02:49.000Z</time>
      </trkpt>
      <trkpt lat="48.72437" lon="0.98364">
        <ele>166</ele>
        <time>2014-11-09T10:03:03.000Z</time>
      </trkpt>
      <trkpt lat="48.72433" lon="0.98368">
        <ele>166.39999389648</ele>
        <time>2014-11-09T10:03:05.000Z</time>
      </trkpt>
      <trkpt lat="48.72408" lon="0.98381">
        <ele>167.39999389648</ele>
        <time>2014-11-09T10:03:17.000Z</time>
      </trkpt>
      <trkpt lat="48.72374" lon="0.98399">
        <ele>168.39999389648</ele>
        <time>2014-11-09T10:03:31.000Z</time>
      </trkpt>
      <trkpt lat="48.72357" lon="0.98412">
        <ele>169.39999389648</ele>
        <time>2014-11-09T10:03:43.000Z</time>
      </trkpt>
      <trkpt lat="48.72332" lon="0.98424">
        <ele>169.80000305176</ele>
        <time>2014-11-09T10:03:56.000Z</time>
      </trkpt>
      <trkpt lat="48.72296" lon="0.98445">
        <ele>169.80000305176</ele>
        <time>2014-11-09T10:04:11.000Z</time>
      </trkpt>
      <trkpt lat="48.72253" lon="0.98468">
        <ele>168.60000610352</ele>
        <time>2014-11-09T10:04:23.000Z</time>
      </trkpt>
      <trkpt lat="48.72213" lon="0.98491">
        <ele>166.19999694824</ele>
        <time>2014-11-09T10:04:33.000Z</time>
      </trkpt>
      <trkpt lat="48.72161" lon="0.98521">
        <ele>166.39999389648</ele>
        <time>2014-11-09T10:04:45.000Z</time>
      </trkpt>
      <trkpt lat="48.72133" lon="0.98537">
        <ele>166.39999389648</ele>
        <time>2014-11-09T10:04:52.000Z</time>
      </trkpt>
      <trkpt lat="48.72122" lon="0.98545">
        <ele>166.19999694824</ele>
        <time>2014-11-09T10:04:55.000Z</time>
      </trkpt>
      <trkpt lat="48.72106" lon="0.98522">
        <ele>164.80000305176</ele>
        <time>2014-11-09T10:05:00.000Z</time>
      </trkpt>
      <trkpt lat="48.72074" lon="0.98436">
        <ele>162</ele>
        <time>2014-11-09T10:05:12.000Z</time>
      </trkpt>
      <trkpt lat="48.7204" lon="0.98357">
        <ele>162.19999694824</ele>
        <time>2014-11-09T10:05:27.000Z</time>
      </trkpt>
      <trkpt lat="48.72008" lon="0.98286">
        <ele>165</ele>
        <time>2014-11-09T10:05:42.000Z</time>
      </trkpt>
      <trkpt lat="48.71986" lon="0.98247">
        <ele>166.60000610352</ele>
        <time>2014-11-09T10:05:52.000Z</time>
      </trkpt>
      <trkpt lat="48.71977" lon="0.98229">
        <ele>167.19999694824</ele>
        <time>2014-11-09T10:05:56.000Z</time>
      </trkpt>
      <trkpt lat="48.71962" lon="0.98211">
        <ele>166.80000305176</ele>
        <time>2014-11-09T10:06:00.000Z</time>
      </trkpt>
      <trkpt lat="48.71902" lon="0.98164">
        <ele>164.39999389648</ele>
        <time>2014-11-09T10:06:14.000Z</time>
      </trkpt>
      <trkpt lat="48.71893" lon="0.98153">
        <ele>164</ele>
        <time>2014-11-09T10:06:16.000Z</time>
      </trkpt>
      <trkpt lat="48.71875" lon="0.9814">
        <ele>163.19999694824</ele>
        <time>2014-11-09T10:06:20.000Z</time>
      </trkpt>
      <trkpt lat="48.71852" lon="0.98122">
        <ele>163</ele>
        <time>2014-11-09T10:06:25.000Z</time>
      </trkpt>
      <trkpt lat="48.71831" lon="0.98108">
        <ele>163</ele>
        <time>2014-11-09T10:06:29.000Z</time>
      </trkpt>
      <trkpt lat="48.71807" lon="0.98077">
        <ele>163</ele>
        <time>2014-11-09T10:06:34.000Z</time>
      </trkpt>
      <trkpt lat="48.71799" lon="0.98062">
        <ele>163</ele>
        <time>2014-11-09T10:06:36.000Z</time>
      </trkpt>
      <trkpt lat="48.7177" lon="0.98029">
        <ele>161.19999694824</ele>
        <time>2014-11-09T10:06:41.000Z</time>
      </trkpt>
      <trkpt lat="48.71762" lon="0.98026">
        <ele>161</ele>
        <time>2014-11-09T10:06:42.000Z</time>
      </trkpt>
      <trkpt lat="48.71756" lon="0.98025">
        <ele>160.80000305176</ele>
        <time>2014-11-09T10:06:43.000Z</time>
      </trkpt>
      <trkpt lat="48.71735" lon="0.98019">
        <ele>160.19999694824</ele>
        <time>2014-11-09T10:06:46.000Z</time>
      </trkpt>
      <trkpt lat="48.71723" lon="0.98013">
        <ele>159.80000305176</ele>
        <time>2014-11-09T10:06:48.000Z</time>
      </trkpt>
      <trkpt lat="48.71717" lon="0.98012">
        <ele>159.60000610352</ele>
        <time>2014-11-09T10:06:49.000Z</time>
      </trkpt>
      <trkpt lat="48.71711" lon="0.98009">
        <ele>159.39999389648</ele>
        <time>2014-11-09T10:06:50.000Z</time>
      </trkpt>
      <trkpt lat="48.71706" lon="0.98005">
        <ele>159</ele>
        <time>2014-11-09T10:06:51.000Z</time>
      </trkpt>
      <trkpt lat="48.71701" lon="0.98">
        <ele>158.60000610352</ele>
        <time>2014-11-09T10:06:52.000Z</time>
      </trkpt>
      <trkpt lat="48.71696" lon="0.97995">
        <ele>158.39999389648</ele>
        <time>2014-11-09T10:06:53.000Z</time>
      </trkpt>
      <trkpt lat="48.71691" lon="0.97989">
        <ele>158</ele>
        <time>2014-11-09T10:06:54.000Z</time>
      </trkpt>
      <trkpt lat="48.71687" lon="0.97982">
        <ele>157.39999389648</ele>
        <time>2014-11-09T10:06:55.000Z</time>
      </trkpt>
      <trkpt lat="48.71672" lon="0.97951">
        <ele>156.60000610352</ele>
        <time>2014-11-09T10:06:59.000Z</time>
      </trkpt>
      <trkpt lat="48.71669" lon="0.97942">
        <ele>156.39999389648</ele>
        <time>2014-11-09T10:07:00.000Z</time>
      </trkpt>
      <trkpt lat="48.71667" lon="0.97934">
        <ele>156.19999694824</ele>
        <time>2014-11-09T10:07:01.000Z</time>
      </trkpt>
      <trkpt lat="48.71666" lon="0.97924">
        <ele>156</ele>
        <time>2014-11-09T10:07:02.000Z</time>
      </trkpt>
      <trkpt lat="48.71664" lon="0.97916">
        <ele>155.60000610352</ele>
        <time>2014-11-09T10:07:03.000Z</time>
      </trkpt>
      <trkpt lat="48.7165" lon="0.9786">
        <ele>155.80000305176</ele>
        <time>2014-11-09T10:07:12.000Z</time>
      </trkpt>
      <trkpt lat="48.71599" lon="0.97767">
        <ele>158.60000610352</ele>
        <time>2014-11-09T10:07:29.000Z</time>
      </trkpt>
      <trkpt lat="48.71563" lon="0.97708">
        <ele>159.80000305176</ele>
        <time>2014-11-09T10:07:43.000Z</time>
      </trkpt>
      <trkpt lat="48.71542" lon="0.97645">
        <ele>161</ele>
        <time>2014-11-09T10:07:57.000Z</time>
      </trkpt>
      <trkpt lat="48.71516" lon="0.97587">
        <ele>162.60000610352</ele>
        <time>2014-11-09T10:08:12.000Z</time>
      </trkpt>
      <trkpt lat="48.71515" lon="0.97582">
        <ele>162.80000305176</ele>
        <time>2014-11-09T10:08:13.000Z</time>
      </trkpt>
      <trkpt lat="48.71517" lon="0.97577">
        <ele>162.80000305176</ele>
        <time>2014-11-09T10:08:14.000Z</time>
      </trkpt>
      <trkpt lat="48.7152" lon="0.97574">
        <ele>162.80000305176</ele>
        <time>2014-11-09T10:08:15.000Z</time>
      </trkpt>
      <trkpt lat="48.71523" lon="0.9757">
        <ele>162.80000305176</ele>
        <time>2014-11-09T10:08:16.000Z</time>
      </trkpt>
      <trkpt lat="48.71528" lon="0.97566">
        <ele>162.60000610352</ele>
        <time>2014-11-09T10:08:17.000Z</time>
      </trkpt>
      <trkpt lat="48.71539" lon="0.97555">
        <ele>161.39999389648</ele>
        <time>2014-11-09T10:08:19.000Z</time>
      </trkpt>
      <trkpt lat="48.71567" lon="0.97519">
        <ele>158.19999694824</ele>
        <time>2014-11-09T10:08:23.000Z</time>
      </trkpt>
      <trkpt lat="48.71576" lon="0.97511">
        <ele>157.19999694824</ele>
        <time>2014-11-09T10:08:24.000Z</time>
      </trkpt>
      <trkpt lat="48.71586" lon="0.97506">
        <ele>156.19999694824</ele>
        <time>2014-11-09T10:08:25.000Z</time>
      </trkpt>
      <trkpt lat="48.71596" lon="0.97502">
        <ele>155.39999389648</ele>
        <time>2014-11-09T10:08:26.000Z</time>
      </trkpt>
      <trkpt lat="48.71605" lon="0.97498">
        <ele>154.60000610352</ele>
        <time>2014-11-09T10:08:27.000Z</time>
      </trkpt>
      <trkpt lat="48.71697" lon="0.97458">
        <ele>153.80000305176</ele>
        <time>2014-11-09T10:08:39.000Z</time>
      </trkpt>
      <trkpt lat="48.7171" lon="0.97449">
        <ele>153.80000305176</ele>
        <time>2014-11-09T10:08:41.000Z</time>
      </trkpt>
      <trkpt lat="48.71748" lon="0.97387">
        <ele>152.39999389648</ele>
        <time>2014-11-09T10:08:51.000Z</time>
      </trkpt>
      <trkpt lat="48.71741" lon="0.97382">
        <ele>152.60000610352</ele>
        <time>2014-11-09T10:08:53.000Z</time>
      </trkpt>
      <trkpt lat="48.71735" lon="0.97377">
        <ele>152.60000610352</ele>
        <time>2014-11-09T10:08:55.000Z</time>
      </trkpt>
      <trkpt lat="48.71724" lon="0.97366">
        <ele>152.80000305176</ele>
        <time>2014-11-09T10:08:58.000Z</time>
      </trkpt>
      <trkpt lat="48.71688" lon="0.97282">
        <ele>152.60000610352</ele>
        <time>2014-11-09T10:09:13.000Z</time>
      </trkpt>
      <trkpt lat="48.71687" lon="0.97276">
        <ele>152.60000610352</ele>
        <time>2014-11-09T10:09:14.000Z</time>
      </trkpt>
      <trkpt lat="48.71688" lon="0.97234">
        <ele>152</ele>
        <time>2014-11-09T10:09:23.000Z</time>
      </trkpt>
      <trkpt lat="48.71664" lon="0.97183">
        <ele>152.39999389648</ele>
        <time>2014-11-09T10:09:35.000Z</time>
      </trkpt>
      <trkpt lat="48.71633" lon="0.97102">
        <ele>153.19999694824</ele>
        <time>2014-11-09T10:09:52.000Z</time>
      </trkpt>
      <trkpt lat="48.71609" lon="0.97044">
        <ele>154.19999694824</ele>
        <time>2014-11-09T10:10:08.000Z</time>
      </trkpt>
      <trkpt lat="48.71609" lon="0.97041">
        <ele>154.39999389648</ele>
        <time>2014-11-09T10:10:09.000Z</time>
      </trkpt>
      <trkpt lat="48.7161" lon="0.97039">
        <ele>154.39999389648</ele>
        <time>2014-11-09T10:10:10.000Z</time>
      </trkpt>
      <trkpt lat="48.71611" lon="0.97039">
        <ele>154.60000610352</ele>
        <time>2014-11-09T10:10:11.000Z</time>
      </trkpt>
      <trkpt lat="48.71612" lon="0.9704">
        <ele>154.80000305176</ele>
        <time>2014-11-09T10:10:12.000Z</time>
      </trkpt>
      <trkpt lat="48.71613" lon="0.97041">
        <ele>154.80000305176</ele>
        <time>2014-11-09T10:10:13.000Z</time>
      </trkpt>
      <trkpt lat="48.71615" lon="0.97042">
        <ele>154.80000305176</ele>
        <time>2014-11-09T10:10:14.000Z</time>
      </trkpt>
      <trkpt lat="48.71621" lon="0.97046">
        <ele>155.19999694824</ele>
        <time>2014-11-09T10:10:18.000Z</time>
      </trkpt>
      <trkpt lat="48.71622" lon="0.97046">
        <ele>155.39999389648</ele>
        <time>2014-11-09T10:10:19.000Z</time>
      </trkpt>
      <trkpt lat="48.71623" lon="0.97046">
        <ele>155.39999389648</ele>
        <time>2014-11-09T10:10:20.000Z</time>
      </trkpt>
      <trkpt lat="48.71625" lon="0.97047">
        <ele>155.60000610352</ele>
        <time>2014-11-09T10:10:21.000Z</time>
      </trkpt>
      <trkpt lat="48.71626" lon="0.97047">
        <ele>155.60000610352</ele>
        <time>2014-11-09T10:10:22.000Z</time>
      </trkpt>
      <trkpt lat="48.71628" lon="0.97048">
        <ele>155.80000305176</ele>
        <time>2014-11-09T10:10:23.000Z</time>
      </trkpt>
      <trkpt lat="48.71629" lon="0.97048">
        <ele>155.80000305176</ele>
        <time>2014-11-09T10:10:24.000Z</time>
      </trkpt>
      <trkpt lat="48.71631" lon="0.97049">
        <ele>156</ele>
        <time>2014-11-09T10:10:25.000Z</time>
      </trkpt>
      <trkpt lat="48.71632" lon="0.97049">
        <ele>156.19999694824</ele>
        <time>2014-11-09T10:10:26.000Z</time>
      </trkpt>
      <trkpt lat="48.71659" lon="0.97049">
        <ele>158.80000305176</ele>
        <time>2014-11-09T10:10:41.000Z</time>
      </trkpt>
      <trkpt lat="48.71673" lon="0.97052">
        <ele>160</ele>
        <time>2014-11-09T10:10:49.000Z</time>
      </trkpt>
      <trkpt lat="48.71674" lon="0.9705">
        <ele>160.19999694824</ele>
        <time>2014-11-09T10:10:50.000Z</time>
      </trkpt>
      <trkpt lat="48.71674" lon="0.97047">
        <ele>160.19999694824</ele>
        <time>2014-11-09T10:10:51.000Z</time>
      </trkpt>
      <trkpt lat="48.71674" lon="0.97045">
        <ele>160.39999389648</ele>
        <time>2014-11-09T10:10:52.000Z</time>
      </trkpt>
      <trkpt lat="48.71673" lon="0.97042">
        <ele>160.39999389648</ele>
        <time>2014-11-09T10:10:53.000Z</time>
      </trkpt>
      <trkpt lat="48.71663" lon="0.97005">
        <ele>161.19999694824</ele>
        <time>2014-11-09T10:11:04.000Z</time>
      </trkpt>
      <trkpt lat="48.7165" lon="0.96938">
        <ele>161.39999389648</ele>
        <time>2014-11-09T10:11:16.000Z</time>
      </trkpt>
      <trkpt lat="48.71647" lon="0.96913">
        <ele>160.60000610352</ele>
        <time>2014-11-09T10:11:20.000Z</time>
      </trkpt>
      <trkpt lat="48.71646" lon="0.9688">
        <ele>160</ele>
        <time>2014-11-09T10:11:25.000Z</time>
      </trkpt>
      <trkpt lat="48.71646" lon="0.96844">
        <ele>160.19999694824</ele>
        <time>2014-11-09T10:11:30.000Z</time>
      </trkpt>
      <trkpt lat="48.71646" lon="0.96838">
        <ele>160.19999694824</ele>
        <time>2014-11-09T10:11:31.000Z</time>
      </trkpt>
      <trkpt lat="48.71646" lon="0.96831">
        <ele>160.19999694824</ele>
        <time>2014-11-09T10:11:32.000Z</time>
      </trkpt>
      <trkpt lat="48.71641" lon="0.96775">
        <ele>161.39999389648</ele>
        <time>2014-11-09T10:11:40.000Z</time>
      </trkpt>
      <trkpt lat="48.7164" lon="0.96762">
        <ele>161.60000610352</ele>
        <time>2014-11-09T10:11:42.000Z</time>
      </trkpt>
      <trkpt lat="48.71629" lon="0.96725">
        <ele>161.60000610352</ele>
        <time>2014-11-09T10:11:49.000Z</time>
      </trkpt>
      <trkpt lat="48.71629" lon="0.96717">
        <ele>161.80000305176</ele>
        <time>2014-11-09T10:11:50.000Z</time>
      </trkpt>
      <trkpt lat="48.71629" lon="0.96709">
        <ele>162.19999694824</ele>
        <time>2014-11-09T10:11:51.000Z</time>
      </trkpt>
      <trkpt lat="48.7163" lon="0.96701">
        <ele>162.60000610352</ele>
        <time>2014-11-09T10:11:52.000Z</time>
      </trkpt>
      <trkpt lat="48.71629" lon="0.96694">
        <ele>163</ele>
        <time>2014-11-09T10:11:53.000Z</time>
      </trkpt>
      <trkpt lat="48.71629" lon="0.96686">
        <ele>163.39999389648</ele>
        <time>2014-11-09T10:11:54.000Z</time>
      </trkpt>
      <trkpt lat="48.7162" lon="0.9657">
        <ele>165.39999389648</ele>
        <time>2014-11-09T10:12:08.000Z</time>
      </trkpt>
      <trkpt lat="48.71616" lon="0.96543">
        <ele>164.60000610352</ele>
        <time>2014-11-09T10:12:11.000Z</time>
      </trkpt>
      <trkpt lat="48.71612" lon="0.96525">
        <ele>163.19999694824</ele>
        <time>2014-11-09T10:12:13.000Z</time>
      </trkpt>
      <trkpt lat="48.71606" lon="0.96506">
        <ele>161.80000305176</ele>
        <time>2014-11-09T10:12:15.000Z</time>
      </trkpt>
      <trkpt lat="48.71588" lon="0.96456">
        <ele>159.80000305176</ele>
        <time>2014-11-09T10:12:20.000Z</time>
      </trkpt>
      <trkpt lat="48.71555" lon="0.96445">
        <ele>159</ele>
        <time>2014-11-09T10:12:26.000Z</time>
      </trkpt>
      <trkpt lat="48.71549" lon="0.96451">
        <ele>158.60000610352</ele>
        <time>2014-11-09T10:12:27.000Z</time>
      </trkpt>
      <trkpt lat="48.71473" lon="0.9654">
        <ele>159.60000610352</ele>
        <time>2014-11-09T10:12:42.000Z</time>
      </trkpt>
      <trkpt lat="48.71469" lon="0.96545">
        <ele>160</ele>
        <time>2014-11-09T10:12:43.000Z</time>
      </trkpt>
      <trkpt lat="48.71451" lon="0.96555">
        <ele>161.80000305176</ele>
        <time>2014-11-09T10:12:47.000Z</time>
      </trkpt>
      <trkpt lat="48.71429" lon="0.96534">
        <ele>163</ele>
        <time>2014-11-09T10:12:54.000Z</time>
      </trkpt>
      <trkpt lat="48.71425" lon="0.96519">
        <ele>162.80000305176</ele>
        <time>2014-11-09T10:12:57.000Z</time>
      </trkpt>
      <trkpt lat="48.71422" lon="0.96506">
        <ele>162.60000610352</ele>
        <time>2014-11-09T10:13:00.000Z</time>
      </trkpt>
      <trkpt lat="48.71415" lon="0.96485">
        <ele>162.60000610352</ele>
        <time>2014-11-09T10:13:05.000Z</time>
      </trkpt>
      <trkpt lat="48.71397" lon="0.96417">
        <ele>161.80000305176</ele>
        <time>2014-11-09T10:13:20.000Z</time>
      </trkpt>
      <trkpt lat="48.71396" lon="0.96414">
        <ele>161.80000305176</ele>
        <time>2014-11-09T10:13:21.000Z</time>
      </trkpt>
      <trkpt lat="48.7139" lon="0.9639">
        <ele>161.80000305176</ele>
        <time>2014-11-09T10:13:29.000Z</time>
      </trkpt>
      <trkpt lat="48.71369" lon="0.96322">
        <ele>163.19999694824</ele>
        <time>2014-11-09T10:13:46.000Z</time>
      </trkpt>
      <trkpt lat="48.71355" lon="0.96245">
        <ele>164.60000610352</ele>
        <time>2014-11-09T10:14:00.000Z</time>
      </trkpt>
      <trkpt lat="48.71351" lon="0.96227">
        <ele>165</ele>
        <time>2014-11-09T10:14:03.000Z</time>
      </trkpt>
      <trkpt lat="48.71344" lon="0.96204">
        <ele>164.80000305176</ele>
        <time>2014-11-09T10:14:07.000Z</time>
      </trkpt>
      <trkpt lat="48.71327" lon="0.96165">
        <ele>164.60000610352</ele>
        <time>2014-11-09T10:14:13.000Z</time>
      </trkpt>
      <trkpt lat="48.71282" lon="0.96048">
        <ele>163.39999389648</ele>
        <time>2014-11-09T10:14:27.000Z</time>
      </trkpt>
      <trkpt lat="48.7124" lon="0.95951">
        <ele>161.39999389648</ele>
        <time>2014-11-09T10:14:39.000Z</time>
      </trkpt>
      <trkpt lat="48.71238" lon="0.95911">
        <ele>160.19999694824</ele>
        <time>2014-11-09T10:14:45.000Z</time>
      </trkpt>
      <trkpt lat="48.71244" lon="0.95876">
        <ele>159</ele>
        <time>2014-11-09T10:14:50.000Z</time>
      </trkpt>
      <trkpt lat="48.71243" lon="0.95862">
        <ele>159</ele>
        <time>2014-11-09T10:14:52.000Z</time>
      </trkpt>
      <trkpt lat="48.71223" lon="0.9576">
        <ele>161.80000305176</ele>
        <time>2014-11-09T10:15:09.000Z</time>
      </trkpt>
      <trkpt lat="48.71203" lon="0.95702">
        <ele>163</ele>
        <time>2014-11-09T10:15:24.000Z</time>
      </trkpt>
      <trkpt lat="48.71184" lon="0.95672">
        <ele>163</ele>
        <time>2014-11-09T10:15:35.000Z</time>
      </trkpt>
      <trkpt lat="48.71165" lon="0.9564">
        <ele>163.39999389648</ele>
        <time>2014-11-09T10:15:46.000Z</time>
      </trkpt>
      <trkpt lat="48.71144" lon="0.9559">
        <ele>161.60000610352</ele>
        <time>2014-11-09T10:16:00.000Z</time>
      </trkpt>
      <trkpt lat="48.7113" lon="0.9555">
        <ele>161.60000610352</ele>
        <time>2014-11-09T10:16:12.000Z</time>
      </trkpt>
      <trkpt lat="48.71128" lon="0.95507">
        <ele>162</ele>
        <time>2014-11-09T10:16:26.000Z</time>
      </trkpt>
      <trkpt lat="48.71134" lon="0.95473">
        <ele>163.60000610352</ele>
        <time>2014-11-09T10:16:39.000Z</time>
      </trkpt>
      <trkpt lat="48.7114" lon="0.95432">
        <ele>166.19999694824</ele>
        <time>2014-11-09T10:16:53.000Z</time>
      </trkpt>
      <trkpt lat="48.71144" lon="0.95398">
        <ele>167.19999694824</ele>
        <time>2014-11-09T10:17:05.000Z</time>
      </trkpt>
      <trkpt lat="48.7115" lon="0.95361">
        <ele>169.19999694824</ele>
        <time>2014-11-09T10:17:20.000Z</time>
      </trkpt>
      <trkpt lat="48.7116" lon="0.95318">
        <ele>170.80000305176</ele>
        <time>2014-11-09T10:17:36.000Z</time>
      </trkpt>
      <trkpt lat="48.71173" lon="0.9527">
        <ele>172.80000305176</ele>
        <time>2014-11-09T10:17:54.000Z</time>
      </trkpt>
      <trkpt lat="48.71187" lon="0.9521">
        <ele>175.19999694824</ele>
        <time>2014-11-09T10:18:13.000Z</time>
      </trkpt>
      <trkpt lat="48.71193" lon="0.95137">
        <ele>176</ele>
        <time>2014-11-09T10:18:29.000Z</time>
      </trkpt>
      <trkpt lat="48.71192" lon="0.95051">
        <ele>176.19999694824</ele>
        <time>2014-11-09T10:18:45.000Z</time>
      </trkpt>
      <trkpt lat="48.71183" lon="0.94978">
        <ele>177.80000305176</ele>
        <time>2014-11-09T10:18:59.000Z</time>
      </trkpt>
      <trkpt lat="48.71168" lon="0.94898">
        <ele>178.39999389648</ele>
        <time>2014-11-09T10:19:13.000Z</time>
      </trkpt>
      <trkpt lat="48.71156" lon="0.94839">
        <ele>177</ele>
        <time>2014-11-09T10:19:23.000Z</time>
      </trkpt>
      <trkpt lat="48.71148" lon="0.94785">
        <ele>175.60000610352</ele>
        <time>2014-11-09T10:19:35.000Z</time>
      </trkpt>
      <trkpt lat="48.71135" lon="0.94726">
        <ele>173.80000305176</ele>
        <time>2014-11-09T10:19:47.000Z</time>
      </trkpt>
      <trkpt lat="48.71119" lon="0.94667">
        <ele>174</ele>
        <time>2014-11-09T10:20:02.000Z</time>
      </trkpt>
      <trkpt lat="48.71114" lon="0.94612">
        <ele>175.80000305176</ele>
        <time>2014-11-09T10:20:16.000Z</time>
      </trkpt>
      <trkpt lat="48.71113" lon="0.94595">
        <ele>176.60000610352</ele>
        <time>2014-11-09T10:20:20.000Z</time>
      </trkpt>
      <trkpt lat="48.71108" lon="0.94539">
        <ele>178.60000610352</ele>
        <time>2014-11-09T10:20:32.000Z</time>
      </trkpt>
      <trkpt lat="48.71105" lon="0.94523">
        <ele>179</ele>
        <time>2014-11-09T10:20:36.000Z</time>
      </trkpt>
      <trkpt lat="48.71103" lon="0.94504">
        <ele>179.19999694824</ele>
        <time>2014-11-09T10:20:40.000Z</time>
      </trkpt>
      <trkpt lat="48.71089" lon="0.94431">
        <ele>179.60000610352</ele>
        <time>2014-11-09T10:20:54.000Z</time>
      </trkpt>
      <trkpt lat="48.71078" lon="0.94379">
        <ele>179.60000610352</ele>
        <time>2014-11-09T10:21:03.000Z</time>
      </trkpt>
      <trkpt lat="48.71063" lon="0.94325">
        <ele>179</ele>
        <time>2014-11-09T10:21:13.000Z</time>
      </trkpt>
      <trkpt lat="48.71061" lon="0.94318">
        <ele>179</ele>
        <time>2014-11-09T10:21:14.000Z</time>
      </trkpt>
      <trkpt lat="48.71037" lon="0.9425">
        <ele>179.19999694824</ele>
        <time>2014-11-09T10:21:26.000Z</time>
      </trkpt>
      <trkpt lat="48.71009" lon="0.94195">
        <ele>178.60000610352</ele>
        <time>2014-11-09T10:21:37.000Z</time>
      </trkpt>
      <trkpt lat="48.7098" lon="0.94136">
        <ele>177.60000610352</ele>
        <time>2014-11-09T10:21:49.000Z</time>
      </trkpt>
      <trkpt lat="48.70968" lon="0.94107">
        <ele>176.39999389648</ele>
        <time>2014-11-09T10:21:54.000Z</time>
      </trkpt>
      <trkpt lat="48.70953" lon="0.94067">
        <ele>175.19999694824</ele>
        <time>2014-11-09T10:22:00.000Z</time>
      </trkpt>
      <trkpt lat="48.70946" lon="0.94055">
        <ele>174.60000610352</ele>
        <time>2014-11-09T10:22:02.000Z</time>
      </trkpt>
      <trkpt lat="48.70926" lon="0.9403">
        <ele>173.60000610352</ele>
        <time>2014-11-09T10:22:07.000Z</time>
      </trkpt>
      <trkpt lat="48.70919" lon="0.93991">
        <ele>173</ele>
        <time>2014-11-09T10:22:14.000Z</time>
      </trkpt>
      <trkpt lat="48.71004" lon="0.93972">
        <ele>174.60000610352</ele>
        <time>2014-11-09T10:22:29.000Z</time>
      </trkpt>
      <trkpt lat="48.71091" lon="0.93983">
        <ele>175.60000610352</ele>
        <time>2014-11-09T10:22:42.000Z</time>
      </trkpt>
      <trkpt lat="48.71098" lon="0.93985">
        <ele>175.80000305176</ele>
        <time>2014-11-09T10:22:43.000Z</time>
      </trkpt>
      <trkpt lat="48.71118" lon="0.93991">
        <ele>175</ele>
        <time>2014-11-09T10:22:46.000Z</time>
      </trkpt>
      <trkpt lat="48.71208" lon="0.94027">
        <ele>170.39999389648</ele>
        <time>2014-11-09T10:23:00.000Z</time>
      </trkpt>
      <trkpt lat="48.71287" lon="0.94045">
        <ele>166.60000610352</ele>
        <time>2014-11-09T10:23:13.000Z</time>
      </trkpt>
      <trkpt lat="48.71303" lon="0.94046">
        <ele>166.60000610352</ele>
        <time>2014-11-09T10:23:16.000Z</time>
      </trkpt>
      <trkpt lat="48.71346" lon="0.94051">
        <ele>166.80000305176</ele>
        <time>2014-11-09T10:23:28.000Z</time>
      </trkpt>
      <trkpt lat="48.71368" lon="0.94053">
        <ele>168.19999694824</ele>
        <time>2014-11-09T10:23:41.000Z</time>
      </trkpt>
      <trkpt lat="48.71377" lon="0.94052">
        <ele>169</ele>
        <time>2014-11-09T10:23:46.000Z</time>
      </trkpt>
      <trkpt lat="48.714" lon="0.9405">
        <ele>171.19999694824</ele>
        <time>2014-11-09T10:24:01.000Z</time>
      </trkpt>
      <trkpt lat="48.71407" lon="0.94048">
        <ele>172</ele>
        <time>2014-11-09T10:24:06.000Z</time>
      </trkpt>
      <trkpt lat="48.71414" lon="0.94045">
        <ele>172.39999389648</ele>
        <time>2014-11-09T10:24:10.000Z</time>
      </trkpt>
      <trkpt lat="48.71426" lon="0.94039">
        <ele>173.39999389648</ele>
        <time>2014-11-09T10:24:18.000Z</time>
      </trkpt>
      <trkpt lat="48.71449" lon="0.94028">
        <ele>174.19999694824</ele>
        <time>2014-11-09T10:24:32.000Z</time>
      </trkpt>
      <trkpt lat="48.71474" lon="0.94016">
        <ele>174.39999389648</ele>
        <time>2014-11-09T10:24:46.000Z</time>
      </trkpt>
      <trkpt lat="48.715" lon="0.94006">
        <ele>175</ele>
        <time>2014-11-09T10:24:59.000Z</time>
      </trkpt>
      <trkpt lat="48.7154" lon="0.93991">
        <ele>175.39999389648</ele>
        <time>2014-11-09T10:25:14.000Z</time>
      </trkpt>
      <trkpt lat="48.71574" lon="0.93976">
        <ele>175.60000610352</ele>
        <time>2014-11-09T10:25:26.000Z</time>
      </trkpt>
      <trkpt lat="48.71613" lon="0.93959">
        <ele>175.80000305176</ele>
        <time>2014-11-09T10:25:39.000Z</time>
      </trkpt>
      <trkpt lat="48.71667" lon="0.93931">
        <ele>175.80000305176</ele>
        <time>2014-11-09T10:25:55.000Z</time>
      </trkpt>
      <trkpt lat="48.71693" lon="0.93915">
        <ele>175.60000610352</ele>
        <time>2014-11-09T10:26:03.000Z</time>
      </trkpt>
      <trkpt lat="48.71707" lon="0.9391">
        <ele>175.19999694824</ele>
        <time>2014-11-09T10:26:06.000Z</time>
      </trkpt>
      <trkpt lat="48.71711" lon="0.93909">
        <ele>175.19999694824</ele>
        <time>2014-11-09T10:26:07.000Z</time>
      </trkpt>
      <trkpt lat="48.71716" lon="0.93909">
        <ele>175.39999389648</ele>
        <time>2014-11-09T10:26:08.000Z</time>
      </trkpt>
      <trkpt lat="48.71722" lon="0.93909">
        <ele>175.39999389648</ele>
        <time>2014-11-09T10:26:09.000Z</time>
      </trkpt>
      <trkpt lat="48.71732" lon="0.93909">
        <ele>175.60000610352</ele>
        <time>2014-11-09T10:26:11.000Z</time>
      </trkpt>
      <trkpt lat="48.7179" lon="0.93886">
        <ele>175.80000305176</ele>
        <time>2014-11-09T10:26:23.000Z</time>
      </trkpt>
      <trkpt lat="48.71872" lon="0.93859">
        <ele>173.80000305176</ele>
        <time>2014-11-09T10:26:38.000Z</time>
      </trkpt>
      <trkpt lat="48.71883" lon="0.93856">
        <ele>173.39999389648</ele>
        <time>2014-11-09T10:26:40.000Z</time>
      </trkpt>
      <trkpt lat="48.71907" lon="0.9385">
        <ele>172.80000305176</ele>
        <time>2014-11-09T10:26:44.000Z</time>
      </trkpt>
      <trkpt lat="48.71912" lon="0.93846">
        <ele>172.80000305176</ele>
        <time>2014-11-09T10:26:45.000Z</time>
      </trkpt>
      <trkpt lat="48.71917" lon="0.93841">
        <ele>172.60000610352</ele>
        <time>2014-11-09T10:26:46.000Z</time>
      </trkpt>
      <trkpt lat="48.71921" lon="0.93835">
        <ele>172.60000610352</ele>
        <time>2014-11-09T10:26:47.000Z</time>
      </trkpt>
      <trkpt lat="48.71925" lon="0.93828">
        <ele>172.39999389648</ele>
        <time>2014-11-09T10:26:48.000Z</time>
      </trkpt>
      <trkpt lat="48.71928" lon="0.93819">
        <ele>172.19999694824</ele>
        <time>2014-11-09T10:26:49.000Z</time>
      </trkpt>
      <trkpt lat="48.71929" lon="0.9381">
        <ele>172.19999694824</ele>
        <time>2014-11-09T10:26:50.000Z</time>
      </trkpt>
      <trkpt lat="48.7193" lon="0.93802">
        <ele>172</ele>
        <time>2014-11-09T10:26:51.000Z</time>
      </trkpt>
      <trkpt lat="48.71931" lon="0.93793">
        <ele>172</ele>
        <time>2014-11-09T10:26:52.000Z</time>
      </trkpt>
      <trkpt lat="48.71935" lon="0.93768">
        <ele>172</ele>
        <time>2014-11-09T10:26:55.000Z</time>
      </trkpt>
      <trkpt lat="48.71938" lon="0.9376">
        <ele>172</ele>
        <time>2014-11-09T10:26:56.000Z</time>
      </trkpt>
      <trkpt lat="48.71941" lon="0.93754">
        <ele>172</ele>
        <time>2014-11-09T10:26:57.000Z</time>
      </trkpt>
      <trkpt lat="48.71945" lon="0.93748">
        <ele>172</ele>
        <time>2014-11-09T10:26:58.000Z</time>
      </trkpt>
      <trkpt lat="48.71949" lon="0.93742">
        <ele>172</ele>
        <time>2014-11-09T10:26:59.000Z</time>
      </trkpt>
      <trkpt lat="48.71954" lon="0.93737">
        <ele>172</ele>
        <time>2014-11-09T10:27:00.000Z</time>
      </trkpt>
      <trkpt lat="48.71966" lon="0.93723">
        <ele>171.60000610352</ele>
        <time>2014-11-09T10:27:03.000Z</time>
      </trkpt>
      <trkpt lat="48.7197" lon="0.93718">
        <ele>171.60000610352</ele>
        <time>2014-11-09T10:27:04.000Z</time>
      </trkpt>
      <trkpt lat="48.71973" lon="0.93713">
        <ele>171.60000610352</ele>
        <time>2014-11-09T10:27:05.000Z</time>
      </trkpt>
      <trkpt lat="48.71976" lon="0.93708">
        <ele>171.60000610352</ele>
        <time>2014-11-09T10:27:06.000Z</time>
      </trkpt>
      <trkpt lat="48.7198" lon="0.93703">
        <ele>171.39999389648</ele>
        <time>2014-11-09T10:27:07.000Z</time>
      </trkpt>
      <trkpt lat="48.71984" lon="0.93699">
        <ele>171.39999389648</ele>
        <time>2014-11-09T10:27:08.000Z</time>
      </trkpt>
      <trkpt lat="48.71988" lon="0.93694">
        <ele>171.39999389648</ele>
        <time>2014-11-09T10:27:09.000Z</time>
      </trkpt>
      <trkpt lat="48.71992" lon="0.9369">
        <ele>171.39999389648</ele>
        <time>2014-11-09T10:27:10.000Z</time>
      </trkpt>
      <trkpt lat="48.72073" lon="0.93605">
        <ele>172</ele>
        <time>2014-11-09T10:27:28.000Z</time>
      </trkpt>
      <trkpt lat="48.72142" lon="0.93544">
        <ele>172</ele>
        <time>2014-11-09T10:27:43.000Z</time>
      </trkpt>
      <trkpt lat="48.72189" lon="0.93507">
        <ele>171.60000610352</ele>
        <time>2014-11-09T10:27:52.000Z</time>
      </trkpt>
      <trkpt lat="48.72194" lon="0.93503">
        <ele>171.60000610352</ele>
        <time>2014-11-09T10:27:53.000Z</time>
      </trkpt>
      <trkpt lat="48.72203" lon="0.93495">
        <ele>171.80000305176</ele>
        <time>2014-11-09T10:27:55.000Z</time>
      </trkpt>
      <trkpt lat="48.72208" lon="0.93491">
        <ele>171.80000305176</ele>
        <time>2014-11-09T10:27:56.000Z</time>
      </trkpt>
      <trkpt lat="48.72216" lon="0.93485">
        <ele>171.60000610352</ele>
        <time>2014-11-09T10:27:58.000Z</time>
      </trkpt>
      <trkpt lat="48.72237" lon="0.93466">
        <ele>171.39999389648</ele>
        <time>2014-11-09T10:28:03.000Z</time>
      </trkpt>
      <trkpt lat="48.72257" lon="0.9345">
        <ele>171.19999694824</ele>
        <time>2014-11-09T10:28:08.000Z</time>
      </trkpt>
      <trkpt lat="48.7226" lon="0.93446">
        <ele>171.39999389648</ele>
        <time>2014-11-09T10:28:09.000Z</time>
      </trkpt>
      <trkpt lat="48.72264" lon="0.93442">
        <ele>171.39999389648</ele>
        <time>2014-11-09T10:28:10.000Z</time>
      </trkpt>
      <trkpt lat="48.72301" lon="0.93423">
        <ele>171.60000610352</ele>
        <time>2014-11-09T10:28:21.000Z</time>
      </trkpt>
      <trkpt lat="48.72317" lon="0.93415">
        <ele>171.39999389648</ele>
        <time>2014-11-09T10:28:26.000Z</time>
      </trkpt>
      <trkpt lat="48.72328" lon="0.93408">
        <ele>171.39999389648</ele>
        <time>2014-11-09T10:28:29.000Z</time>
      </trkpt>
      <trkpt lat="48.72332" lon="0.93405">
        <ele>171.19999694824</ele>
        <time>2014-11-09T10:28:30.000Z</time>
      </trkpt>
      <trkpt lat="48.7234" lon="0.93398">
        <ele>171.19999694824</ele>
        <time>2014-11-09T10:28:32.000Z</time>
      </trkpt>
      <trkpt lat="48.72378" lon="0.93368">
        <ele>170.19999694824</ele>
        <time>2014-11-09T10:28:43.000Z</time>
      </trkpt>
      <trkpt lat="48.72404" lon="0.93347">
        <ele>169.39999389648</ele>
        <time>2014-11-09T10:28:55.000Z</time>
      </trkpt>
      <trkpt lat="48.72455" lon="0.93295">
        <ele>169</ele>
        <time>2014-11-09T10:29:14.000Z</time>
      </trkpt>
      <trkpt lat="48.72496" lon="0.93249">
        <ele>169</ele>
        <time>2014-11-09T10:29:31.000Z</time>
      </trkpt>
      <trkpt lat="48.72547" lon="0.93202">
        <ele>167.60000610352</ele>
        <time>2014-11-09T10:29:49.000Z</time>
      </trkpt>
      <trkpt lat="48.7257" lon="0.93189">
        <ele>166.39999389648</ele>
        <time>2014-11-09T10:29:54.000Z</time>
      </trkpt>
      <trkpt lat="48.72634" lon="0.93182">
        <ele>165.39999389648</ele>
        <time>2014-11-09T10:30:06.000Z</time>
      </trkpt>
      <trkpt lat="48.72651" lon="0.93186">
        <ele>165.60000610352</ele>
        <time>2014-11-09T10:30:10.000Z</time>
      </trkpt>
      <trkpt lat="48.72712" lon="0.93193">
        <ele>166.19999694824</ele>
        <time>2014-11-09T10:30:25.000Z</time>
      </trkpt>
      <trkpt lat="48.72779" lon="0.93204">
        <ele>166.39999389648</ele>
        <time>2014-11-09T10:30:42.000Z</time>
      </trkpt>
      <trkpt lat="48.72839" lon="0.93207">
        <ele>167.19999694824</ele>
        <time>2014-11-09T10:31:00.000Z</time>
      </trkpt>
      <trkpt lat="48.72877" lon="0.93214">
        <ele>167.39999389648</ele>
        <time>2014-11-09T10:31:16.000Z</time>
      </trkpt>
      <trkpt lat="48.72913" lon="0.93213">
        <ele>166.80000305176</ele>
        <time>2014-11-09T10:31:29.000Z</time>
      </trkpt>
      <trkpt lat="48.72916" lon="0.93212">
        <ele>166.80000305176</ele>
        <time>2014-11-09T10:31:30.000Z</time>
      </trkpt>
      <trkpt lat="48.72918" lon="0.9321">
        <ele>166.80000305176</ele>
        <time>2014-11-09T10:31:31.000Z</time>
      </trkpt>
      <trkpt lat="48.72921" lon="0.93208">
        <ele>166.60000610352</ele>
        <time>2014-11-09T10:31:32.000Z</time>
      </trkpt>
      <trkpt lat="48.72931" lon="0.93198">
        <ele>166.19999694824</ele>
        <time>2014-11-09T10:31:35.000Z</time>
      </trkpt>
      <trkpt lat="48.72936" lon="0.93195">
        <ele>166</ele>
        <time>2014-11-09T10:31:36.000Z</time>
      </trkpt>
      <trkpt lat="48.72941" lon="0.93193">
        <ele>166</ele>
        <time>2014-11-09T10:31:37.000Z</time>
      </trkpt>
      <trkpt lat="48.72986" lon="0.93172">
        <ele>167.60000610352</ele>
        <time>2014-11-09T10:31:48.000Z</time>
      </trkpt>
      <trkpt lat="48.73013" lon="0.93156">
        <ele>169</ele>
        <time>2014-11-09T10:31:55.000Z</time>
      </trkpt>
      <trkpt lat="48.73017" lon="0.93155">
        <ele>169.19999694824</ele>
        <time>2014-11-09T10:31:56.000Z</time>
      </trkpt>
      <trkpt lat="48.73021" lon="0.93156">
        <ele>169.39999389648</ele>
        <time>2014-11-09T10:31:57.000Z</time>
      </trkpt>
      <trkpt lat="48.73025" lon="0.93159">
        <ele>169.39999389648</ele>
        <time>2014-11-09T10:31:58.000Z</time>
      </trkpt>
      <trkpt lat="48.73028" lon="0.93163">
        <ele>169.60000610352</ele>
        <time>2014-11-09T10:31:59.000Z</time>
      </trkpt>
      <trkpt lat="48.73031" lon="0.93166">
        <ele>169.60000610352</ele>
        <time>2014-11-09T10:32:00.000Z</time>
      </trkpt>
      <trkpt lat="48.73036" lon="0.93173">
        <ele>169.80000305176</ele>
        <time>2014-11-09T10:32:02.000Z</time>
      </trkpt>
      <trkpt lat="48.73038" lon="0.93178">
        <ele>169.80000305176</ele>
        <time>2014-11-09T10:32:03.000Z</time>
      </trkpt>
      <trkpt lat="48.7304" lon="0.93181">
        <ele>170</ele>
        <time>2014-11-09T10:32:04.000Z</time>
      </trkpt>
      <trkpt lat="48.73043" lon="0.93185">
        <ele>170</ele>
        <time>2014-11-09T10:32:05.000Z</time>
      </trkpt>
      <trkpt lat="48.73046" lon="0.93189">
        <ele>170.19999694824</ele>
        <time>2014-11-09T10:32:06.000Z</time>
      </trkpt>
      <trkpt lat="48.7305" lon="0.93193">
        <ele>170.19999694824</ele>
        <time>2014-11-09T10:32:07.000Z</time>
      </trkpt>
      <trkpt lat="48.73062" lon="0.93204">
        <ele>170.60000610352</ele>
        <time>2014-11-09T10:32:10.000Z</time>
      </trkpt>
      <trkpt lat="48.73067" lon="0.93208">
        <ele>170.60000610352</ele>
        <time>2014-11-09T10:32:11.000Z</time>
      </trkpt>
      <trkpt lat="48.73075" lon="0.93216">
        <ele>170.80000305176</ele>
        <time>2014-11-09T10:32:13.000Z</time>
      </trkpt>
      <trkpt lat="48.73079" lon="0.93221">
        <ele>171</ele>
        <time>2014-11-09T10:32:14.000Z</time>
      </trkpt>
      <trkpt lat="48.73082" lon="0.93227">
        <ele>171</ele>
        <time>2014-11-09T10:32:15.000Z</time>
      </trkpt>
      <trkpt lat="48.73084" lon="0.93232">
        <ele>170.80000305176</ele>
        <time>2014-11-09T10:32:16.000Z</time>
      </trkpt>
      <trkpt lat="48.73086" lon="0.93239">
        <ele>170.80000305176</ele>
        <time>2014-11-09T10:32:17.000Z</time>
      </trkpt>
      <trkpt lat="48.73087" lon="0.93246">
        <ele>170.80000305176</ele>
        <time>2014-11-09T10:32:18.000Z</time>
      </trkpt>
      <trkpt lat="48.73087" lon="0.93254">
        <ele>170.60000610352</ele>
        <time>2014-11-09T10:32:19.000Z</time>
      </trkpt>
      <trkpt lat="48.73087" lon="0.93262">
        <ele>170.60000610352</ele>
        <time>2014-11-09T10:32:20.000Z</time>
      </trkpt>
      <trkpt lat="48.73085" lon="0.93284">
        <ele>170.19999694824</ele>
        <time>2014-11-09T10:32:23.000Z</time>
      </trkpt>
      <trkpt lat="48.73085" lon="0.9329">
        <ele>170.19999694824</ele>
        <time>2014-11-09T10:32:24.000Z</time>
      </trkpt>
      <trkpt lat="48.73088" lon="0.93296">
        <ele>170.19999694824</ele>
        <time>2014-11-09T10:32:25.000Z</time>
      </trkpt>
      <trkpt lat="48.73091" lon="0.933">
        <ele>170.19999694824</ele>
        <time>2014-11-09T10:32:26.000Z</time>
      </trkpt>
      <trkpt lat="48.73095" lon="0.93303">
        <ele>170.19999694824</ele>
        <time>2014-11-09T10:32:27.000Z</time>
      </trkpt>
      <trkpt lat="48.731" lon="0.93307">
        <ele>170</ele>
        <time>2014-11-09T10:32:28.000Z</time>
      </trkpt>
      <trkpt lat="48.73109" lon="0.93313">
        <ele>169.60000610352</ele>
        <time>2014-11-09T10:32:30.000Z</time>
      </trkpt>
      <trkpt lat="48.73114" lon="0.93318">
        <ele>169.39999389648</ele>
        <time>2014-11-09T10:32:31.000Z</time>
      </trkpt>
      <trkpt lat="48.73118" lon="0.93323">
        <ele>169.19999694824</ele>
        <time>2014-11-09T10:32:32.000Z</time>
      </trkpt>
      <trkpt lat="48.73122" lon="0.93329">
        <ele>168.80000305176</ele>
        <time>2014-11-09T10:32:33.000Z</time>
      </trkpt>
      <trkpt lat="48.73125" lon="0.93337">
        <ele>168.60000610352</ele>
        <time>2014-11-09T10:32:34.000Z</time>
      </trkpt>
      <trkpt lat="48.73127" lon="0.93345">
        <ele>168.39999389648</ele>
        <time>2014-11-09T10:32:35.000Z</time>
      </trkpt>
      <trkpt lat="48.73129" lon="0.93353">
        <ele>168.19999694824</ele>
        <time>2014-11-09T10:32:36.000Z</time>
      </trkpt>
      <trkpt lat="48.73131" lon="0.93362">
        <ele>168</ele>
        <time>2014-11-09T10:32:37.000Z</time>
      </trkpt>
      <trkpt lat="48.73132" lon="0.9337">
        <ele>167.80000305176</ele>
        <time>2014-11-09T10:32:38.000Z</time>
      </trkpt>
      <trkpt lat="48.73133" lon="0.93379">
        <ele>167.80000305176</ele>
        <time>2014-11-09T10:32:39.000Z</time>
      </trkpt>
      <trkpt lat="48.73163" lon="0.93556">
        <ele>165.60000610352</ele>
        <time>2014-11-09T10:32:58.000Z</time>
      </trkpt>
      <trkpt lat="48.73178" lon="0.93693">
        <ele>164</ele>
        <time>2014-11-09T10:33:11.000Z</time>
      </trkpt>
      <trkpt lat="48.7318" lon="0.93699">
        <ele>164</ele>
        <time>2014-11-09T10:33:12.000Z</time>
      </trkpt>
      <trkpt lat="48.73184" lon="0.93703">
        <ele>163.80000305176</ele>
        <time>2014-11-09T10:33:13.000Z</time>
      </trkpt>
      <trkpt lat="48.73189" lon="0.93704">
        <ele>163.80000305176</ele>
        <time>2014-11-09T10:33:14.000Z</time>
      </trkpt>
      <trkpt lat="48.73195" lon="0.93704">
        <ele>163.60000610352</ele>
        <time>2014-11-09T10:33:15.000Z</time>
      </trkpt>
      <trkpt lat="48.73201" lon="0.93703">
        <ele>163.39999389648</ele>
        <time>2014-11-09T10:33:16.000Z</time>
      </trkpt>
      <trkpt lat="48.73207" lon="0.93701">
        <ele>163.19999694824</ele>
        <time>2014-11-09T10:33:17.000Z</time>
      </trkpt>
      <trkpt lat="48.73214" lon="0.93701">
        <ele>163</ele>
        <time>2014-11-09T10:33:18.000Z</time>
      </trkpt>
      <trkpt lat="48.73297" lon="0.93711">
        <ele>160.80000305176</ele>
        <time>2014-11-09T10:33:30.000Z</time>
      </trkpt>
      <trkpt lat="48.73304" lon="0.93714">
        <ele>160.80000305176</ele>
        <time>2014-11-09T10:33:31.000Z</time>
      </trkpt>
      <trkpt lat="48.73311" lon="0.93719">
        <ele>160.80000305176</ele>
        <time>2014-11-09T10:33:32.000Z</time>
      </trkpt>
      <trkpt lat="48.73316" lon="0.93724">
        <ele>161</ele>
        <time>2014-11-09T10:33:33.000Z</time>
      </trkpt>
      <trkpt lat="48.73321" lon="0.9373">
        <ele>160.80000305176</ele>
        <time>2014-11-09T10:33:34.000Z</time>
      </trkpt>
      <trkpt lat="48.73326" lon="0.93736">
        <ele>160.80000305176</ele>
        <time>2014-11-09T10:33:35.000Z</time>
      </trkpt>
      <trkpt lat="48.73329" lon="0.93741">
        <ele>160.80000305176</ele>
        <time>2014-11-09T10:33:36.000Z</time>
      </trkpt>
      <trkpt lat="48.73332" lon="0.93746">
        <ele>160.80000305176</ele>
        <time>2014-11-09T10:33:37.000Z</time>
      </trkpt>
      <trkpt lat="48.73336" lon="0.93748">
        <ele>160.80000305176</ele>
        <time>2014-11-09T10:33:38.000Z</time>
      </trkpt>
      <trkpt lat="48.73341" lon="0.93748">
        <ele>160.60000610352</ele>
        <time>2014-11-09T10:33:39.000Z</time>
      </trkpt>
      <trkpt lat="48.73346" lon="0.93748">
        <ele>160.39999389648</ele>
        <time>2014-11-09T10:33:40.000Z</time>
      </trkpt>
      <trkpt lat="48.73352" lon="0.93746">
        <ele>160.39999389648</ele>
        <time>2014-11-09T10:33:41.000Z</time>
      </trkpt>
      <trkpt lat="48.73375" lon="0.93737">
        <ele>159.60000610352</ele>
        <time>2014-11-09T10:33:45.000Z</time>
      </trkpt>
      <trkpt lat="48.73381" lon="0.93732">
        <ele>159.60000610352</ele>
        <time>2014-11-09T10:33:46.000Z</time>
      </trkpt>
      <trkpt lat="48.73386" lon="0.93725">
        <ele>159.60000610352</ele>
        <time>2014-11-09T10:33:47.000Z</time>
      </trkpt>
      <trkpt lat="48.7339" lon="0.93718">
        <ele>159.39999389648</ele>
        <time>2014-11-09T10:33:48.000Z</time>
      </trkpt>
      <trkpt lat="48.73394" lon="0.93709">
        <ele>159</ele>
        <time>2014-11-09T10:33:49.000Z</time>
      </trkpt>
      <trkpt lat="48.73397" lon="0.937">
        <ele>158.60000610352</ele>
        <time>2014-11-09T10:33:50.000Z</time>
      </trkpt>
      <trkpt lat="48.73399" lon="0.93691">
        <ele>158.19999694824</ele>
        <time>2014-11-09T10:33:51.000Z</time>
      </trkpt>
      <trkpt lat="48.73401" lon="0.93681">
        <ele>158</ele>
        <time>2014-11-09T10:33:52.000Z</time>
      </trkpt>
      <trkpt lat="48.73403" lon="0.93671">
        <ele>158</ele>
        <time>2014-11-09T10:33:53.000Z</time>
      </trkpt>
      <trkpt lat="48.73435" lon="0.93529">
        <ele>159.19999694824</ele>
        <time>2014-11-09T10:34:08.000Z</time>
      </trkpt>
      <trkpt lat="48.73458" lon="0.93493">
        <ele>159.80000305176</ele>
        <time>2014-11-09T10:34:14.000Z</time>
      </trkpt>
      <trkpt lat="48.73472" lon="0.93472">
        <ele>159.19999694824</ele>
        <time>2014-11-09T10:34:19.000Z</time>
      </trkpt>
      <trkpt lat="48.73477" lon="0.93466">
        <ele>159</ele>
        <time>2014-11-09T10:34:20.000Z</time>
      </trkpt>
      <trkpt lat="48.73481" lon="0.9346">
        <ele>158.80000305176</ele>
        <time>2014-11-09T10:34:21.000Z</time>
      </trkpt>
      <trkpt lat="48.73529" lon="0.93396">
        <ele>160</ele>
        <time>2014-11-09T10:34:32.000Z</time>
      </trkpt>
      <trkpt lat="48.73534" lon="0.93391">
        <ele>160</ele>
        <time>2014-11-09T10:34:33.000Z</time>
      </trkpt>
      <trkpt lat="48.73554" lon="0.93367">
        <ele>160</ele>
        <time>2014-11-09T10:34:38.000Z</time>
      </trkpt>
      <trkpt lat="48.73556" lon="0.93362">
        <ele>160</ele>
        <time>2014-11-09T10:34:39.000Z</time>
      </trkpt>
      <trkpt lat="48.73556" lon="0.93357">
        <ele>160</ele>
        <time>2014-11-09T10:34:40.000Z</time>
      </trkpt>
      <trkpt lat="48.73556" lon="0.93352">
        <ele>160</ele>
        <time>2014-11-09T10:34:41.000Z</time>
      </trkpt>
      <trkpt lat="48.73546" lon="0.93311">
        <ele>160.60000610352</ele>
        <time>2014-11-09T10:34:47.000Z</time>
      </trkpt>
      <trkpt lat="48.73543" lon="0.93283">
        <ele>160.19999694824</ele>
        <time>2014-11-09T10:34:51.000Z</time>
      </trkpt>
      <trkpt lat="48.73537" lon="0.93265">
        <ele>159.80000305176</ele>
        <time>2014-11-09T10:34:54.000Z</time>
      </trkpt>
      <trkpt lat="48.73531" lon="0.93253">
        <ele>159.60000610352</ele>
        <time>2014-11-09T10:34:56.000Z</time>
      </trkpt>
      <trkpt lat="48.73524" lon="0.9321">
        <ele>159.60000610352</ele>
        <time>2014-11-09T10:35:02.000Z</time>
      </trkpt>
      <trkpt lat="48.73532" lon="0.93168">
        <ele>161.39999389648</ele>
        <time>2014-11-09T10:35:08.000Z</time>
      </trkpt>
      <trkpt lat="48.73534" lon="0.93147">
        <ele>162</ele>
        <time>2014-11-09T10:35:11.000Z</time>
      </trkpt>
      <trkpt lat="48.73534" lon="0.93126">
        <ele>162.39999389648</ele>
        <time>2014-11-09T10:35:14.000Z</time>
      </trkpt>
      <trkpt lat="48.73537" lon="0.93082">
        <ele>163</ele>
        <time>2014-11-09T10:35:23.000Z</time>
      </trkpt>
      <trkpt lat="48.73536" lon="0.93076">
        <ele>163</ele>
        <time>2014-11-09T10:35:24.000Z</time>
      </trkpt>
      <trkpt lat="48.73513" lon="0.93029">
        <ele>162.80000305176</ele>
        <time>2014-11-09T10:35:33.000Z</time>
      </trkpt>
      <trkpt lat="48.73495" lon="0.93001">
        <ele>162.39999389648</ele>
        <time>2014-11-09T10:35:39.000Z</time>
      </trkpt>
      <trkpt lat="48.73493" lon="0.92996">
        <ele>162.39999389648</ele>
        <time>2014-11-09T10:35:40.000Z</time>
      </trkpt>
      <trkpt lat="48.73488" lon="0.92985">
        <ele>162.19999694824</ele>
        <time>2014-11-09T10:35:42.000Z</time>
      </trkpt>
      <trkpt lat="48.73484" lon="0.9298">
        <ele>162.19999694824</ele>
        <time>2014-11-09T10:35:43.000Z</time>
      </trkpt>
      <trkpt lat="48.73463" lon="0.92954">
        <ele>161.60000610352</ele>
        <time>2014-11-09T10:35:48.000Z</time>
      </trkpt>
      <trkpt lat="48.73458" lon="0.9295">
        <ele>161.60000610352</ele>
        <time>2014-11-09T10:35:49.000Z</time>
      </trkpt>
      <trkpt lat="48.73453" lon="0.92949">
        <ele>161.39999389648</ele>
        <time>2014-11-09T10:35:50.000Z</time>
      </trkpt>
      <trkpt lat="48.73449" lon="0.92946">
        <ele>161.19999694824</ele>
        <time>2014-11-09T10:35:51.000Z</time>
      </trkpt>
      <trkpt lat="48.73447" lon="0.9294">
        <ele>161.19999694824</ele>
        <time>2014-11-09T10:35:52.000Z</time>
      </trkpt>
      <trkpt lat="48.73446" lon="0.92934">
        <ele>161.19999694824</ele>
        <time>2014-11-09T10:35:53.000Z</time>
      </trkpt>
      <trkpt lat="48.73446" lon="0.92927">
        <ele>161.19999694824</ele>
        <time>2014-11-09T10:35:54.000Z</time>
      </trkpt>
      <trkpt lat="48.73446" lon="0.9292">
        <ele>161.19999694824</ele>
        <time>2014-11-09T10:35:55.000Z</time>
      </trkpt>
      <trkpt lat="48.73445" lon="0.92912">
        <ele>161.19999694824</ele>
        <time>2014-11-09T10:35:56.000Z</time>
      </trkpt>
      <trkpt lat="48.73444" lon="0.92904">
        <ele>161.19999694824</ele>
        <time>2014-11-09T10:35:57.000Z</time>
      </trkpt>
      <trkpt lat="48.7344" lon="0.92865">
        <ele>161.19999694824</ele>
        <time>2014-11-09T10:36:02.000Z</time>
      </trkpt>
      <trkpt lat="48.73439" lon="0.92857">
        <ele>161</ele>
        <time>2014-11-09T10:36:03.000Z</time>
      </trkpt>
      <trkpt lat="48.73433" lon="0.92783">
        <ele>160.80000305176</ele>
        <time>2014-11-09T10:36:14.000Z</time>
      </trkpt>
      <trkpt lat="48.73435" lon="0.9278">
        <ele>161</ele>
        <time>2014-11-09T10:36:15.000Z</time>
      </trkpt>
      <trkpt lat="48.73437" lon="0.92779">
        <ele>161</ele>
        <time>2014-11-09T10:36:16.000Z</time>
      </trkpt>
      <trkpt lat="48.73474" lon="0.92766">
        <ele>162.80000305176</ele>
        <time>2014-11-09T10:36:30.000Z</time>
      </trkpt>
      <trkpt lat="48.73475" lon="0.92764">
        <ele>162.80000305176</ele>
        <time>2014-11-09T10:36:31.000Z</time>
      </trkpt>
      <trkpt lat="48.73475" lon="0.9276">
        <ele>162.80000305176</ele>
        <time>2014-11-09T10:36:32.000Z</time>
      </trkpt>
      <trkpt lat="48.7347" lon="0.92718">
        <ele>162.19999694824</ele>
        <time>2014-11-09T10:36:42.000Z</time>
      </trkpt>
      <trkpt lat="48.73466" lon="0.92683">
        <ele>162.60000610352</ele>
        <time>2014-11-09T10:36:47.000Z</time>
      </trkpt>
      <trkpt lat="48.73464" lon="0.9267">
        <ele>162.60000610352</ele>
        <time>2014-11-09T10:36:49.000Z</time>
      </trkpt>
      <trkpt lat="48.73461" lon="0.92657">
        <ele>162.60000610352</ele>
        <time>2014-11-09T10:36:51.000Z</time>
      </trkpt>
      <trkpt lat="48.73459" lon="0.92652">
        <ele>162.60000610352</ele>
        <time>2014-11-09T10:36:52.000Z</time>
      </trkpt>
      <trkpt lat="48.7343" lon="0.92596">
        <ele>163.19999694824</ele>
        <time>2014-11-09T10:37:04.000Z</time>
      </trkpt>
      <trkpt lat="48.73418" lon="0.92577">
        <ele>163.39999389648</ele>
        <time>2014-11-09T10:37:08.000Z</time>
      </trkpt>
      <trkpt lat="48.73415" lon="0.92573">
        <ele>163.39999389648</ele>
        <time>2014-11-09T10:37:09.000Z</time>
      </trkpt>
      <trkpt lat="48.73411" lon="0.92569">
        <ele>163.39999389648</ele>
        <time>2014-11-09T10:37:10.000Z</time>
      </trkpt>
      <trkpt lat="48.73409" lon="0.92565">
        <ele>163.39999389648</ele>
        <time>2014-11-09T10:37:11.000Z</time>
      </trkpt>
      <trkpt lat="48.73406" lon="0.92561">
        <ele>163.39999389648</ele>
        <time>2014-11-09T10:37:12.000Z</time>
      </trkpt>
      <trkpt lat="48.73403" lon="0.92556">
        <ele>163.39999389648</ele>
        <time>2014-11-09T10:37:13.000Z</time>
      </trkpt>
      <trkpt lat="48.734" lon="0.92552">
        <ele>163.39999389648</ele>
        <time>2014-11-09T10:37:14.000Z</time>
      </trkpt>
      <trkpt lat="48.73396" lon="0.92548">
        <ele>163.39999389648</ele>
        <time>2014-11-09T10:37:15.000Z</time>
      </trkpt>
      <trkpt lat="48.73383" lon="0.92532">
        <ele>163.39999389648</ele>
        <time>2014-11-09T10:37:19.000Z</time>
      </trkpt>
      <trkpt lat="48.7336" lon="0.92504">
        <ele>163.19999694824</ele>
        <time>2014-11-09T10:37:26.000Z</time>
      </trkpt>
      <trkpt lat="48.73356" lon="0.92499">
        <ele>163.19999694824</ele>
        <time>2014-11-09T10:37:27.000Z</time>
      </trkpt>
      <trkpt lat="48.73353" lon="0.92495">
        <ele>163.19999694824</ele>
        <time>2014-11-09T10:37:28.000Z</time>
      </trkpt>
      <trkpt lat="48.73349" lon="0.92491">
        <ele>163.19999694824</ele>
        <time>2014-11-09T10:37:29.000Z</time>
      </trkpt>
      <trkpt lat="48.73346" lon="0.92486">
        <ele>163.39999389648</ele>
        <time>2014-11-09T10:37:30.000Z</time>
      </trkpt>
      <trkpt lat="48.73331" lon="0.92454">
        <ele>163.19999694824</ele>
        <time>2014-11-09T10:37:36.000Z</time>
      </trkpt>
      <trkpt lat="48.73328" lon="0.92449">
        <ele>163</ele>
        <time>2014-11-09T10:37:37.000Z</time>
      </trkpt>
      <trkpt lat="48.73319" lon="0.92422">
        <ele>163.19999694824</ele>
        <time>2014-11-09T10:37:42.000Z</time>
      </trkpt>
      <trkpt lat="48.73319" lon="0.92416">
        <ele>163.19999694824</ele>
        <time>2014-11-09T10:37:43.000Z</time>
      </trkpt>
      <trkpt lat="48.73321" lon="0.9241">
        <ele>163.60000610352</ele>
        <time>2014-11-09T10:37:44.000Z</time>
      </trkpt>
      <trkpt lat="48.73323" lon="0.92405">
        <ele>163.80000305176</ele>
        <time>2014-11-09T10:37:45.000Z</time>
      </trkpt>
      <trkpt lat="48.73325" lon="0.92401">
        <ele>164</ele>
        <time>2014-11-09T10:37:46.000Z</time>
      </trkpt>
      <trkpt lat="48.73328" lon="0.92398">
        <ele>164.19999694824</ele>
        <time>2014-11-09T10:37:47.000Z</time>
      </trkpt>
      <trkpt lat="48.73345" lon="0.92374">
        <ele>165.80000305176</ele>
        <time>2014-11-09T10:37:58.000Z</time>
      </trkpt>
      <trkpt lat="48.73347" lon="0.92372">
        <ele>165.80000305176</ele>
        <time>2014-11-09T10:37:59.000Z</time>
      </trkpt>
      <trkpt lat="48.73348" lon="0.92371">
        <ele>166</ele>
        <time>2014-11-09T10:38:00.000Z</time>
      </trkpt>
      <trkpt lat="48.73349" lon="0.92369">
        <ele>166.19999694824</ele>
        <time>2014-11-09T10:38:01.000Z</time>
      </trkpt>
      <trkpt lat="48.7335" lon="0.92367">
        <ele>166.19999694824</ele>
        <time>2014-11-09T10:38:02.000Z</time>
      </trkpt>
      <trkpt lat="48.73351" lon="0.92365">
        <ele>166.39999389648</ele>
        <time>2014-11-09T10:38:03.000Z</time>
      </trkpt>
      <trkpt lat="48.73352" lon="0.92364">
        <ele>166.39999389648</ele>
        <time>2014-11-09T10:38:04.000Z</time>
      </trkpt>
      <trkpt lat="48.73354" lon="0.9236">
        <ele>166.60000610352</ele>
        <time>2014-11-09T10:38:06.000Z</time>
      </trkpt>
      <trkpt lat="48.7337" lon="0.92336">
        <ele>168.19999694824</ele>
        <time>2014-11-09T10:38:21.000Z</time>
      </trkpt>
      <trkpt lat="48.73384" lon="0.92315">
        <ele>169.80000305176</ele>
        <time>2014-11-09T10:38:34.000Z</time>
      </trkpt>
      <trkpt lat="48.73401" lon="0.92295">
        <ele>171.39999389648</ele>
        <time>2014-11-09T10:38:47.000Z</time>
      </trkpt>
      <trkpt lat="48.73425" lon="0.92275">
        <ele>173.19999694824</ele>
        <time>2014-11-09T10:39:02.000Z</time>
      </trkpt>
      <trkpt lat="48.73456" lon="0.92254">
        <ele>174.19999694824</ele>
        <time>2014-11-09T10:39:15.000Z</time>
      </trkpt>
      <trkpt lat="48.73488" lon="0.92232">
        <ele>174.60000610352</ele>
        <time>2014-11-09T10:39:25.000Z</time>
      </trkpt>
      <trkpt lat="48.73551" lon="0.92192">
        <ele>173.80000305176</ele>
        <time>2014-11-09T10:39:40.000Z</time>
      </trkpt>
      <trkpt lat="48.73584" lon="0.92171">
        <ele>173</ele>
        <time>2014-11-09T10:39:48.000Z</time>
      </trkpt>
      <trkpt lat="48.73589" lon="0.9217">
        <ele>172.80000305176</ele>
        <time>2014-11-09T10:39:49.000Z</time>
      </trkpt>
      <trkpt lat="48.73593" lon="0.92168">
        <ele>172.80000305176</ele>
        <time>2014-11-09T10:39:50.000Z</time>
      </trkpt>
      <trkpt lat="48.73597" lon="0.92167">
        <ele>172.80000305176</ele>
        <time>2014-11-09T10:39:51.000Z</time>
      </trkpt>
      <trkpt lat="48.736" lon="0.92165">
        <ele>172.60000610352</ele>
        <time>2014-11-09T10:39:52.000Z</time>
      </trkpt>
      <trkpt lat="48.73604" lon="0.92162">
        <ele>172.60000610352</ele>
        <time>2014-11-09T10:39:53.000Z</time>
      </trkpt>
      <trkpt lat="48.73609" lon="0.92159">
        <ele>172.19999694824</ele>
        <time>2014-11-09T10:39:54.000Z</time>
      </trkpt>
      <trkpt lat="48.73614" lon="0.92155">
        <ele>172</ele>
        <time>2014-11-09T10:39:55.000Z</time>
      </trkpt>
      <trkpt lat="48.7362" lon="0.92152">
        <ele>171.80000305176</ele>
        <time>2014-11-09T10:39:56.000Z</time>
      </trkpt>
      <trkpt lat="48.73625" lon="0.92148">
        <ele>171.80000305176</ele>
        <time>2014-11-09T10:39:57.000Z</time>
      </trkpt>
      <trkpt lat="48.73641" lon="0.9214">
        <ele>171.60000610352</ele>
        <time>2014-11-09T10:40:00.000Z</time>
      </trkpt>
      <trkpt lat="48.73727" lon="0.92089">
        <ele>170.19999694824</ele>
        <time>2014-11-09T10:40:16.000Z</time>
      </trkpt>
      <trkpt lat="48.738" lon="0.92042">
        <ele>172</ele>
        <time>2014-11-09T10:40:30.000Z</time>
      </trkpt>
      <trkpt lat="48.73811" lon="0.92037">
        <ele>172.39999389648</ele>
        <time>2014-11-09T10:40:32.000Z</time>
      </trkpt>
      <trkpt lat="48.73814" lon="0.92034">
        <ele>172.60000610352</ele>
        <time>2014-11-09T10:40:33.000Z</time>
      </trkpt>
      <trkpt lat="48.73817" lon="0.92028">
        <ele>172.60000610352</ele>
        <time>2014-11-09T10:40:34.000Z</time>
      </trkpt>
      <trkpt lat="48.73818" lon="0.9202">
        <ele>172.80000305176</ele>
        <time>2014-11-09T10:40:35.000Z</time>
      </trkpt>
      <trkpt lat="48.73817" lon="0.92012">
        <ele>172.60000610352</ele>
        <time>2014-11-09T10:40:36.000Z</time>
      </trkpt>
      <trkpt lat="48.73813" lon="0.92004">
        <ele>172.60000610352</ele>
        <time>2014-11-09T10:40:37.000Z</time>
      </trkpt>
      <trkpt lat="48.73807" lon="0.91987">
        <ele>172.39999389648</ele>
        <time>2014-11-09T10:40:39.000Z</time>
      </trkpt>
      <trkpt lat="48.73806" lon="0.91978">
        <ele>172.19999694824</ele>
        <time>2014-11-09T10:40:40.000Z</time>
      </trkpt>
      <trkpt lat="48.73806" lon="0.91964">
        <ele>172.19999694824</ele>
        <time>2014-11-09T10:40:42.000Z</time>
      </trkpt>
      <trkpt lat="48.73808" lon="0.91959">
        <ele>172.19999694824</ele>
        <time>2014-11-09T10:40:43.000Z</time>
      </trkpt>
      <trkpt lat="48.73811" lon="0.91955">
        <ele>172.19999694824</ele>
        <time>2014-11-09T10:40:44.000Z</time>
      </trkpt>
      <trkpt lat="48.73812" lon="0.91949">
        <ele>172.19999694824</ele>
        <time>2014-11-09T10:40:45.000Z</time>
      </trkpt>
      <trkpt lat="48.73813" lon="0.91942">
        <ele>172.19999694824</ele>
        <time>2014-11-09T10:40:46.000Z</time>
      </trkpt>
      <trkpt lat="48.73814" lon="0.91935">
        <ele>172</ele>
        <time>2014-11-09T10:40:47.000Z</time>
      </trkpt>
      <trkpt lat="48.73817" lon="0.91877">
        <ele>172.19999694824</ele>
        <time>2014-11-09T10:40:56.000Z</time>
      </trkpt>
      <trkpt lat="48.73826" lon="0.91787">
        <ele>171</ele>
        <time>2014-11-09T10:41:07.000Z</time>
      </trkpt>
      <trkpt lat="48.7383" lon="0.91781">
        <ele>171.19999694824</ele>
        <time>2014-11-09T10:41:08.000Z</time>
      </trkpt>
      <trkpt lat="48.73835" lon="0.91777">
        <ele>171.19999694824</ele>
        <time>2014-11-09T10:41:09.000Z</time>
      </trkpt>
      <trkpt lat="48.73839" lon="0.91774">
        <ele>171.19999694824</ele>
        <time>2014-11-09T10:41:10.000Z</time>
      </trkpt>
      <trkpt lat="48.73844" lon="0.91772">
        <ele>171.39999389648</ele>
        <time>2014-11-09T10:41:11.000Z</time>
      </trkpt>
      <trkpt lat="48.7385" lon="0.91769">
        <ele>171.39999389648</ele>
        <time>2014-11-09T10:41:12.000Z</time>
      </trkpt>
      <trkpt lat="48.73926" lon="0.91726">
        <ele>173.60000610352</ele>
        <time>2014-11-09T10:41:27.000Z</time>
      </trkpt>
      <trkpt lat="48.73999" lon="0.91657">
        <ele>174</ele>
        <time>2014-11-09T10:41:43.000Z</time>
      </trkpt>
      <trkpt lat="48.74003" lon="0.91651">
        <ele>174</ele>
        <time>2014-11-09T10:41:44.000Z</time>
      </trkpt>
      <trkpt lat="48.74036" lon="0.91599">
        <ele>174</ele>
        <time>2014-11-09T10:41:53.000Z</time>
      </trkpt>
      <trkpt lat="48.74039" lon="0.91593">
        <ele>174</ele>
        <time>2014-11-09T10:41:54.000Z</time>
      </trkpt>
      <trkpt lat="48.74054" lon="0.91566">
        <ele>174</ele>
        <time>2014-11-09T10:41:59.000Z</time>
      </trkpt>
      <trkpt lat="48.74055" lon="0.91558">
        <ele>174</ele>
        <time>2014-11-09T10:42:00.000Z</time>
      </trkpt>
      <trkpt lat="48.74054" lon="0.9155">
        <ele>174</ele>
        <time>2014-11-09T10:42:01.000Z</time>
      </trkpt>
      <trkpt lat="48.74035" lon="0.91482">
        <ele>174.80000305176</ele>
        <time>2014-11-09T10:42:11.000Z</time>
      </trkpt>
      <trkpt lat="48.74017" lon="0.91412">
        <ele>175</ele>
        <time>2014-11-09T10:42:22.000Z</time>
      </trkpt>
      <trkpt lat="48.74018" lon="0.91405">
        <ele>175</ele>
        <time>2014-11-09T10:42:23.000Z</time>
      </trkpt>
      <trkpt lat="48.74022" lon="0.91402">
        <ele>175</ele>
        <time>2014-11-09T10:42:24.000Z</time>
      </trkpt>
      <trkpt lat="48.74031" lon="0.91395">
        <ele>174.80000305176</ele>
        <time>2014-11-09T10:42:27.000Z</time>
      </trkpt>
      <trkpt lat="48.74032" lon="0.91391">
        <ele>175</ele>
        <time>2014-11-09T10:42:28.000Z</time>
      </trkpt>
      <trkpt lat="48.74032" lon="0.91386">
        <ele>175</ele>
        <time>2014-11-09T10:42:30.000Z</time>
      </trkpt>
      <trkpt lat="48.74033" lon="0.9138">
        <ele>175</ele>
        <time>2014-11-09T10:42:32.000Z</time>
      </trkpt>
      <trkpt lat="48.74034" lon="0.91377">
        <ele>175</ele>
        <time>2014-11-09T10:42:33.000Z</time>
      </trkpt>
      <trkpt lat="48.74035" lon="0.91374">
        <ele>175</ele>
        <time>2014-11-09T10:42:34.000Z</time>
      </trkpt>
      <trkpt lat="48.74036" lon="0.9137">
        <ele>175</ele>
        <time>2014-11-09T10:42:35.000Z</time>
      </trkpt>
      <trkpt lat="48.7404" lon="0.91358">
        <ele>175</ele>
        <time>2014-11-09T10:42:45.000Z</time>
      </trkpt>
      <trkpt lat="48.7404" lon="0.91358">
        <ele>175</ele>
        <time>2014-11-09T10:42:47.000Z</time>
      </trkpt>
    </trkseg>
  </trk>
</gpx>